Ship Status Report: callsign 000000

sailwx.info

Track history (hours):
 
Tides and Currents Weather Stations Pressure Air Temp Water Temp Dewpoint Dewpoint Depression Visibility Wind Speed Wind Dir Waves Ship Positions

Callsign 000000 (name unknown)

Last reported at 2015-Aug-29 22:33 UTC. Time now 2015-Aug-29 23:32 UTC.
Position N 31°00' E 121°26'.

Type: Fishing. MMSI: 200007452.

Date/timePositionNaut miles runAvg speedWind from/ knotsBaromVisibWave heightAir tempDewpointWater temp
2015-Aug-29 22:33N 31°00' E 121°26'57706923693.0
2015-Aug-29 22:33N 37°48' W 122°18'57633457691.0
2015-Aug-29 22:33N 32°01' E 120°48'46669.4
2015-Aug-29 22:33N 31°58' E 120°50'81249.2
2015-Aug-29 22:33N 32°03' E 120°42'71965.1
2015-Aug-29 22:33N 32°00' E 120°49'663477511.0
2015-Aug-29 22:32N 23°04' E 113°29'663217027.6
2015-Aug-29 22:32N 31°59' E 120°51'66311765.9
2015-Aug-29 22:29N 23°05' E 113°26'65530222.9
2015-Aug-29 22:28N 31°21' E 121°27'55514.5
2015-Aug-29 22:21N 32°01' E 120°43'7047677.1
2015-Aug-29 22:16N 22°10' E 113°32'679964.9
2015-Aug-29 21:34N 31°00' E 121°26'57711483992.9
2015-Aug-29 21:33N 37°45' W 122°18'59211121826.8
2015-Aug-29 21:33N 27°26' E 121°13'494178019.5
2015-Aug-29 21:33N 23°04' E 113°29'65460395.2
2015-Aug-29 21:32N 31°21' E 121°27'65438611.0
2015-Aug-29 21:31N 23°04' E 113°29'66320050.7
2015-Aug-29 21:29N 32°01' E 120°48'5297.6
2015-Aug-29 21:28N 32°03' E 120°42'81067.6
2015-Aug-29 21:28N 31°58' E 120°50'3456.4
2015-Aug-29 21:27N 32°00' E 120°49'690.4
2015-Aug-29 21:24N 32°01' E 120°43'8137.8
2015-Aug-29 21:20N 31°59' E 120°51'6510647.3
2015-Aug-29 21:20N 30°58' E 121°17'6324083.4
2015-Aug-29 21:11N 23°05' E 113°26'638089.7
2015-Aug-29 21:10N 22°07' E 113°51'5137163.8
2015-Aug-29 21:06N 27°20' E 121°18'495915.7
2015-Aug-29 20:33N 23°04' E 113°29'64883892960.7
2015-Aug-29 20:33N 37°43' W 122°18'57726926509.4
2015-Aug-29 20:33N 31°00' E 121°26'6824629.9
2015-Aug-29 20:33N 32°01' E 120°48'663596958.1
2015-Aug-29 20:33N 23°05' E 113°26'6222440.7
2015-Aug-29 20:33N 22°06' E 113°46'704110233.3
2015-Aug-29 20:33N 32°00' E 120°49'5899.8
2015-Aug-29 20:32N 32°01' E 120°43'66038317.5
2015-Aug-29 20:31N 23°04' E 113°29'65469269.4
2015-Aug-29 20:31N 31°21' E 121°27'569245.1
2015-Aug-29 20:30N 32°03' E 120°42'91870.4
2015-Aug-29 20:30N 31°59' E 120°51'28217178.9
2015-Aug-29 20:29N 27°18' E 121°14'5622654.2
2015-Aug-29 20:16N 36°34' E 122°49'98330761.5
2015-Aug-29 20:14N 22°10' E 113°52'6961023.8
2015-Aug-29 19:34N 31°58' E 120°50'57614148096.4
2015-Aug-29 19:33N 37°47' W 122°21'57601219827.9
2015-Aug-29 19:33N 31°56' E 120°52'63113769.8
2015-Aug-29 19:33N 31°00' E 121°26'666266417.4
2015-Aug-29 19:33N 22°15' E 113°49'6952500507.3
2015-Aug-29 19:33N 31°59' E 120°51'285341576.9
2015-Aug-29 19:33N 27°14' E 121°07'28641221.1
2015-Aug-29 19:32N 32°00' E 120°49'663108524.4
2015-Aug-29 19:32N 23°04' E 113°29'9463404858.3
2015-Aug-29 19:32N 36°38' E 122°44'29531260.4
2015-Aug-29 19:32N 32°01' E 120°43'621485.7
2015-Aug-29 19:29N 31°02' E 121°05'62718820.3
2015-Aug-29 19:27N 23°05' E 113°26'65534665.8
2015-Aug-29 19:26N 31°21' E 121°27'6702247.1
2015-Aug-29 19:08N 22°19' E 114°07'583851.3
2015-Aug-29 19:07N 23°04' E 113°29'9471689.3
2015-Aug-29 18:33N 36°44' E 122°37'299179570.3
2015-Aug-29 18:33N 31°58' E 120°50'814964.4
2015-Aug-29 18:33N 31°51' E 120°54'91562.4
2015-Aug-29 18:33N 31°59' E 120°51'2305.9
2015-Aug-29 18:33N 32°00' E 120°49'57635187066.2
2015-Aug-29 18:32N 37°47' W 122°17'6488556114.0
2015-Aug-29 18:32N 23°04' E 113°29'030.5
2015-Aug-29 18:31N 23°04' E 113°29'660169699.7
2015-Aug-29 18:31N 32°01' E 120°43'551609.8
2015-Aug-29 18:29N 31°21' E 121°27'573842.6
2015-Aug-29 18:28N 32°03' E 120°42'737725.3
2015-Aug-29 18:27N 31°00' E 121°26'63995863.9
2015-Aug-29 18:27N 23°05' E 113°26'627282194.6
2015-Aug-29 18:27N 30°58' E 121°10'627703.1
2015-Aug-29 17:33N 23°04' E 113°29'950569778.6
2015-Aug-29 17:33N 36°49' E 122°31'950213660.3
2015-Aug-29 17:33N 23°05' E 113°26'63058193.0
2015-Aug-29 17:32N 30°58' E 121°15'12725.4
2015-Aug-29 17:31N 31°02' E 121°29'73794.2
2015-Aug-29 17:26N 32°03' E 120°42'282.2
2015-Aug-29 17:24N 32°01' E 120°43'82746.0
2015-Aug-29 17:24N 31°59' E 120°51'22712.0
2015-Aug-29 17:24N 31°58' E 120°50'2263.6
2015-Aug-29 17:23N 32°00' E 120°49'51459.9
2015-Aug-29 17:17N 31°21' E 121°27'2331.6
2015-Aug-29 16:33N 30°59' E 121°22'635175726.8
2015-Aug-29 16:33N 23°04' E 113°29'65430588.4
2015-Aug-29 16:32N 31°21' E 121°27'65590663.8
2015-Aug-29 16:31N 23°05' E 113°26'347.1
2015-Aug-29 16:28N 23°04' E 113°29'6622435.2
2015-Aug-29 16:12N 31°58' E 120°50'8612.4
2015-Aug-29 16:11N 32°03' E 120°42'7368.7
2015-Aug-29 16:10N 32°00' E 120°49'2181.4
2015-Aug-29 16:09N 31°59' E 120°51'66110.1
2015-Aug-29 15:33N 31°01' E 121°28'639383628.4
2015-Aug-29 15:33N 23°04' E 113°29'6591413.9
2015-Aug-29 15:05N 31°35' E 121°19'3145.5
2015-Aug-29 14:25N 31°05' E 121°28'62375.4
2015-Aug-29 14:15N 31°58' E 120°50'81195.7
2015-Aug-29 14:14N 32°03' E 120°42'644.4
2015-Aug-29 14:05N 32°00' E 120°49'703844055.2
2015-Aug-29 14:05N 22°11' E 113°39'712.2
2015-Aug-29 13:33N 22°16' E 113°43'7 6.6
2015-Aug-29 12:33N 22°11' E 113°38'69815045.2
2015-Aug-29 12:30N 31°23' E 121°36'55458.1
2015-Aug-29 12:23N 32°00' E 120°49'145032.1
2015-Aug-29 12:23N 31°48' E 120°56'196860.6
2015-Aug-29 12:23N 32°03' E 120°42'9339.5
2015-Aug-29 12:21N 31°59' E 120°51'82728.1
2015-Aug-29 12:21N 32°01' E 120°43'7511.1
2015-Aug-29 12:20N 31°58' E 120°50'7 8.6
2015-Aug-29 11:33N 32°01' E 120°43'136441.9
2015-Aug-29 11:33N 31°52' E 120°53'916474.6
2015-Aug-29 11:33N 32°00' E 120°49'49177733.4
2015-Aug-29 11:33N 31°25' E 121°30'472610.1
2015-Aug-29 11:31N 31°58' E 120°50'70447839.5
2015-Aug-29 11:31N 22°11' E 113°33'704362260.3
2015-Aug-29 11:30N 32°03' E 120°42'910528.4
2015-Aug-29 11:30N 31°59' E 120°51'481464.1
2015-Aug-29 11:28N 31°21' E 121°27'7252.4
2015-Aug-29 11:27N 31°17' E 121°34'6553668.2
2015-Aug-29 11:16N 23°06' E 113°27'215.8
2015-Aug-29 11:07N 23°04' E 113°29'6501115.5
2015-Aug-29 10:32N 31°13' E 121°30'173671.8
2015-Aug-29 10:32N 31°30' E 121°24'65810486.1
2015-Aug-29 10:28N 23°04' E 113°29'21682.3
2015-Aug-29 10:28N 23°06' E 113°27'66122018.2
2015-Aug-29 10:26N 31°20' E 121°39'66133520.0
2015-Aug-29 10:25N 23°02' E 113°30'6638010.6
2015-Aug-29 10:20N 31°58' E 120°51'3994.0
2015-Aug-29 10:20N 31°60' E 120°48'3324.9
2015-Aug-29 10:19N 31°58' E 120°50'662824.4
2015-Aug-29 09:31N 23°04' E 113°29'2681.3
2015-Aug-29 09:31N 23°02' E 113°31'66343389.6
2015-Aug-29 09:30N 32°00' E 120°47'636904.2
2015-Aug-29 09:30N 31°08' E 121°28'64525230.6
2015-Aug-29 09:28N 23°06' E 113°27'661103493.2
2015-Aug-29 09:28N 32°03' E 120°42'93948.2
2015-Aug-29 09:28N 31°59' E 120°51'266.4
2015-Aug-29 09:25N 32°00' E 120°49'59198.6
2015-Aug-29 09:08N 31°20' E 121°39'6881199.8
2015-Aug-29 08:33N 22°17' E 113°48'668601349.1
2015-Aug-29 08:33N 31°03' E 121°29'703870.9
2015-Aug-29 08:32N 32°00' E 120°42'65940930.0
2015-Aug-29 08:31N 23°04' E 113°29'2226.3
2015-Aug-29 08:30N 23°06' E 113°27'547.9
2015-Aug-29 08:25N 23°02' E 113°31'66326500.4
2015-Aug-29 08:23N 31°22' E 121°39'72050814.7
2015-Aug-29 08:22N 22°07' E 113°06'6143838.5
2015-Aug-29 08:22N 23°04' E 113°29'65626236.8
2015-Aug-29 08:21N 31°60' E 120°36'1293.4
2015-Aug-29 08:13N 31°58' E 120°50'226.7
2015-Aug-29 08:10N 31°59' E 120°51'66108.3
2015-Aug-29 07:33N 30°60' E 121°25'69966181.6
2015-Aug-29 07:33N 22°04' E 113°05'72347330.8
2015-Aug-29 07:32N 31°22' E 121°39'66276862.1
2015-Aug-29 07:31N 23°04' E 113°29'2268.9
2015-Aug-29 07:31N 23°02' E 113°31'6586117.4
2015-Aug-29 07:24N 31°60' E 120°38'4231.9
2015-Aug-29 07:23N 32°01' E 120°43'660263980.0
2015-Aug-29 07:23N 23°06' E 113°27'66331411.8
2015-Aug-29 07:22N 32°00' E 120°49'310.3
2015-Aug-29 07:07N 31°58' E 120°50'7271292.6
2015-Aug-29 06:33N 21°59' E 113°07'70712792.7
2015-Aug-29 06:30N 31°07' E 121°27'8625.6
2015-Aug-29 06:29N 30°59' E 121°24'63639482.7
2015-Aug-29 06:28N 23°04' E 113°29'3373.4
2015-Aug-29 06:28N 23°06' E 113°27'663596765.2
2015-Aug-29 06:28N 31°59' E 120°51'2199.2
2015-Aug-29 06:27N 32°00' E 120°49'683102469.1
2015-Aug-29 06:27N 22°18' E 114°07'58786.8
2015-Aug-29 06:22N 23°04' E 113°29'6605777.3
2015-Aug-29 06:15N 31°60' E 120°43'3531.3
2015-Aug-29 06:15N 32°03' E 120°42'8229.9
2015-Aug-29 06:13N 31°58' E 120°50'135282.6
2015-Aug-29 06:13N 32°01' E 120°35'657928.2
2015-Aug-29 05:30N 23°06' E 113°27'64457938.9
2015-Aug-29 05:29N 31°07' E 121°27'2211411.2
2015-Aug-29 05:20N 27°26' E 121°16'27310924.1
2015-Aug-29 05:19N 31°58' E 120°50'65512.9
2015-Aug-29 05:11N 30°59' E 121°24'26979.9
2015-Aug-29 05:09N 31°22' E 121°39'6097.8
2015-Aug-29 04:32N 31°60' E 120°43'51724.2
2015-Aug-29 04:32N 32°00' E 120°49'277142229.5
2015-Aug-29 04:32N 27°25' E 121°14'21555258.8
2015-Aug-29 04:32N 30°59' E 121°24'656708.4
2015-Aug-29 04:31N 31°58' E 120°50'810039.0
2015-Aug-29 04:31N 32°03' E 120°42'661595095.1
2015-Aug-29 04:31N 23°04' E 113°29'66312115.5
2015-Aug-29 04:28N 31°59' E 120°51'27676535.2
2015-Aug-29 04:28N 27°23' E 121°09'22417942.6
2015-Aug-29 04:27N 31°07' E 121°27'64411142.1
2015-Aug-29 04:23N 23°06' E 113°27'336.8
2015-Aug-29 04:19N 23°04' E 113°29'4957851.8
2015-Aug-29 04:15N 27°24' E 121°15'262369.3
2015-Aug-29 03:33N 31°46' E 121°02'4553951.7
2015-Aug-29 03:33N 31°07' E 121°27'6314157.9
2015-Aug-29 03:33N 32°00' E 120°49'61287.2
2015-Aug-29 03:32N 32°03' E 120°42'280111969.7
2015-Aug-29 03:32N 27°24' E 121°12'49493642.9
2015-Aug-29 03:32N 23°06' E 113°27'9843543505.5
2015-Aug-29 03:32N 39°04' E 117°48'448230280.6
2015-Aug-29 03:32N 31°60' E 120°44'668100194.9
2015-Aug-29 03:31N 22°54' E 113°30'670401928.1
2015-Aug-29 03:31N 31°58' E 120°50'1344.8
2015-Aug-29 03:31N 31°59' E 120°51'27762232.4
2015-Aug-29 03:31N 27°23' E 121°07'48811799.7
2015-Aug-29 03:28N 23°04' E 113°29'63633676.8
2015-Aug-29 03:27N 30°59' E 121°24'6445696.4
2015-Aug-29 03:20N 23°03' E 113°17'11669.4
2015-Aug-29 03:19N 23°04' E 113°29'515434.6
2015-Aug-29 03:19N 22°16' E 113°49'45256.8
2015-Aug-29 03:08N 23°01' E 113°42'5188.7
2015-Aug-29 02:33N 22°10' E 113°46'670803547.3
2015-Aug-29 02:33N 30°59' E 121°24'7310455.6
2015-Aug-29 02:33N 32°03' E 120°42'6799.2
2015-Aug-29 02:32N 32°00' E 120°49'27841759.9
2015-Aug-29 02:32N 27°22' E 121°07'48973339.1
2015-Aug-29 02:32N 23°06' E 113°27'3275.3
2015-Aug-29 02:31N 23°04' E 113°29'663198908.6
2015-Aug-29 02:31N 31°59' E 120°51'274140672.2
2015-Aug-29 02:31N 27°26' E 121°12'508609137.3
2015-Aug-29 02:31N 22°16' E 113°49'5220945.7
2015-Aug-29 02:31N 23°02' E 113°21'663477234.3
2015-Aug-29 02:31N 31°48' E 120°55'16570.5
2015-Aug-29 02:29N 31°60' E 120°44'6605877.7
2015-Aug-29 02:22N 23°04' E 113°29'6445229.6
2015-Aug-29 02:15N 31°07' E 121°27'5096475.5
2015-Aug-29 02:10N 39°04' E 117°51'7191181.4
2015-Aug-29 01:34N 27°25' E 121°11'519290.0
2015-Aug-29 01:34N 27°22' E 121°06'510262527.1
2015-Aug-29 01:33N 22°03' E 113°47'704158352.1
2015-Aug-29 01:33N 31°58' E 120°50'3776.0
2015-Aug-29 01:33N 31°55' E 120°52'123213.9
2015-Aug-29 01:33N 32°03' E 120°42'73130685.4
2015-Aug-29 01:33N 30°59' E 121°24'6830486.6
2015-Aug-29 01:32N 32°00' E 120°49'51523.0
2015-Aug-29 01:32N 32°01' E 120°43'6144122.3
2015-Aug-29 01:32N 31°22' E 121°39'66272182.3
2015-Aug-29 01:32N 23°06' E 113°27'3293.1
2015-Aug-29 01:31N 23°04' E 113°29'663298362.9
2015-Aug-29 01:31N 31°59' E 120°51'2758764.9
2015-Aug-29 01:29N 27°24' E 121°10'50615067.6
2015-Aug-29 01:27N 22°16' E 113°47'51614.7
2015-Aug-29 01:22N 23°04' E 113°29'662817.0
2015-Aug-29 00:34N 32°00' E 120°46'279501592.1
2015-Aug-29 00:33N 27°22' E 121°05'279167152.2
2015-Aug-29 00:33N 32°00' E 120°47'5528413.4
2015-Aug-29 00:33N 31°06' E 120°57'690496982.5
2015-Aug-29 00:33N 21°55' E 113°13'722371470.3
2015-Aug-29 00:33N 31°24' E 121°31'23830578.7
2015-Aug-29 00:33N 27°26' E 121°11'4425.3
2015-Aug-29 00:32N 27°23' E 121°10'28145959.7
2015-Aug-29 00:32N 32°03' E 120°42'66166125.0
2015-Aug-29 00:31N 23°04' E 113°29'6357000.3
2015-Aug-29 00:31N 22°03' E 113°48'70297258.9
2015-Aug-29 00:31N 32°01' E 120°43'660475173.4
2015-Aug-29 00:31N 23°04' E 113°29'63695423.8
2015-Aug-29 00:30N 30°59' E 121°24'661859.8
2015-Aug-29 00:28N 31°59' E 120°51'66368201.7
2015-Aug-29 00:27N 23°06' E 113°27'52283.2
2015-Aug-29 00:16N 22°14' E 113°24'519616.4
2015-Aug-29 00:16N 23°04' E 113°29'6433062.7
2015-Aug-29 00:04N 31°06' E 121°27'225450.8
2015-Aug-28 23:34N 27°21' E 121°05'488292540.7
2015-Aug-28 23:33N 23°06' E 113°27'634570170.0
2015-Aug-28 23:33N 30°59' E 121°19'697278802.5
2015-Aug-28 23:33N 21°55' E 113°13'541278449.1
2015-Aug-28 23:33N 27°20' E 121°09'2811012602.0
2015-Aug-28 23:33N 32°01' E 120°43'59899.8
2015-Aug-28 23:33N 32°00' E 120°49'101099.7
2015-Aug-28 23:32N 31°60' E 120°37'5542.7
2015-Aug-28 23:32N 32°03' E 120°42'66152900.8
2015-Aug-28 23:31N 23°04' E 113°29'663596710.8
2015-Aug-28 23:31N 31°59' E 120°51'66374599.4
2015-Aug-28 23:31N 23°04' E 113°29'49010023.5
2015-Aug-28 23:28N 27°21' E 121°10'2413901.2
2015-Aug-28 23:24N 31°21' E 121°31'575550043.9
2015-Aug-28 23:17N 37°47' W 122°16'6489432573.5
2015-Aug-28 23:16N 23°04' E 113°29'551353.0
2015-Aug-28 23:14N 22°09' E 113°30'18133.8
2015-Aug-28 23:06N 22°03' E 113°48'651012137.3
2015-Aug-28 22:34N 37°48' W 122°20'654723569221.2
2015-Aug-28 22:34N 21°54' E 113°12'546655039.3
2015-Aug-28 22:33N 27°23' E 121°11'215110367.9
2015-Aug-28 22:33N 30°58' E 121°13'7028069.0
2015-Aug-28 22:33N 32°03' E 120°42'6648.1
2015-Aug-28 22:33N 32°00' E 120°49'70568637.7
2015-Aug-28 22:32N 22°11' E 113°34'70549780.5
2015-Aug-28 22:31N 31°59' E 120°51'663795644.0
2015-Aug-28 22:31N 23°04' E 113°29'488175607.1
2015-Aug-28 22:31N 27°23' E 121°06'511141420.2
2015-Aug-28 22:31N 22°03' E 113°48'6322682.9
2015-Aug-28 22:31N 23°04' E 113°29'6609618.7
2015-Aug-28 22:26N 32°01' E 120°43'6605423.6
2015-Aug-28 22:19N 23°04' E 113°29'65621872.5
2015-Aug-28 22:17N 31°21' E 121°31'65665645.6
2015-Aug-28 22:17N 23°06' E 113°27'6624338.6
2015-Aug-28 22:08N 31°58' E 120°50'705105725.5
2015-Aug-28 22:07N 22°11' E 113°32'5410727.3
2015-Aug-28 22:07N 23°04' E 113°29'492882.6
2015-Aug-28 21:33N 27°24' E 121°11'515926278.5
2015-Aug-28 21:33N 22°03' E 113°48'3510575.9
2015-Aug-28 21:33N 21°53' E 113°11'693623944.4
2015-Aug-28 21:33N 30°59' E 121°09'57806936010.4
2015-Aug-28 21:33N 37°49' W 122°24'5757575661.2
2015-Aug-28 21:32N 32°00' E 120°49'70584605.0
2015-Aug-28 21:32N 22°08' E 113°40'702421260.2
2015-Aug-28 21:32N 32°01' E 120°43'21553.9
2015-Aug-28 21:32N 32°03' E 120°42'81992.9
2015-Aug-28 21:32N 31°58' E 120°50'66291601.3
2015-Aug-28 21:31N 23°04' E 113°29'366.7
2015-Aug-28 21:29N 23°06' E 113°27'6566733.1
2015-Aug-28 21:23N 31°21' E 121°30'504744.5
2015-Aug-28 21:22N 31°59' E 120°51'66354251.5
2015-Aug-28 21:22N 23°04' E 113°29'0 1.2
2015-Aug-28 21:07N 23°04' E 113°29'60107.2
2015-Aug-28 20:33N 22°06' E 113°47'3518230.6
2015-Aug-28 20:33N 21°53' E 113°11'654523561987.2
2015-Aug-28 20:33N 37°49' W 122°23'57611037035.9
2015-Aug-28 20:33N 32°03' E 120°42'704281513.8
2015-Aug-28 20:33N 22°03' E 113°48'654186.6
2015-Aug-28 20:32N 23°06' E 113°27'2207.2
2015-Aug-28 20:31N 23°04' E 113°29'031.8
2015-Aug-28 20:31N 23°04' E 113°29'627205128.0
2015-Aug-28 20:30N 31°01' E 121°05'614110.2
2015-Aug-28 20:29N 32°00' E 120°49'3611.9
2015-Aug-28 20:29N 31°58' E 120°50'504013.2
2015-Aug-28 20:28N 31°21' E 121°30'5020032.5
2015-Aug-28 20:28N 31°59' E 120°51'2765406.3
2015-Aug-28 20:25N 27°23' E 121°16'15501.0
2015-Aug-28 20:23N 27°26' E 120°59'27513356.4
2015-Aug-28 20:22N 32°01' E 120°43'6966786.9
2015-Aug-28 20:16N 22°13' E 113°45'6754018.7
2015-Aug-28 20:06N 31°07' E 121°27'7101312.8
2015-Aug-28 19:34N 21°53' E 113°11'3618367.1
2015-Aug-28 19:33N 22°09' E 113°46'512153548.0
2015-Aug-28 19:33N 27°27' E 121°08'592121316070.1
2015-Aug-28 19:33N 37°48' W 122°21'5760165881.2
2015-Aug-28 19:31N 32°00' E 120°49'7627.0
2015-Aug-28 19:30N 32°03' E 120°42'66149608.4
2015-Aug-28 19:30N 23°03' E 113°30'49520733.2
2015-Aug-28 19:28N 27°23' E 121°16'496178424.9
2015-Aug-28 19:28N 23°04' E 113°29'656472481.2
2015-Aug-28 19:28N 31°21' E 121°30'6562308.5
2015-Aug-28 19:11N 23°04' E 113°30'73117.0
2015-Aug-28 18:34N 21°53' E 113°11'351865.1
2015-Aug-28 18:32N 22°03' E 113°48'586980.9
2015-Aug-28 18:32N 22°59' E 113°31'5450.6
2015-Aug-28 18:31N 23°04' E 113°29'050.0
2015-Aug-28 18:31N 23°04' E 113°29'64370194.2
2015-Aug-28 18:31N 31°07' E 121°27'633485.0
2015-Aug-28 18:29N 32°00' E 120°49'2289.8
2015-Aug-28 18:29N 31°58' E 120°50'6616577.7
2015-Aug-28 18:23N 23°04' E 113°30'6604896.9
2015-Aug-28 18:15N 32°01' E 120°43'2792186.8
2015-Aug-28 18:07N 27°23' E 121°16'2393670.2
2015-Aug-28 18:03N 31°21' E 121°30'7211446.1
2015-Aug-28 17:33N 21°52' E 113°16'730375599.4
2015-Aug-28 17:33N 32°00' E 120°49'6311922.4
2015-Aug-28 17:33N 31°07' E 121°27'2247663.0
2015-Aug-28 17:31N 27°23' E 121°16'2766938.7
2015-Aug-28 17:29N 31°58' E 120°50'66254131.2
2015-Aug-28 17:28N 23°04' E 113°29'65637498.4
2015-Aug-28 17:27N 31°21' E 121°30'6564821.4
2015-Aug-28 17:19N 23°04' E 113°29'6613115.6
2015-Aug-28 17:06N 32°03' E 120°42'68123.4
2015-Aug-28 16:33N 31°07' E 121°27'2237589.9
2015-Aug-28 16:31N 27°23' E 121°16'496446138.9
2015-Aug-28 16:31N 23°04' E 113°29'030.9
2015-Aug-28 16:31N 23°04' E 113°29'6568717.7
2015-Aug-28 16:27N 31°21' E 121°30'65612304.3
2015-Aug-28 16:23N 23°04' E 113°29'1110.0
2015-Aug-28 16:23N 23°04' E 113°30'66318791.4
2015-Aug-28 16:21N 32°00' E 120°49'7657.4
2015-Aug-28 16:20N 32°03' E 120°42'2273.3
2015-Aug-28 16:20N 32°01' E 120°43'7560.1
2015-Aug-28 16:19N 31°58' E 120°50'705927.4
2015-Aug-28 15:33N 22°02' E 113°47'645086.2
2015-Aug-28 15:33N 23°03' E 113°30'145.9
2015-Aug-28 15:32N 23°04' E 113°30'66119832.5
2015-Aug-28 15:30N 32°03' E 120°42'6934.6
2015-Aug-28 15:30N 32°00' E 120°49'2158.9
2015-Aug-28 15:29N 31°59' E 120°51'1644.7
2015-Aug-28 15:28N 31°58' E 120°50'66264375.6
2015-Aug-28 15:28N 23°04' E 113°29'66014665.2
2015-Aug-28 15:25N 32°01' E 120°43'66021402.4
2015-Aug-28 15:23N 23°04' E 113°29'6703741.1
2015-Aug-28 15:13N 31°28' E 121°47'6707401.5
2015-Aug-28 15:07N 23°04' E 113°29'64113.6
2015-Aug-28 14:33N 22°02' E 113°47'7062541842.2
2015-Aug-28 14:33N 31°23' E 121°47'67293072.9
2015-Aug-28 14:33N 23°02' E 113°24'5222.1
2015-Aug-28 14:31N 23°04' E 113°29'662113414.4
2015-Aug-28 14:31N 31°58' E 120°50'3124.7
2015-Aug-28 14:30N 32°00' E 120°49'2168.2
2015-Aug-28 14:29N 31°59' E 120°51'915715.1
2015-Aug-28 14:29N 32°03' E 120°42'66117004.2
2015-Aug-28 14:26N 23°04' E 113°29'657745.2
2015-Aug-28 13:33N 31°20' E 121°33'612357.4
2015-Aug-28 13:32N 32°03' E 120°42'705253826.6
2015-Aug-28 13:32N 22°02' E 113°47'702841811.5
2015-Aug-28 13:32N 31°18' E 121°46'66374562.2
2015-Aug-28 13:31N 23°04' E 113°29'56417.6
2015-Aug-28 13:23N 22°09' E 113°38'70512756.0
2015-Aug-28 13:20N 31°59' E 120°51'2659.9
2015-Aug-28 13:20N 32°00' E 120°49'66362822.4
2015-Aug-28 13:19N 23°04' E 113°29'54294.7
2015-Aug-28 13:08N 22°10' E 113°31'70419649.1
2015-Aug-28 13:06N 32°01' E 120°43'7247.8
2015-Aug-28 13:04N 31°58' E 120°50'63121.7
2015-Aug-28 12:33N 31°04' E 121°28'2018148.4
2015-Aug-28 12:33N 31°12' E 121°50'66118158.8
2015-Aug-28 12:31N 23°04' E 113°29'647246.6
2015-Aug-28 12:30N 22°02' E 113°47'69742527.6
2015-Aug-28 12:29N 31°23' E 121°30'6917449.7
2015-Aug-28 12:24N 22°14' E 113°39'700139941.2
2015-Aug-28 12:24N 32°00' E 120°49'611577.1
2015-Aug-28 12:24N 32°03' E 120°42'2775.8
2015-Aug-28 12:23N 32°01' E 120°43'7295.7
2015-Aug-28 12:22N 31°58' E 120°50'1955125662.0
2015-Aug-28 12:21N 00°01' E 114°09'195693884.1
2015-Aug-28 12:20N 31°59' E 120°51'66376993.2
2015-Aug-28 12:19N 23°04' E 113°29'11490.5
2015-Aug-28 12:18N 22°58' E 113°39'11449.0
2015-Aug-28 12:16N 23°04' E 113°29'55348.7
2015-Aug-28 12:07N 22°10' E 113°37'7031263.0
2015-Aug-28 11:34N 32°03' E 120°42'705362604.2
2015-Aug-28 11:33N 22°02' E 113°47'7052537359.3
2015-Aug-28 11:33N 31°58' E 120°50'654882.1
2015-Aug-28 11:33N 30°59' E 121°24'6751214605.7
2015-Aug-28 11:33N 22°07' E 113°40'706508001.3
2015-Aug-28 11:32N 32°00' E 120°49'2225.4
2015-Aug-28 11:32N 31°59' E 120°51'1956469368.8
2015-Aug-28 11:32N 00°02' E 114°10'137131441.0
2015-Aug-28 11:29N 22°52' E 113°34'667218348.7
2015-Aug-28 11:29N 32°01' E 120°43'6605938.7
2015-Aug-28 11:22N 23°04' E 113°29'0 1.6
2015-Aug-28 11:19N 23°04' E 113°29'0 1.4
2015-Aug-28 11:16N 23°04' E 113°29'49339.7
2015-Aug-28 11:08N 22°17' E 113°44'6591143.0
2015-Aug-28 10:33N 30°58' E 121°16'667266826.7
2015-Aug-28 10:33N 22°05' E 113°46'416398.4
2015-Aug-28 10:33N 22°46' E 113°39'136489309.5
2015-Aug-28 10:32N 00°02' E 114°10'1383331943.3
2015-Aug-28 10:31N 23°04' E 113°29'0 7.7
2015-Aug-28 10:31N 23°04' E 113°29'5213340.9
2015-Aug-28 10:31N 22°14' E 113°42'69822430.7
2015-Aug-28 10:29N 32°03' E 120°42'2180.9
2015-Aug-28 10:28N 32°01' E 120°43'71291.2
2015-Aug-28 10:28N 31°58' E 120°50'3292.3
2015-Aug-28 10:27N 32°00' E 120°49'66342628.2
2015-Aug-28 10:26N 23°04' E 113°29'64620.2
2015-Aug-28 10:20N 22°02' E 113°47'1519.5
2015-Aug-28 09:33N 22°17' E 113°47'692276845.0
2015-Aug-28 09:33N 31°58' E 120°50'703281009.5
2015-Aug-28 09:33N 22°10' E 113°37'703505879.6
2015-Aug-28 09:33N 32°03' E 120°42'63307.7
2015-Aug-28 09:33N 32°00' E 120°49'5115211.0
2015-Aug-28 09:33N 31°21' E 121°27'484464.1
2015-Aug-28 09:32N 31°59' E 120°51'45190148.7
2015-Aug-28 09:32N 39°04' E 117°48'2351130232.0
2015-Aug-28 09:31N 00°02' E 114°10'19562346920.2
2015-Aug-28 09:31N 32°01' E 120°43'70411158.9
2015-Aug-28 09:27N 22°02' E 113°47'641126.0
2015-Aug-28 09:23N 23°04' E 113°29'0 0.8
2015-Aug-28 09:19N 23°04' E 113°29'0 0.4
2015-Aug-28 09:04N 23°04' E 113°29'6621283.3
2015-Aug-28 08:33N 31°58' E 120°50'7700.2
2015-Aug-28 08:33N 32°01' E 120°43'44517397.5
2015-Aug-28 08:31N 39°03' E 117°52'103747857.6
2015-Aug-28 08:30N 22°11' E 113°32'2215981.8
2015-Aug-28 08:30N 22°30' E 113°44'68498551.2
2015-Aug-28 08:29N 32°00' E 120°49'63859.0
2015-Aug-28 08:29N 32°03' E 120°42'91308.4
2015-Aug-28 08:29N 31°59' E 120°51'506009.8
2015-Aug-28 08:28N 31°21' E 121°30'6839721.3
2015-Aug-28 08:24N 22°17' E 113°49'513107.8
2015-Aug-28 08:23N 23°04' E 113°29'0 0.8
2015-Aug-28 08:19N 23°04' E 113°29'6482.8
2015-Aug-28 07:32N 22°02' E 113°47'70561911.9
2015-Aug-28 07:32N 32°03' E 120°42'661103499.0
2015-Aug-28 07:31N 23°04' E 113°29'66322309.1
2015-Aug-28 07:30N 32°00' E 120°49'6633807.1
2015-Aug-28 07:19N 23°04' E 113°29'458993.5
2015-Aug-28 07:19N 22°21' E 113°44'102424576.9
2015-Aug-28 07:16N 39°03' E 117°52'4952370.2
2015-Aug-28 07:04N 31°21' E 121°30'6601297.0
2015-Aug-28 06:33N 22°59' E 113°31'485218391.7
2015-Aug-28 06:33N 27°18' E 121°04'50023095.3
2015-Aug-28 06:32N 22°16' E 113°44'50146.5
2015-Aug-28 06:11N 23°04' E 113°29'5384.6
2015-Aug-28 05:34N 22°12' E 113°39'69377916.5
2015-Aug-28 05:33N 31°21' E 121°30'24317460.3
2015-Aug-28 05:32N 27°19' E 121°13'4925175.2
2015-Aug-28 05:26N 23°04' E 113°29'0 0.4
2015-Aug-28 05:18N 23°04' E 113°29'105907.1
2015-Aug-28 05:18N 22°55' E 113°27'66310153.3
2015-Aug-28 05:14N 31°21' E 121°27'2 2.8
2015-Aug-28 04:33N 31°22' E 121°29'69914972.0
2015-Aug-28 04:30N 22°10' E 113°30'55819.7
2015-Aug-28 04:26N 23°04' E 113°29'0 0.6
2015-Aug-28 04:21N 23°04' E 113°29'6497302.5
2015-Aug-28 04:16N 31°12' E 121°30'3 3.8
2015-Aug-28 03:33N 31°15' E 121°30'65115626.0
2015-Aug-28 03:31N 23°04' E 113°29'0 3.3
2015-Aug-28 03:30N 23°04' E 113°29'138313243.5
2015-Aug-28 03:24N 00°02' E 114°10'1322396656.8
2015-Aug-28 03:23N 22°04' E 113°48'6332492.1
2015-Aug-28 03:23N 23°04' E 113°29'13831606.8
2015-Aug-28 02:32N 00°02' E 114°10'1924266346.9
2015-Aug-28 02:31N 31°17' E 121°34'655112281.9
2015-Aug-28 02:31N 23°04' E 113°29'61792471458.2
2015-Aug-28 02:31N 48°55' W 123°19'6179444858.8
2015-Aug-28 02:30N 23°04' E 113°29'0 0.5
2015-Aug-28 02:23N 23°04' E 113°29'51700.5
2015-Aug-28 02:19N 22°16' E 113°49'678893.2
2015-Aug-28 01:33N 31°15' E 121°30'53904851117.0
2015-Aug-28 01:33N 49°02' W 123°19'53831490809.6
2015-Aug-28 01:33N 31°20' E 121°33'192710957.4
2015-Aug-28 01:23N 00°02' E 114°10'13357109.5
2015-Aug-28 01:11N 22°16' E 113°47'19162.3
2015-Aug-28 01:04N 22°19' E 114°08'618312006.3
2015-Aug-28 00:33N 49°09' W 123°18'5381807182.8
2015-Aug-28 00:33N 31°22' E 121°30'67217156.4
2015-Aug-28 00:31N 22°28' E 113°52'42344.9
2015-Aug-28 00:23N 23°04' E 113°29'138319604.9
2015-Aug-28 00:19N 00°02' E 114°10'13831797.0
2015-Aug-27 23:33N 23°04' E 113°29'6172965991.6
2015-Aug-27 23:32N 49°15' W 123°18'7306309438.0
2015-Aug-27 23:31N 00°02' E 114°10'193023714.7
2015-Aug-27 23:26N 31°24' E 121°32'659741.5
2015-Aug-27 22:33N 23°04' E 113°29'138346537.3
2015-Aug-27 22:31N 00°02' E 114°10'1933102313.3
2015-Aug-27 22:30N 31°28' E 121°27'65910780.3
2015-Aug-27 22:26N 23°04' E 113°29'10151.1
2015-Aug-27 22:22N 22°55' E 113°26'668795.4
2015-Aug-27 21:32N 31°31' E 121°22'6657555.1
2015-Aug-27 21:27N 22°54' E 113°31'10104.5
2015-Aug-27 21:21N 23°04' E 113°29'0 0.5
2015-Aug-27 21:14N 23°04' E 113°29'0 0.1
2015-Aug-27 20:33N 23°04' E 113°29'398.4
2015-Aug-27 20:31N 23°02' E 113°31'311.3
2015-Aug-27 20:14N 23°04' E 113°29'0 0.5
2015-Aug-27 19:33N 23°04' E 113°29'037.5
2015-Aug-27 19:33N 23°04' E 113°29'0 0.5
2015-Aug-27 19:26N 23°04' E 113°29'0 0.1
2015-Aug-27 18:33N 23°04' E 113°29'014.3
2015-Aug-27 18:32N 23°04' E 113°29'0 3.6
2015-Aug-27 18:28N 23°04' E 113°29'0 3.3
2015-Aug-27 18:26N 23°04' E 113°29'5764.4
2015-Aug-27 17:33N 22°11' E 113°50'575663.1
2015-Aug-27 17:33N 23°04' E 113°29'0 6.2
2015-Aug-27 17:30N 23°04' E 113°29'657112562.6
2015-Aug-27 17:30N 31°20' E 121°33'681726.4
2015-Aug-27 16:33N 22°20' E 113°48'4810112.3
2015-Aug-27 16:33N 23°04' E 113°29'0147.4
2015-Aug-27 16:33N 23°04' E 113°29'656472491.9
2015-Aug-27 16:33N 31°21' E 121°31'65620367.8
2015-Aug-27 16:31N 23°04' E 113°29'6593527.0
2015-Aug-27 16:20N 31°23' E 121°34'6984900.5
2015-Aug-27 16:11N 22°10' E 113°36'5485.3
2015-Aug-27 15:33N 23°04' E 113°29'32802.9
2015-Aug-27 15:33N 23°04' E 113°26'6619295.9
2015-Aug-27 15:29N 31°24' E 121°33'3113.9
2015-Aug-27 15:27N 31°21' E 121°31'6563088.3
2015-Aug-27 15:14N 23°04' E 113°29'0 0.5
2015-Aug-27 15:04N 23°04' E 113°29'1 1.2
2015-Aug-27 14:33N 23°04' E 113°30'6567899.0
2015-Aug-27 14:28N 31°21' E 121°31'6568378.2
2015-Aug-27 14:23N 23°04' E 113°29'659107776.6
2015-Aug-27 14:23N 31°27' E 121°28'6633766.1
2015-Aug-27 14:12N 23°02' E 113°24'6 8.3
2015-Aug-27 13:32N 23°04' E 113°30'65631076.1
2015-Aug-27 13:31N 31°21' E 121°31'656181744.0
2015-Aug-27 13:31N 23°04' E 113°29'81062.3
2015-Aug-27 13:30N 23°03' E 113°20'8117.9
2015-Aug-27 13:26N 23°04' E 113°29'1 0.8
2015-Aug-27 12:33N 23°04' E 113°30'5399.4
2015-Aug-27 12:33N 23°03' E 113°25'66015524.0
2015-Aug-27 12:30N 31°21' E 121°31'65618901.1
2015-Aug-27 12:28N 23°04' E 113°29'0 2.9
2015-Aug-27 12:26N 23°04' E 113°29'10374.0
2015-Aug-27 12:25N 22°55' E 113°33'441247.8
2015-Aug-27 12:22N 22°10' E 113°32'5464.9
2015-Aug-27 11:33N 23°04' E 113°30'65615139.6
2015-Aug-27 11:30N 31°21' E 121°31'65667511.7
2015-Aug-27 11:30N 23°04' E 113°29'518999.1
2015-Aug-27 11:30N 22°59' E 113°31'66811235.3
2015-Aug-27 11:26N 31°20' E 121°48'26140.1
2015-Aug-27 11:15N 31°33' E 121°21'689826988.1
2015-Aug-27 11:15N 22°17' E 113°44'6 8.1
2015-Aug-27 10:33N 22°13' E 113°48'62070.9
2015-Aug-27 10:33N 22°15' E 113°43'688275027.9
2015-Aug-27 10:33N 31°21' E 121°31'65687473.4
2015-Aug-27 10:33N 23°04' E 113°30'661594881.2
2015-Aug-27 10:33N 31°16' E 121°46'231379.2
2015-Aug-27 10:32N 31°31' E 121°24'660475310.0
2015-Aug-27 10:31N 23°03' E 113°30'2290.3
2015-Aug-27 10:31N 23°04' E 113°29'581.4
2015-Aug-27 10:27N 23°02' E 113°24'5277.4
2015-Aug-27 10:26N 23°04' E 113°29'6632237.2
2015-Aug-27 10:08N 32°00' E 120°49'6631130.5
2015-Aug-27 09:33N 23°04' E 113°30'5347976.5
2015-Aug-27 09:33N 22°11' E 113°39'697836044.3
2015-Aug-27 09:33N 31°28' E 121°28'251215.8
2015-Aug-27 09:32N 31°12' E 121°49'66523458.1
2015-Aug-27 09:30N 23°02' E 113°24'661237925.5
2015-Aug-27 09:30N 31°21' E 121°31'657394065.0
2015-Aug-27 09:30N 23°02' E 113°30'521.5
2015-Aug-27 09:16N 23°06' E 113°26'353.1
2015-Aug-27 09:13N 23°04' E 113°29'1 1.0
2015-Aug-27 08:33N 23°04' E 113°30'65940928.4
2015-Aug-27 08:32N 31°26' E 121°31'2176267.3
2015-Aug-27 08:32N 31°12' E 121°49'66023302.7
2015-Aug-27 08:30N 23°05' E 113°28'2113.1
2015-Aug-27 08:29N 23°05' E 113°27'5515259.8
2015-Aug-27 08:29N 22°11' E 113°34'542353.9
2015-Aug-27 08:28N 23°04' E 113°29'65669488.4
2015-Aug-27 08:27N 31°21' E 121°31'67219842.5
2015-Aug-27 08:25N 22°27' E 113°53'1618.8
2015-Aug-27 07:33N 22°13' E 113°45'6992515047.7
2015-Aug-27 07:33N 32°00' E 120°49'681188502.9
2015-Aug-27 07:33N 22°28' E 113°54'67931756.3
2015-Aug-27 07:32N 32°03' E 120°42'9561.3
2015-Aug-27 07:31N 31°59' E 120°51'682098.0
2015-Aug-27 07:29N 31°12' E 121°49'6813667.8
2015-Aug-27 07:29N 31°58' E 120°50'7525.2
2015-Aug-27 07:28N 32°01' E 120°43'6265.8
2015-Aug-27 07:27N 31°55' E 120°47'6986826.3
2015-Aug-27 07:20N 22°06' E 113°47'695860.0
2015-Aug-27 06:32N 31°12' E 121°49'6732424001.5
2015-Aug-27 06:32N 22°28' E 113°54'203725.6
2015-Aug-27 06:32N 22°09' E 113°53'452.4
2015-Aug-27 06:27N 22°10' E 113°48'659743.3
2015-Aug-27 05:33N 30°58' E 121°09'641100337.0
2015-Aug-27 05:33N 22°28' E 113°54'167232.4
2015-Aug-27 05:33N 22°14' E 113°46'4604.8
2015-Aug-27 05:32N 22°10' E 113°48'69180289.8
2015-Aug-27 05:32N 31°12' E 121°49'772104.2
2015-Aug-27 05:30N 32°03' E 120°42'89973.5
2015-Aug-27 05:30N 31°55' E 120°47'4267.0
2015-Aug-27 05:29N 31°58' E 120°50'7203.8
2015-Aug-27 05:27N 32°01' E 120°43'811891.8
2015-Aug-27 05:24N 31°08' E 121°54'778120.7
2015-Aug-27 05:24N 32°00' E 120°49'6981.8
2015-Aug-27 04:33N 31°13' E 121°48'66074274.1
2015-Aug-27 04:33N 23°04' E 113°29'663795686.8
2015-Aug-27 04:33N 32°00' E 120°49'6832.4
2015-Aug-27 04:32N 32°01' E 120°43'7519209.3
2015-Aug-27 04:32N 31°12' E 121°49'684917.2
2015-Aug-27 04:31N 31°58' E 120°50'8829.0
2015-Aug-27 04:30N 32°03' E 120°42'8118.6
2015-Aug-27 04:26N 31°56' E 120°47'6947062.2
2015-Aug-27 04:20N 22°10' E 113°48'591028.3
2015-Aug-27 04:17N 23°06' E 113°27'6248781.7
2015-Aug-27 04:13N 31°01' E 121°01'5067288.2
2015-Aug-27 04:08N 39°03' E 117°52'101625040.0
2015-Aug-27 04:06N 22°28' E 113°54'431200.4
2015-Aug-27 04:04N 23°04' E 113°29'6611291.6
2015-Aug-27 03:33N 32°03' E 120°42'7142691.9
2015-Aug-27 03:33N 31°18' E 121°47'664165.9
2015-Aug-27 03:32N 31°59' E 120°46'7116033.1
2015-Aug-27 03:32N 31°12' E 121°49'66072017.4
2015-Aug-27 03:31N 23°06' E 113°27'66295267.9
2015-Aug-27 03:31N 31°58' E 120°50'679174618.6
2015-Aug-27 03:31N 22°28' E 113°54'3923454.9
2015-Aug-27 03:31N 22°54' E 113°22'502385.9
2015-Aug-27 03:29N 22°10' E 113°48'69955945.0
2015-Aug-27 03:29N 32°00' E 120°49'6635004.0
2015-Aug-27 03:21N 23°04' E 113°29'12276.9
2015-Aug-27 03:18N 23°04' E 113°16'669901.6
2015-Aug-27 02:33N 31°07' E 121°54'689112793.5
2015-Aug-27 02:33N 22°13' E 113°48'5628828.8
2015-Aug-27 02:33N 23°03' E 113°21'469748.9
2015-Aug-27 02:33N 22°28' E 113°54'68361446.7
2015-Aug-27 02:32N 31°25' E 121°48'6694757.9
2015-Aug-27 02:24N 23°04' E 113°29'273.6
2015-Aug-27 02:22N 23°06' E 113°27'6612291.1
2015-Aug-27 02:04N 32°03' E 120°42'6951353.7
2015-Aug-27 01:34N 22°12' E 113°50'1032154868.4
2015-Aug-27 01:33N 39°04' E 117°48'524145082.1
2015-Aug-27 01:33N 31°03' E 122°01'661264477.2
2015-Aug-27 01:33N 23°04' E 113°29'421328.9
2015-Aug-27 01:31N 22°28' E 113°54'43860.1
2015-Aug-27 01:28N 23°04' E 113°29'502788.3
2015-Aug-27 01:27N 22°17' E 113°49'50621.8
2015-Aug-27 01:22N 23°04' E 113°29'66010240.1
2015-Aug-27 01:18N 32°01' E 120°43'22613.9
2015-Aug-27 01:18N 32°03' E 120°42'6707.1
2015-Aug-27 01:17N 32°00' E 120°49'13697.1
2015-Aug-27 01:16N 32°00' E 120°34'14963.3
2015-Aug-27 01:15N 31°58' E 120°50'811.6
2015-Aug-27 00:33N 32°03' E 120°42'66544316.9
2015-Aug-27 00:32N 22°58' E 113°32'6639707.8
2015-Aug-27 00:28N 32°01' E 120°43'4252.3
2015-Aug-27 00:26N 32°01' E 120°48'66324856.6
2015-Aug-27 00:25N 23°04' E 113°29'43961.2
2015-Aug-27 00:22N 22°28' E 113°54'431673.9
2015-Aug-27 00:21N 23°04' E 113°29'663837.0
2015-Aug-26 23:33N 32°00' E 120°49'671.8
2015-Aug-26 23:28N 32°03' E 120°42'4446286.8
2015-Aug-26 23:23N 39°03' E 117°50'99125480.3
2015-Aug-26 23:21N 22°58' E 113°30'6602355.8
2015-Aug-26 23:04N 31°18' E 121°33'6551249.1
2015-Aug-26 22:33N 23°04' E 113°29'663298427.1
2015-Aug-26 22:33N 32°00' E 120°49'6638175.2
2015-Aug-26 22:28N 23°04' E 113°29'661556.1
2015-Aug-26 21:17N 32°03' E 120°42'66113225.2
2015-Aug-26 21:14N 23°04' E 113°29'6637930.7
2015-Aug-26 21:09N 32°00' E 120°49'57962.1
2015-Aug-26 21:05N 31°18' E 121°33'6551225.1
2015-Aug-26 20:33N 23°04' E 113°29'6614858.8
2015-Aug-26 20:25N 32°03' E 120°42'6194.5
2015-Aug-26 20:23N 32°00' E 120°49'533.8
2015-Aug-26 20:13N 32°01' E 120°43'2 2.8
2015-Aug-26 19:26N 32°03' E 120°42'661216412.6
2015-Aug-26 19:26N 23°04' E 113°29'66319892.9
2015-Aug-26 19:24N 32°00' E 120°49'6 7.7
2015-Aug-26 18:33N 32°03' E 120°42'6179.4
2015-Aug-26 18:31N 32°00' E 120°49'6636939.4
2015-Aug-26 18:26N 23°04' E 113°29'0 3.6
2015-Aug-26 18:24N 23°04' E 113°29'6604265.5
2015-Aug-26 18:15N 32°01' E 120°43'6127274.4
2015-Aug-26 18:15N 31°18' E 121°33'6553978.3
2015-Aug-26 18:05N 23°04' E 113°29'6611266.9
2015-Aug-26 17:33N 32°03' E 120°42'6632387125.6
2015-Aug-26 17:33N 23°04' E 113°26'551336.1
2015-Aug-26 17:31N 22°09' E 113°30'55609.0
2015-Aug-26 17:26N 23°04' E 113°29'6639664.5
2015-Aug-26 17:21N 32°00' E 120°49'57720.8
2015-Aug-26 17:17N 31°18' E 121°33'694836.7
2015-Aug-26 16:27N 22°10' E 113°36'54743.9
2015-Aug-26 16:23N 23°04' E 113°29'5869.5
2015-Aug-26 15:33N 22°07' E 113°40'702713.2
2015-Aug-26 14:33N 32°01' E 120°43'700157587.3
2015-Aug-26 14:33N 22°06' E 113°47'702132984.3
2015-Aug-26 14:33N 32°03' E 120°42'6530.8
2015-Aug-26 14:32N 32°00' E 120°49'6637555.0
2015-Aug-26 14:27N 23°04' E 113°29'0 3.6
2015-Aug-26 14:26N 23°04' E 113°29'9195.5
2015-Aug-26 14:23N 23°03' E 113°20'5 6.5
2015-Aug-26 13:33N 23°04' E 113°25'322.2
2015-Aug-26 13:24N 23°04' E 113°29'6611945.1
2015-Aug-26 13:04N 32°03' E 120°42'19583898.3
2015-Aug-26 12:33N 00°02' E 114°08'138312798.1
2015-Aug-26 12:27N 23°04' E 113°29'0 1.1
2015-Aug-26 12:23N 23°04' E 113°29'66319892.8
2015-Aug-26 12:21N 32°00' E 120°49'6141.1
2015-Aug-26 12:18N 32°03' E 120°42'211.5
2015-Aug-26 12:06N 32°01' E 120°43'662010.3
2015-Aug-26 12:05N 31°25' E 121°48'19343737.7
2015-Aug-26 11:33N 00°02' E 114°10'193078079.7
2015-Aug-26 11:32N 31°21' E 121°48'12141.5
2015-Aug-26 11:27N 31°20' E 121°33'68749480.2
2015-Aug-26 11:26N 22°15' E 113°43'50131.8
2015-Aug-26 11:03N 23°04' E 113°29'6611346.9
2015-Aug-26 10:33N 31°17' E 121°45'192672216.2
2015-Aug-26 10:32N 00°02' E 114°10'133027209.4
2015-Aug-26 10:29N 22°12' E 113°39'54501.6
2015-Aug-26 10:22N 23°04' E 113°29'6628577.3
2015-Aug-26 10:18N 31°58' E 120°51'77373.1
2015-Aug-26 10:06N 30°50' E 121°31'463653.6
2015-Aug-26 10:05N 31°35' E 121°19'4380.9
2015-Aug-26 09:33N 30°53' E 121°31'52519105.0
2015-Aug-26 09:31N 39°05' E 117°45'10373613.1
2015-Aug-26 09:14N 22°11' E 113°34'10361524.7
2015-Aug-26 08:33N 39°03' E 117°52'4912395.4
2015-Aug-26 08:21N 31°26' E 121°30'6595159.9
2015-Aug-26 08:13N 23°04' E 113°29'657927.9
2015-Aug-26 07:31N 31°23' E 121°30'67016751.1
2015-Aug-26 07:29N 22°29' E 113°56'1015125944.7
2015-Aug-26 07:28N 39°04' E 117°49'1017732011.6
2015-Aug-26 07:28N 22°27' E 113°53'11193.4
2015-Aug-26 07:25N 22°17' E 113°47'501499.8
2015-Aug-26 07:23N 23°04' E 113°29'6172.2
2015-Aug-26 06:32N 22°05' E 113°47'242740.4
2015-Aug-26 06:31N 22°28' E 113°53'6539711.6
2015-Aug-26 06:27N 31°16' E 121°03'262556.9
2015-Aug-26 06:27N 31°17' E 121°34'6559707.1
2015-Aug-26 06:22N 23°04' E 113°29'640783.6
2015-Aug-26 05:34N 31°17' E 121°08'65613260.2
2015-Aug-26 05:31N 22°28' E 113°53'42692.6
2015-Aug-26 05:27N 23°04' E 113°29'0 1.1
2015-Aug-26 05:23N 23°04' E 113°29'43579.2
2015-Aug-26 05:18N 22°29' E 113°56'653863.1
2015-Aug-26 04:33N 31°15' E 121°09'6531175422.6
2015-Aug-26 04:33N 22°29' E 113°56'43362.8
2015-Aug-26 04:26N 23°04' E 113°29'1060.0
2015-Aug-26 04:16N 22°55' E 113°27'57474.4
2015-Aug-26 04:09N 22°02' E 113°48'6751143.4
2015-Aug-26 03:33N 31°09' E 121°09'545542.0
2015-Aug-26 03:33N 32°00' E 120°49'68179136.4
2015-Aug-26 03:32N 22°28' E 113°53'42385.0
2015-Aug-26 03:25N 23°04' E 113°29'660669.1
2015-Aug-26 02:26N 31°11' E 121°49'711511.6
2015-Aug-26 02:24N 32°00' E 120°49'66339136.2
2015-Aug-26 02:22N 23°04' E 113°29'66310603.7
2015-Aug-26 02:19N 31°58' E 120°51'9508.5
2015-Aug-26 02:18N 32°03' E 120°42'42435.8
2015-Aug-26 02:12N 31°35' E 121°19'4161.4
2015-Aug-26 01:32N 31°08' E 121°55'7755312.8
2015-Aug-26 01:32N 32°00' E 120°49'5102.7
2015-Aug-26 01:29N 32°01' E 120°43'69039433.6
2015-Aug-26 01:28N 22°17' E 113°49'691497678.8
2015-Aug-26 01:28N 32°03' E 120°42'9204.6
2015-Aug-26 01:25N 31°58' E 120°51'0 0.0
2015-Aug-26 00:33N 31°58' E 120°51'32533.3
2015-Aug-26 00:33N 32°00' E 120°49'697104605.5
2015-Aug-26 00:33N 22°12' E 113°49'696357990.7
2015-Aug-26 00:33N 32°03' E 120°42'228.3
2015-Aug-26 00:28N 32°01' E 120°43'2 2.4
2015-Aug-25 23:33N 32°03' E 120°42'6396.3
2015-Aug-25 23:32N 32°00' E 120°49'491033.0
2015-Aug-25 23:30N 31°20' E 121°22'67332327.9
2015-Aug-25 23:28N 22°21' E 113°49'462347.8
2015-Aug-25 23:27N 23°06' E 113°38'562090.8
2015-Aug-25 23:26N 22°10' E 113°31'7043818.1
2015-Aug-25 23:14N 32°01' E 120°43'2 3.2
2015-Aug-25 22:33N 32°03' E 120°42'685.1
2015-Aug-25 22:28N 32°00' E 120°49'549.8
2015-Aug-25 22:22N 32°01' E 120°43'8545.0
2015-Aug-25 22:21N 31°58' E 120°51'7056800.2
2015-Aug-25 22:15N 22°09' E 113°38'5 6.7
2015-Aug-25 21:34N 22°06' E 113°42'70670552.9
2015-Aug-25 21:33N 31°58' E 120°51'66324104.6
2015-Aug-25 21:31N 23°04' E 113°29'663132657.0
2015-Aug-25 21:31N 32°00' E 120°49'66344207.9
2015-Aug-25 21:30N 23°04' E 113°29'6515645.8
2015-Aug-25 21:23N 31°20' E 121°23'651759.3
2015-Aug-25 20:32N 23°04' E 113°29'65150954.6
2015-Aug-25 20:31N 31°20' E 121°23'65615947.7
2015-Aug-25 20:29N 23°02' E 113°24'66464651.6
2015-Aug-25 20:28N 32°01' E 120°43'5741.0
2015-Aug-25 20:27N 32°00' E 120°49'5 6.0
2015-Aug-25 19:33N 32°01' E 120°43'5396.9
2015-Aug-25 19:33N 32°00' E 120°49'6238.6
2015-Aug-25 19:31N 32°03' E 120°42'668218491.0
2015-Aug-25 19:31N 23°03' E 113°18'66935425.0
2015-Aug-25 19:30N 31°58' E 120°51'66315099.4
2015-Aug-25 19:27N 23°04' E 113°29'65114036.0
2015-Aug-25 19:24N 31°20' E 121°23'0 0.0
2015-Aug-25 18:30N 31°20' E 121°23'6811832.7
2015-Aug-25 18:07N 22°17' E 113°44'491981.3
2015-Aug-25 18:06N 23°04' E 113°29'5194.2
2015-Aug-25 17:33N 22°14' E 113°42'6972508526.1
2015-Aug-25 17:33N 32°03' E 120°42'66123570.8
2015-Aug-25 17:32N 23°04' E 113°29'011.3
2015-Aug-25 17:30N 23°04' E 113°29'66349733.1
2015-Aug-25 17:29N 32°00' E 120°49'501578.5
2015-Aug-25 17:27N 31°20' E 121°23'65197679.9
2015-Aug-25 17:27N 23°04' E 113°29'66379531.0
2015-Aug-25 17:26N 31°58' E 120°51'81962.3
2015-Aug-25 17:26N 32°01' E 120°43'700796.8
2015-Aug-25 16:33N 22°11' E 113°38'7021262913.4
2015-Aug-25 16:33N 32°03' E 120°42'552510.6
2015-Aug-25 16:32N 31°20' E 121°23'65197665.1
2015-Aug-25 16:32N 23°04' E 113°29'5455.2
2015-Aug-25 15:33N 22°11' E 113°33'69120741.4
2015-Aug-25 15:31N 31°20' E 121°23'556842.6
2015-Aug-25 15:31N 32°03' E 120°42'7273.7
2015-Aug-25 15:30N 32°00' E 120°49'66345909.2
2015-Aug-25 15:29N 23°04' E 113°29'66010900.3
2015-Aug-25 15:25N 32°01' E 120°43'6603921.6
2015-Aug-25 15:15N 23°04' E 113°29'124.3
2015-Aug-25 15:13N 23°04' E 113°30'652946.3
2015-Aug-25 14:32N 31°20' E 121°25'652146737.8
2015-Aug-25 14:32N 23°04' E 113°29'66310470.1
2015-Aug-25 14:28N 32°00' E 120°49'66315297.5
2015-Aug-25 14:25N 23°04' E 113°30'6621987.4
2015-Aug-25 14:05N 31°58' E 120°51'92503.2
2015-Aug-25 14:05N 32°03' E 120°42'0 0.0
2015-Aug-25 13:32N 32°03' E 120°42'6617043.8
2015-Aug-25 13:27N 23°04' E 113°29'655471895.7
2015-Aug-25 13:27N 31°22' E 121°28'6558670.2
2015-Aug-25 13:22N 23°04' E 113°30'11294.1
2015-Aug-25 13:20N 22°53' E 113°30'1113.7
2015-Aug-25 12:32N 23°04' E 113°29'66125597.5
2015-Aug-25 12:30N 32°03' E 120°42'6631.9
2015-Aug-25 12:30N 32°00' E 120°49'6639358.4
2015-Aug-25 12:25N 23°04' E 113°30'659790333.1
2015-Aug-25 12:25N 31°25' E 121°31'55297.4
2015-Aug-25 12:14N 32°01' E 120°43'6686503.4
2015-Aug-25 12:08N 22°51' E 113°34'6701134.4
2015-Aug-25 11:33N 32°03' E 120°42'623161.9
2015-Aug-25 11:33N 32°00' E 120°49'66989193.8
2015-Aug-25 11:32N 22°54' E 113°34'66957300.4
2015-Aug-25 11:31N 31°58' E 120°51'6632683.6
2015-Aug-25 11:17N 23°04' E 113°29'0 2.6
2015-Aug-25 11:15N 23°04' E 113°29'624895.4
2015-Aug-25 10:33N 30°58' E 121°04'626322004.4
2015-Aug-25 10:33N 22°60' E 113°31'5483.0
2015-Aug-25 10:32N 23°04' E 113°29'027.2
2015-Aug-25 10:32N 23°04' E 113°29'6583172.7
2015-Aug-25 10:19N 31°29' E 121°24'6585399.2
2015-Aug-25 10:12N 23°04' E 113°29'6638552.2
2015-Aug-25 10:07N 31°58' E 120°51'92475.3
2015-Aug-25 10:07N 32°03' E 120°42'6252.6
2015-Aug-25 10:05N 32°00' E 120°49'6631229.7
2015-Aug-25 09:33N 23°05' E 113°28'2150.9
2015-Aug-25 09:32N 23°04' E 113°29'62620486.4
2015-Aug-25 09:31N 30°58' E 121°08'351769.9
2015-Aug-25 09:29N 31°32' E 121°21'65859239.7
2015-Aug-25 09:29N 23°04' E 113°29'49171.5
2015-Aug-25 09:12N 22°18' E 113°46'4874.0
2015-Aug-25 08:32N 23°04' E 113°29'65860757.5
2015-Aug-25 08:32N 31°26' E 121°29'32700.1
2015-Aug-25 08:29N 30°57' E 121°12'628107588.5
2015-Aug-25 08:29N 23°06' E 113°27'5560.1
2015-Aug-25 07:33N 22°11' E 113°32'705507672.5
2015-Aug-25 07:33N 32°03' E 120°42'7013333.7
2015-Aug-25 07:33N 30°58' E 121°14'669147.7
2015-Aug-25 07:32N 32°00' E 120°49'66345909.5
2015-Aug-25 07:32N 23°04' E 113°29'3326.7
2015-Aug-25 07:31N 23°06' E 113°27'322.2
2015-Aug-25 07:23N 23°04' E 113°29'8210.5
2015-Aug-25 07:21N 23°03' E 113°20'6647225.2
2015-Aug-25 07:15N 31°26' E 121°29'2941.7
2015-Aug-25 06:33N 30°58' E 121°18'631141922.9
2015-Aug-25 06:33N 23°05' E 113°29'141.5
2015-Aug-25 06:32N 23°04' E 113°29'65823935.3
2015-Aug-25 06:30N 31°26' E 121°29'6585968.5
2015-Aug-25 06:23N 23°04' E 113°29'663794.4
2015-Aug-25 05:33N 32°00' E 120°49'61531.2
2015-Aug-25 05:33N 32°03' E 120°42'82530.9
2015-Aug-25 05:33N 31°58' E 120°50'46707.9
2015-Aug-25 05:29N 31°26' E 121°29'658131644.0
2015-Aug-25 05:29N 23°04' E 113°29'1928.7
2015-Aug-25 05:29N 23°05' E 113°29'65998901.6
2015-Aug-25 05:28N 32°01' E 120°43'1896.2
2015-Aug-25 05:17N 31°47' E 120°56'53243.3
2015-Aug-25 05:04N 30°59' E 121°21'2 4.5
2015-Aug-25 04:33N 30°60' E 121°24'67551695.7
2015-Aug-25 04:32N 22°02' E 113°48'70553996.9
2015-Aug-25 04:31N 32°03' E 120°42'1555019.3
2015-Aug-25 04:31N 31°51' E 120°53'65827242.6
2015-Aug-25 04:30N 23°05' E 113°27'65914460.9
2015-Aug-25 04:27N 31°26' E 121°29'53365.2
2015-Aug-25 04:19N 32°01' E 120°43'5202.8
2015-Aug-25 04:17N 32°00' E 120°49'6626098.9
2015-Aug-25 04:10N 23°05' E 113°29'122.9
2015-Aug-25 04:08N 23°04' E 113°29'6611148.9
2015-Aug-25 03:33N 31°56' E 120°52'22029.8
2015-Aug-25 03:33N 31°58' E 120°50'78377.1
2015-Aug-25 03:33N 32°01' E 120°43'21469.0
2015-Aug-25 03:33N 32°03' E 120°42'7332938.4
2015-Aug-25 03:33N 31°01' E 121°28'647465595.3
2015-Aug-25 03:33N 23°03' E 113°19'66558369.5
2015-Aug-25 03:32N 31°26' E 121°29'69844079.3
2015-Aug-25 03:31N 22°02' E 113°48'661458.4
2015-Aug-25 03:28N 23°05' E 113°29'6628083.6
2015-Aug-25 03:23N 32°00' E 120°49'3 3.2
2015-Aug-25 02:33N 31°58' E 120°50'8480.9
2015-Aug-25 02:32N 32°03' E 120°42'5291.3
2015-Aug-25 02:31N 32°00' E 120°48'6578496.6
2015-Aug-25 02:31N 31°05' E 121°28'68760.0
2015-Aug-25 02:25N 32°01' E 120°43'5100.6
2015-Aug-25 02:22N 32°00' E 120°49'48306.1
2015-Aug-25 02:13N 31°26' E 121°29'6589554.1
2015-Aug-25 02:09N 23°04' E 113°29'2 3.8
2015-Aug-25 01:30N 23°06' E 113°27'531463.2
2015-Aug-25 01:28N 22°17' E 113°49'9451.5
2015-Aug-25 01:26N 22°09' E 113°54'602729.5
2015-Aug-25 01:25N 23°04' E 113°29'0 1.0
2015-Aug-25 01:20N 23°04' E 113°29'661264509.4
2015-Aug-25 01:20N 32°03' E 120°42'3484.4
2015-Aug-25 01:19N 31°60' E 120°40'81374.1
2015-Aug-25 01:19N 32°00' E 120°49'51482.0
2015-Aug-25 01:19N 32°01' E 120°43'7253.2
2015-Aug-25 01:17N 31°58' E 120°50'662839.2
2015-Aug-25 00:30N 23°06' E 113°27'217.6
2015-Aug-25 00:21N 23°04' E 113°29'0 0.6
2015-Aug-25 00:13N 23°04' E 113°29'5887.9
2015-Aug-24 23:33N 22°10' E 113°52'56516.8
2015-Aug-24 23:33N 22°06' E 113°48'6031073.5
2015-Aug-24 23:33N 23°04' E 113°29'66349736.1
2015-Aug-24 23:33N 32°00' E 120°49'31184.4
2015-Aug-24 23:32N 31°58' E 120°50'82525.8
2015-Aug-24 23:32N 32°03' E 120°42'66114877.6
2015-Aug-24 23:30N 23°06' E 113°27'66220532.6
2015-Aug-24 23:28N 32°02' E 120°43'68447326.2
2015-Aug-24 23:27N 22°26' E 113°50'683769.6
2015-Aug-24 22:33N 32°03' E 120°42'667800005.5
2015-Aug-24 22:33N 23°02' E 113°22'669240675.6
2015-Aug-24 22:33N 32°00' E 120°49'3158.7
2015-Aug-24 22:32N 31°58' E 120°50'6624469.9
2015-Aug-24 22:23N 23°06' E 113°27'6210.3
2015-Aug-24 22:22N 23°02' E 113°21'667822.0
2015-Aug-24 21:33N 32°03' E 120°42'611472.2
2015-Aug-24 21:33N 32°00' E 120°49'663265231.5
2015-Aug-24 21:33N 23°04' E 113°29'66268068.6
2015-Aug-24 21:32N 31°58' E 120°50'6621192214.9
2015-Aug-24 21:32N 23°05' E 113°27'258.3
2015-Aug-24 21:30N 23°04' E 113°29'0 0.5
2015-Aug-24 21:22N 23°04' E 113°29'2392.5
2015-Aug-24 21:22N 23°06' E 113°27'49229.7
2015-Aug-24 21:09N 22°17' E 113°20'4880.3
2015-Aug-24 20:33N 23°04' E 113°29'7887.1
2015-Aug-24 20:33N 22°58' E 113°32'667184591.6
2015-Aug-24 20:32N 32°00' E 120°49'3452.6
2015-Aug-24 20:32N 31°58' E 120°50'81210.9
2015-Aug-24 20:32N 32°03' E 120°42'6613960.7
2015-Aug-24 20:22N 23°06' E 113°27'2548.2
2015-Aug-24 20:21N 23°04' E 113°29'0 0.1
2015-Aug-24 19:33N 23°04' E 113°29'081.0
2015-Aug-24 19:33N 23°04' E 113°29'661238076.5
2015-Aug-24 19:33N 32°03' E 120°42'6305.9
2015-Aug-24 19:32N 32°00' E 120°49'31354.9
2015-Aug-24 19:32N 31°58' E 120°50'6629270.4
2015-Aug-24 19:28N 23°06' E 113°27'221.7
2015-Aug-24 19:21N 23°04' E 113°29'2 3.1
2015-Aug-24 18:33N 23°06' E 113°27'21732.1
2015-Aug-24 18:33N 23°04' E 113°29'076.0
2015-Aug-24 18:33N 23°04' E 113°29'503273.9
2015-Aug-24 18:32N 22°16' E 113°44'50901.8
2015-Aug-24 18:29N 23°02' E 113°23'5 5.5
2015-Aug-24 17:33N 23°06' E 113°27'28660.4
2015-Aug-24 17:33N 23°04' E 113°29'090.5
2015-Aug-24 17:33N 23°04' E 113°29'661216418.2
2015-Aug-24 17:33N 32°03' E 120°42'700630405.9
2015-Aug-24 17:33N 22°12' E 113°39'70221598.6
2015-Aug-24 17:31N 32°00' E 120°49'3731.1
2015-Aug-24 17:31N 31°58' E 120°50'7232893.4
2015-Aug-24 17:16N 22°06' E 113°05'6287.8
2015-Aug-24 16:33N 23°04' E 113°29'669879.3
2015-Aug-24 16:33N 22°02' E 113°05'725652868.8
2015-Aug-24 16:33N 32°03' E 120°42'661297555.4
2015-Aug-24 16:33N 23°04' E 113°29'541393.1
2015-Aug-24 16:30N 22°11' E 113°34'52570.4
2015-Aug-24 16:25N 23°03' E 113°30'5244.9
2015-Aug-24 16:24N 23°06' E 113°27'5970.6
2015-Aug-24 15:33N 22°11' E 113°51'582839.2
2015-Aug-24 15:32N 23°04' E 113°25'6822230.9
2015-Aug-24 15:32N 21°58' E 113°08'692612.8
2015-Aug-24 15:30N 23°04' E 113°29'2206.0
2015-Aug-24 15:30N 23°06' E 113°27'6612790.6
2015-Aug-24 15:15N 32°03' E 120°42'21913.0
2015-Aug-24 15:14N 31°47' E 120°57'13639.1
2015-Aug-24 15:13N 31°58' E 120°50'6621005.2
2015-Aug-24 14:33N 23°04' E 113°29'090.5
2015-Aug-24 14:33N 23°04' E 113°29'661264509.8
2015-Aug-24 14:33N 32°03' E 120°42'205059.5
2015-Aug-24 14:33N 31°47' E 120°56'723520723.3
2015-Aug-24 14:33N 21°54' E 113°11'43919.7
2015-Aug-24 14:30N 22°20' E 113°48'505013.7
2015-Aug-24 14:29N 23°06' E 113°27'5558.8
2015-Aug-24 13:33N 22°11' E 113°25'201576.6
2015-Aug-24 13:33N 21°55' E 113°12'717265.5
2015-Aug-24 13:32N 23°04' E 113°30'31534.2
2015-Aug-24 13:32N 23°06' E 113°27'290.3
2015-Aug-24 13:30N 23°04' E 113°29'2 2.5
2015-Aug-24 12:33N 23°06' E 113°27'7014763.4
2015-Aug-24 12:33N 21°57' E 113°13'694850.5
2015-Aug-24 12:32N 23°04' E 113°30'129.5
2015-Aug-24 12:30N 23°04' E 113°29'137517186.3
2015-Aug-24 12:26N 01°32' E 121°30'13741582.4
2015-Aug-24 11:33N 23°04' E 113°30'69951.5
2015-Aug-24 11:29N 21°57' E 113°13'701805.6
2015-Aug-24 11:27N 23°06' E 113°27'662744.7
2015-Aug-24 10:33N 32°00' E 120°48'51501.8
2015-Aug-24 10:33N 32°03' E 120°42'6581.8
2015-Aug-24 10:33N 32°00' E 120°49'66314204.7
2015-Aug-24 10:30N 23°04' E 113°30'320.3
2015-Aug-24 10:21N 23°06' E 113°27'0 0.0
2015-Aug-24 09:32N 23°06' E 113°27'311112.7
2015-Aug-24 09:32N 23°04' E 113°30'119.4
2015-Aug-24 09:30N 23°04' E 113°29'40661.3
2015-Aug-24 09:27N 22°28' E 113°47'124604.5
2015-Aug-24 09:27N 22°17' E 113°44'105247.2
2015-Aug-24 09:26N 22°10' E 113°35'7052839.3
2015-Aug-24 09:12N 32°00' E 120°49'611476.1
2015-Aug-24 09:11N 32°03' E 120°42'8161.1
2015-Aug-24 09:08N 31°58' E 120°50'6951193.4
2015-Aug-24 08:33N 22°12' E 113°49'5566072.5
2015-Aug-24 08:33N 23°04' E 113°30'3179.2
2015-Aug-24 08:32N 23°06' E 113°27'46948.3
2015-Aug-24 08:29N 22°22' E 113°45'1565.4
2015-Aug-24 08:15N 22°09' E 113°37'705120903.8
2015-Aug-24 08:15N 32°00' E 120°49'663939.2
2015-Aug-24 07:33N 23°04' E 113°29'3416.9
2015-Aug-24 07:32N 23°06' E 113°27'511615.7
2015-Aug-24 07:30N 22°17' E 113°44'4951.9
2015-Aug-24 06:33N 23°04' E 113°29'2126.5
2015-Aug-24 06:32N 23°06' E 113°27'6626884.0
2015-Aug-24 06:26N 32°02' E 120°43'6624891.1
2015-Aug-24 06:18N 23°04' E 113°29'66228363.9
2015-Aug-24 06:17N 31°58' E 120°50'7261001.2
2015-Aug-24 05:33N 21°57' E 113°13'2623616.9
2015-Aug-24 05:33N 22°10' E 113°37'55199104.5
2015-Aug-24 05:33N 23°04' E 113°26'241.6
2015-Aug-24 05:31N 23°06' E 113°27'2357.9
2015-Aug-24 05:30N 23°04' E 113°29'630664.8
2015-Aug-24 04:33N 30°58' E 121°16'67137754.0
2015-Aug-24 04:32N 22°10' E 113°32'70517391.7
2015-Aug-24 04:30N 32°03' E 120°42'72712585.6
2015-Aug-24 04:26N 21°59' E 113°07'692224.9
2015-Aug-24 04:25N 23°06' E 113°27'65876388.5
2015-Aug-24 04:24N 32°00' E 120°39'8858.3
2015-Aug-24 04:23N 32°00' E 120°49'66318363.9
2015-Aug-24 04:21N 23°04' E 113°29'627782.5
2015-Aug-24 03:33N 30°58' E 121°09'651628.7
2015-Aug-24 03:31N 32°00' E 120°49'319.7
2015-Aug-24 03:23N 31°58' E 120°50'6623879.5
2015-Aug-24 03:13N 23°06' E 113°27'661297670.1
2015-Aug-24 03:12N 32°02' E 120°43'66944586.4
2015-Aug-24 03:12N 23°04' E 113°16'670977.4
2015-Aug-24 02:30N 32°00' E 120°49'663298413.8
2015-Aug-24 02:30N 23°04' E 113°29'66174388.7
2015-Aug-24 02:30N 32°03' E 120°42'704110148.4
2015-Aug-24 02:29N 22°09' E 113°37'70025984.2
2015-Aug-24 02:28N 31°60' E 120°40'66311584.0
2015-Aug-24 02:24N 23°03' E 113°21'664.0
2015-Aug-24 02:19N 23°06' E 113°27'6615865.4
2015-Aug-24 02:12N 32°02' E 120°43'5 8.4
2015-Aug-24 01:33N 32°00' E 120°49'611654.9
2015-Aug-24 01:33N 32°03' E 120°42'469.7
2015-Aug-24 01:30N 31°60' E 120°40'700630116.4
2015-Aug-24 01:30N 22°09' E 113°37'70431281.1
2015-Aug-24 01:28N 31°58' E 120°50'740.8
2015-Aug-24 01:17N 32°02' E 120°43'662901.2
2015-Aug-24 00:33N 23°04' E 113°29'66339779.6
2015-Aug-24 00:32N 32°00' E 120°49'6197.1
2015-Aug-24 00:30N 32°03' E 120°42'66614886.4
2015-Aug-24 00:28N 22°56' E 113°34'66248648.1
2015-Aug-24 00:27N 31°60' E 120°40'562.1
2015-Aug-24 00:22N 32°01' E 120°46'554.2
2015-Aug-24 00:16N 31°58' E 120°50'811.8
2015-Aug-23 23:33N 32°03' E 120°42'413438.5
2015-Aug-23 23:33N 31°59' E 120°40'9562.5
2015-Aug-23 23:32N 31°59' E 120°50'1592.4
2015-Aug-23 23:32N 32°00' E 120°49'66328418.1
2015-Aug-23 23:31N 23°06' E 113°27'66214797.3
2015-Aug-23 23:28N 31°58' E 120°50'6623997.8
2015-Aug-23 23:18N 23°04' E 113°29'683632858.3
2015-Aug-23 23:06N 33°28' W 117°42'614611359.0
2015-Aug-23 22:33N 32°01' E 120°32'151553.5
2015-Aug-23 22:33N 32°00' E 120°49'6456.8
2015-Aug-23 22:32N 32°03' E 120°42'9485.7
2015-Aug-23 22:31N 31°58' E 120°50'6626636.2
2015-Aug-23 22:25N 23°06' E 113°27'572245.2
2015-Aug-23 22:23N 22°09' E 113°38'47366.5
2015-Aug-23 22:16N 22°56' E 113°34'5070.6
2015-Aug-23 21:33N 22°07' E 113°42'70484448.9
2015-Aug-23 21:33N 32°03' E 120°42'66618156.4
2015-Aug-23 21:31N 22°56' E 113°34'66830809.4
2015-Aug-23 21:29N 32°00' E 120°49'320.8
2015-Aug-23 21:22N 31°58' E 120°50'662818.2
2015-Aug-23 20:33N 23°04' E 113°29'616283.4
2015-Aug-23 20:33N 22°06' E 113°48'70348649.1
2015-Aug-23 20:32N 32°00' E 120°49'66834330.7
2015-Aug-23 20:31N 22°56' E 113°34'6839239043.3
2015-Aug-23 20:29N 33°13' W 117°47'6141345435.2
2015-Aug-23 20:28N 32°03' E 120°42'83781.2
2015-Aug-23 20:28N 31°58' E 120°50'6626172.3
2015-Aug-23 20:21N 23°06' E 113°27'2 3.0
2015-Aug-23 19:33N 23°04' E 113°29'66195223.5
2015-Aug-23 19:33N 32°03' E 120°42'6716.5
2015-Aug-23 19:32N 32°00' E 120°49'663198917.2
2015-Aug-23 19:32N 23°06' E 113°27'12515.7
2015-Aug-23 19:31N 22°56' E 113°34'684326377.2
2015-Aug-23 19:15N 33°12' W 117°42'6141138169.7
2015-Aug-23 19:13N 31°58' E 120°50'3 3.9
2015-Aug-23 18:32N 32°00' E 120°49'663159148.8
2015-Aug-23 18:32N 23°06' E 113°27'662198563.5
2015-Aug-23 18:32N 32°02' E 120°44'66633320.1
2015-Aug-23 18:31N 22°56' E 113°34'6848440248.0
2015-Aug-23 18:30N 33°12' W 117°37'1 0.6
2015-Aug-23 17:33N 33°12' W 117°37'6848293489.7
2015-Aug-23 17:32N 23°06' E 113°27'66334099.2
2015-Aug-23 17:31N 32°01' E 120°48'114.7
2015-Aug-23 17:26N 32°00' E 120°49'66811956.0
2015-Aug-23 17:23N 22°56' E 113°34'6663777.0
2015-Aug-23 17:12N 31°58' E 120°50'70827717.5
2015-Aug-23 17:11N 22°11' E 113°25'7101025.3
2015-Aug-23 16:29N 32°00' E 120°49'66356833.5
2015-Aug-23 16:29N 23°06' E 113°27'658158026.7
2015-Aug-23 16:28N 31°60' E 120°41'8486.2
2015-Aug-23 16:27N 31°58' E 120°50'666798727.2
2015-Aug-23 16:27N 23°02' E 113°24'444.7
2015-Aug-23 16:21N 23°04' E 113°29'6847115715.6
2015-Aug-23 16:18N 33°12' W 117°38'68479146.9
2015-Aug-23 15:33N 23°06' E 113°27'28939.2
2015-Aug-23 15:33N 23°04' E 113°29'9671.9
2015-Aug-23 15:32N 22°56' E 113°34'461238.7
2015-Aug-23 15:30N 22°10' E 113°31'708106170.9
2015-Aug-23 15:29N 32°00' E 120°49'6634942.4
2015-Aug-23 15:21N 23°04' E 113°29'65650261.4
2015-Aug-23 15:21N 31°22' E 121°30'491208.9
2015-Aug-23 15:18N 31°58' E 120°50'662881.4
2015-Aug-23 14:33N 23°03' E 113°30'5312761.9
2015-Aug-23 14:33N 22°10' E 113°36'7037515.1
2015-Aug-23 14:27N 31°58' E 120°50'3150.2
2015-Aug-23 14:26N 32°00' E 120°49'6635100.8
2015-Aug-23 14:18N 23°04' E 113°29'5978.5
2015-Aug-23 13:33N 22°06' E 113°40'5935262.8
2015-Aug-23 13:33N 23°04' E 113°29'62414.6
2015-Aug-23 13:33N 22°59' E 113°32'66512341.2
2015-Aug-23 13:30N 31°58' E 120°50'3249.4
2015-Aug-23 13:29N 32°00' E 120°49'696747.9
2015-Aug-23 12:33N 22°13' E 113°50'89634.4
2015-Aug-23 12:33N 22°06' E 113°46'6131201.0
2015-Aug-23 12:33N 23°04' E 113°29'1245.5
2015-Aug-23 12:17N 22°53' E 113°34'670803717.0
2015-Aug-23 12:17N 32°00' E 120°49'362.2
2015-Aug-23 12:15N 31°58' E 120°50'662955.0
2015-Aug-23 11:33N 23°04' E 113°29'66215777.2
2015-Aug-23 11:31N 32°02' E 120°44'5 5.3
2015-Aug-23 10:33N 32°00' E 120°49'6683882.3
2015-Aug-23 10:23N 22°56' E 113°34'10330.2
2015-Aug-23 10:21N 23°04' E 113°29'936.5
2015-Aug-23 10:06N 23°03' E 113°19'4 7.3
2015-Aug-23 09:32N 23°02' E 113°23'3779991.2
2015-Aug-23 09:30N 26°00' E 119°29'3723150.5
2015-Aug-23 09:23N 22°56' E 113°34'10343.0
2015-Aug-23 09:21N 23°04' E 113°29'6564396.6
2015-Aug-23 09:12N 31°22' E 121°29'28271.7
2015-Aug-23 09:06N 30°58' E 121°14'6651213.2
2015-Aug-23 08:33N 22°06' E 113°47'60107688.2
2015-Aug-23 08:33N 23°04' E 113°29'501360.9
2015-Aug-23 08:31N 22°17' E 113°47'379273229.0
2015-Aug-23 08:31N 25°58' E 119°25'36830078.5
2015-Aug-23 08:30N 23°04' E 113°29'1077.9
2015-Aug-23 08:23N 22°56' E 113°34'4453.2
2015-Aug-23 07:33N 22°14' E 113°48'69653315.5
2015-Aug-23 07:32N 32°00' E 120°49'39444.6
2015-Aug-23 07:32N 31°58' E 120°50'666114210.0
2015-Aug-23 07:32N 22°56' E 113°34'6468646.6
2015-Aug-23 07:27N 31°05' E 121°28'64846670.9
2015-Aug-23 07:27N 22°56' E 113°30'859.8
2015-Aug-23 07:18N 23°04' E 113°29'659263793.2
2015-Aug-23 07:18N 31°60' E 120°43'53303.2
2015-Aug-23 07:08N 31°21' E 121°25'6861137.9
2015-Aug-23 06:31N 22°10' E 113°48'687103061.3
2015-Aug-23 06:31N 31°21' E 121°27'51394.4
2015-Aug-23 06:23N 32°00' E 120°49'66319567.0
2015-Aug-23 06:21N 23°04' E 113°29'0 0.0
2015-Aug-23 05:33N 23°04' E 113°29'572034.7
2015-Aug-23 05:32N 22°10' E 113°48'68915605.4
2015-Aug-23 05:29N 31°22' E 121°30'67418809.8
2015-Aug-23 05:27N 22°25' E 113°53'6842951.4
2015-Aug-23 05:13N 32°00' E 120°49'5157.1
2015-Aug-23 05:11N 32°01' E 120°43'7147.0
2015-Aug-23 05:08N 31°58' E 120°50'6821050.0
2015-Aug-23 04:29N 22°26' E 113°53'171841.6
2015-Aug-23 04:28N 22°10' E 113°48'6962506900.6
2015-Aug-23 04:28N 32°01' E 120°43'5513284.1
2015-Aug-23 04:28N 31°23' E 121°30'523271.3
2015-Aug-23 04:27N 31°60' E 120°48'3196.1
2015-Aug-23 04:26N 31°58' E 120°50'662727.9
2015-Aug-23 03:32N 23°04' E 113°29'6881374.9
2015-Aug-23 03:32N 22°12' E 114°17'265579.1
2015-Aug-23 03:31N 22°10' E 113°48'6992517374.9
2015-Aug-23 03:31N 32°00' E 120°49'698720.3
2015-Aug-23 02:33N 22°12' E 113°48'552020.7
2015-Aug-23 02:32N 23°04' E 113°29'1012450.2
2015-Aug-23 02:32N 22°54' E 113°29'6717173.2
2015-Aug-23 02:26N 32°00' E 120°49'555.4
2015-Aug-23 02:20N 32°01' E 120°43'7896.7
2015-Aug-23 02:20N 31°58' E 120°50'3 3.3
2015-Aug-23 01:32N 32°00' E 120°49'6734261.6
2015-Aug-23 01:32N 30°59' E 121°19'691202.0
2015-Aug-23 01:28N 32°01' E 120°43'69016459.1
2015-Aug-23 01:26N 22°17' E 113°48'50477.8
2015-Aug-23 01:20N 23°04' E 113°29'642835.6
2015-Aug-23 00:34N 31°05' E 121°28'621555.0
2015-Aug-23 00:31N 31°58' E 120°50'42524.8
2015-Aug-23 00:31N 32°00' E 120°47'4 3.5
2015-Aug-22 23:31N 31°58' E 120°50'345.3
2015-Aug-22 23:27N 32°00' E 120°49'5155.9
2015-Aug-22 23:25N 32°01' E 120°43'6949726.2
2015-Aug-22 23:21N 22°10' E 113°53'697877.9
2015-Aug-22 22:33N 32°00' E 120°49'69312413.1
2015-Aug-22 22:30N 22°17' E 113°48'6901928.9
2015-Aug-22 22:09N 32°01' E 120°43'0 0.0
2015-Aug-22 21:32N 32°01' E 120°43'7263.3
2015-Aug-22 21:31N 31°58' E 120°50'683189242.0
2015-Aug-22 21:30N 22°26' E 113°50'442107.0
2015-Aug-22 21:29N 23°05' E 113°27'6644595.2
2015-Aug-22 21:20N 32°00' E 120°49'6634094.7
2015-Aug-22 21:11N 23°04' E 113°29'6621069.9
2015-Aug-22 20:34N 31°58' E 120°50'346.4
2015-Aug-22 20:30N 32°00' E 120°49'5202.0
2015-Aug-22 20:28N 32°01' E 120°43'6606768.2
2015-Aug-22 20:23N 23°04' E 113°29'663803.0
2015-Aug-22 19:33N 32°00' E 120°49'66327439.1
2015-Aug-22 19:32N 23°04' E 113°29'66232196.9
2015-Aug-22 19:30N 31°58' E 120°50'655.7
2015-Aug-22 19:24N 32°00' E 120°44'1 1.2
2015-Aug-22 18:33N 32°01' E 120°43'66022411.7
2015-Aug-22 18:32N 23°04' E 113°29'511908.0
2015-Aug-22 18:30N 22°14' E 113°24'7088583.7
2015-Aug-22 18:25N 32°00' E 120°49'3178.6
2015-Aug-22 18:24N 31°58' E 120°50'4173.4
2015-Aug-22 18:23N 31°54' E 120°53'6 6.8
2015-Aug-22 17:34N 31°59' E 120°50'1175.0
2015-Aug-22 17:33N 32°00' E 120°49'33154.8
2015-Aug-22 17:33N 31°58' E 120°50'66228030.6
2015-Aug-22 17:32N 23°04' E 113°29'5511602.9
2015-Aug-22 17:31N 22°09' E 113°27'6823177.6
2015-Aug-22 17:18N 31°00' E 121°27'5 6.3
2015-Aug-22 16:33N 30°59' E 121°21'6512276.8
2015-Aug-22 16:33N 31°58' E 120°50'670126874.9
2015-Aug-22 16:33N 22°54' E 113°31'341019.5
2015-Aug-22 16:31N 22°23' E 113°46'44331.0
2015-Aug-22 16:23N 23°04' E 113°29'66326822.4
2015-Aug-22 16:21N 32°00' E 120°49'5295.4
2015-Aug-22 16:20N 32°01' E 120°43'661848.6
2015-Aug-22 15:33N 23°02' E 113°31'630566997.3
2015-Aug-22 15:33N 30°58' E 121°14'66067905.5
2015-Aug-22 15:33N 22°15' E 113°43'513001.6
2015-Aug-22 15:32N 23°04' E 113°29'11197.6
2015-Aug-22 15:28N 22°54' E 113°30'635693.9
2015-Aug-22 14:34N 30°59' E 121°09'658169084.4
2015-Aug-22 14:33N 22°10' E 113°52'112259.0
2015-Aug-22 14:33N 22°12' E 113°40'523108.5
2015-Aug-22 14:32N 23°02' E 113°23'6981.9
2015-Aug-22 14:32N 23°04' E 113°29'5354.4
2015-Aug-22 13:33N 22°12' E 113°40'531884.2
2015-Aug-22 13:32N 23°04' E 113°29'6636801.1
2015-Aug-22 13:26N 32°00' E 120°49'319.0
2015-Aug-22 13:18N 31°58' E 120°50'700945.7
2015-Aug-22 12:33N 22°12' E 113°40'111186.3
2015-Aug-22 12:33N 22°10' E 113°52'583179.2
2015-Aug-22 12:32N 23°04' E 113°29'663149199.8
2015-Aug-22 12:31N 32°00' E 120°49'375.0
2015-Aug-22 12:29N 31°58' E 120°50'700749.1
2015-Aug-22 11:33N 22°12' E 113°40'9352.7
2015-Aug-22 11:32N 22°18' E 113°48'69169115.1
2015-Aug-22 11:31N 32°01' E 120°46'2803.6
2015-Aug-22 11:31N 32°00' E 120°49'5414.5
2015-Aug-22 11:30N 32°01' E 120°43'798.3
2015-Aug-22 11:26N 32°01' E 120°35'66510639.8
2015-Aug-22 11:22N 22°54' E 113°28'6708181.5
2015-Aug-22 11:17N 31°58' E 120°50'6794674.5
2015-Aug-22 11:08N 22°15' E 114°19'684768.0
2015-Aug-22 11:08N 23°04' E 113°29'6621158.5
2015-Aug-22 10:33N 31°58' E 120°52'668300589.7
2015-Aug-22 10:33N 23°03' E 113°20'5416085.7
2015-Aug-22 10:33N 22°12' E 113°40'70062958.5
2015-Aug-22 10:32N 31°58' E 120°50'8310.4
2015-Aug-22 10:31N 32°01' E 120°42'6829443.4
2015-Aug-22 10:26N 22°12' E 114°15'6857983.9
2015-Aug-22 10:21N 32°00' E 120°49'66323176.8
2015-Aug-22 10:20N 23°04' E 113°29'663854.4
2015-Aug-22 09:33N 32°00' E 120°49'70156077.1
2015-Aug-22 09:32N 22°12' E 113°40'14116.0
2015-Aug-22 09:25N 22°11' E 113°25'103895819.4
2015-Aug-22 09:24N 39°05' E 117°46'98553732.7
2015-Aug-22 09:23N 23°05' E 113°27'234.7
2015-Aug-22 09:20N 23°04' E 113°29'65563688.3
2015-Aug-22 09:19N 31°22' E 121°28'690898.8
2015-Aug-22 08:33N 22°12' E 113°40'95667.9
2015-Aug-22 08:33N 22°10' E 113°30'1039747863.1
2015-Aug-22 08:33N 39°04' E 117°51'98650686.8
2015-Aug-22 08:32N 23°04' E 113°29'6606579.1
2015-Aug-22 08:26N 31°42' E 121°09'25277.4
2015-Aug-22 08:20N 32°02' E 120°50'1821337.0
2015-Aug-22 08:20N 31°47' E 121°01'910211.8
2015-Aug-22 08:20N 31°49' E 120°51'92653.1
2015-Aug-22 08:20N 31°58' E 120°50'69776065.4
2015-Aug-22 08:19N 22°13' E 113°45'68939365.2
2015-Aug-22 08:18N 31°22' E 121°30'695931.1
2015-Aug-22 07:33N 22°10' E 113°37'41436.6
2015-Aug-22 07:33N 22°12' E 113°40'622869.8
2015-Aug-22 07:33N 22°08' E 113°46'5763.9
2015-Aug-22 07:33N 22°13' E 113°48'691146369.4
2015-Aug-22 07:33N 31°38' E 121°15'66610119.6
2015-Aug-22 07:29N 23°03' E 113°19'960.8
2015-Aug-22 07:20N 23°04' E 113°29'64370.8
2015-Aug-22 07:09N 22°02' E 113°47'7011175.1
2015-Aug-22 06:33N 31°41' E 121°12'66566470.1
2015-Aug-22 06:33N 23°02' E 113°24'664140577.3
2015-Aug-22 06:33N 31°33' E 121°21'69395904.1
2015-Aug-22 06:32N 22°12' E 113°45'556784.2
2015-Aug-22 06:32N 23°04' E 113°29'571106.2
2015-Aug-22 06:29N 22°10' E 113°48'7 7.4
2015-Aug-22 05:34N 22°14' E 113°43'698114252.9
2015-Aug-22 05:33N 32°00' E 120°49'699209793.6
2015-Aug-22 05:33N 22°10' E 113°48'81305.9
2015-Aug-22 05:33N 22°02' E 113°47'70157338.3
2015-Aug-22 05:32N 31°37' E 121°16'303084.4
2015-Aug-22 05:31N 31°58' E 120°50'662125476.0
2015-Aug-22 05:31N 23°05' E 113°27'66030476.0
2015-Aug-22 05:30N 32°01' E 120°43'6605629.7
2015-Aug-22 05:23N 23°04' E 113°29'6592074.6
2015-Aug-22 05:04N 31°24' E 121°32'6961390.1
2015-Aug-22 04:34N 22°11' E 113°38'61294.7
2015-Aug-22 04:33N 22°05' E 113°42'706231111.6
2015-Aug-22 04:33N 32°00' E 120°49'136724.9
2015-Aug-22 04:33N 32°00' E 120°34'472007.6
2015-Aug-22 04:32N 31°34' E 121°19'347712.7
2015-Aug-22 04:31N 31°58' E 120°50'502536.7
2015-Aug-22 04:30N 31°21' E 121°30'65742207.3
2015-Aug-22 04:29N 23°03' E 113°30'661198154.2
2015-Aug-22 04:29N 32°01' E 120°43'696417853.5
2015-Aug-22 04:29N 22°10' E 113°48'57555.6
2015-Aug-22 04:23N 23°04' E 113°29'5465.4
2015-Aug-22 03:34N 22°11' E 113°33'142578.5
2015-Aug-22 03:33N 22°13' E 113°48'689310165.8
2015-Aug-22 03:33N 31°31' E 121°23'69883774.7
2015-Aug-22 03:33N 22°10' E 113°36'543494.7
2015-Aug-22 03:32N 23°04' E 113°29'653733.6
2015-Aug-22 03:31N 22°11' E 114°09'689718.8
2015-Aug-22 02:33N 32°00' E 120°49'4312865.4
2015-Aug-22 02:33N 31°29' E 121°24'67432374.8
2015-Aug-22 02:32N 22°12' E 114°17'68266364.5
2015-Aug-22 02:31N 31°58' E 120°50'72094.4
2015-Aug-22 02:31N 32°01' E 120°43'6601707.9
2015-Aug-22 02:08N 23°04' E 113°29'6621162.8
2015-Aug-22 01:33N 31°58' E 120°50'71569.8
2015-Aug-22 01:33N 32°01' E 120°43'52474.7
2015-Aug-22 01:33N 32°00' E 120°49'43498.1
2015-Aug-22 01:28N 31°29' E 121°24'6587474.4
2015-Aug-22 01:23N 23°04' E 113°29'6242840.8
2015-Aug-22 01:09N 30°58' E 121°05'61100.8
2015-Aug-22 00:33N 31°58' E 120°50'62110790.2
2015-Aug-22 00:33N 30°58' E 121°07'6428796.6
2015-Aug-22 00:33N 31°60' E 120°48'66228047.2
2015-Aug-22 00:32N 23°04' E 113°29'65811847.0
2015-Aug-22 00:28N 31°29' E 121°24'471567.9
2015-Aug-22 00:26N 32°01' E 120°43'6 6.3
2015-Aug-21 23:33N 32°00' E 120°49'31816.5
2015-Aug-21 23:33N 31°58' E 120°50'66228029.5
2015-Aug-21 23:32N 23°04' E 113°29'6282260211.9
2015-Aug-21 23:32N 30°57' E 121°13'691545.0
2015-Aug-21 23:29N 32°01' E 120°43'67930553.4
2015-Aug-21 23:28N 22°19' E 114°10'591358.1
2015-Aug-21 23:25N 23°04' E 113°29'970.6
2015-Aug-21 23:17N 23°03' E 113°19'71754.8
2015-Aug-21 23:11N 21°52' E 113°17'70110.9
2015-Aug-21 22:33N 23°02' E 113°24'6662396368.7
2015-Aug-21 22:33N 32°01' E 120°44'620274.6
2015-Aug-21 22:33N 31°58' E 120°50'680244900.6
2015-Aug-21 22:33N 22°19' E 114°10'6822454371.2
2015-Aug-21 22:33N 32°00' E 120°49'67241507.0
2015-Aug-21 22:33N 30°58' E 121°18'69755792.5
2015-Aug-21 22:32N 21°53' E 113°12'72466845.9
2015-Aug-21 22:32N 32°02' E 120°31'655786202.3
2015-Aug-21 22:32N 23°04' E 113°29'6584171.5
2015-Aug-21 22:22N 31°29' E 121°24'6642723.0
2015-Aug-21 22:08N 23°02' E 113°21'62110.0
2015-Aug-21 21:34N 22°19' E 114°10'5917635.9
2015-Aug-21 21:33N 23°04' E 113°29'73262730.1
2015-Aug-21 21:33N 21°53' E 113°11'726871390.4
2015-Aug-21 21:33N 32°00' E 120°37'116699.8
2015-Aug-21 21:33N 31°58' E 120°50'31849.6
2015-Aug-21 21:33N 32°00' E 120°49'11658.0
2015-Aug-21 21:32N 32°01' E 120°36'66074211.1
2015-Aug-21 21:32N 23°03' E 113°25'426.3
2015-Aug-21 21:23N 23°04' E 113°29'6585751.3
2015-Aug-21 21:16N 31°29' E 121°24'485988.6
2015-Aug-21 21:15N 32°00' E 120°40'2 2.3
2015-Aug-21 20:34N 32°01' E 120°42'27616.6
2015-Aug-21 20:34N 32°01' E 120°45'6802449050.8
2015-Aug-21 20:33N 22°19' E 114°10'673151474.4
2015-Aug-21 20:33N 31°29' E 121°24'4322052.7
2015-Aug-21 20:33N 32°00' E 120°49'31349.2
2015-Aug-21 20:33N 31°58' E 120°50'662119132.2
2015-Aug-21 20:33N 23°04' E 113°29'22224.0
2015-Aug-21 20:33N 23°03' E 113°31'2131.3
2015-Aug-21 20:32N 23°04' E 113°29'565306.3
2015-Aug-21 20:31N 22°09' E 113°38'30108540.8
2015-Aug-21 20:31N 21°53' E 113°11'6062.6
2015-Aug-21 19:33N 22°19' E 114°10'60108267.1
2015-Aug-21 19:33N 21°53' E 113°11'7313137.6
2015-Aug-21 19:33N 23°04' E 113°29'015.4
2015-Aug-21 19:32N 23°04' E 113°29'65881703.2
2015-Aug-21 19:31N 31°29' E 121°24'46536.9
2015-Aug-21 19:26N 32°01' E 120°45'3117.2
2015-Aug-21 19:24N 32°00' E 120°49'3335.5
2015-Aug-21 19:24N 31°58' E 120°50'680811.8
2015-Aug-21 18:34N 22°19' E 114°10'681163374.6
2015-Aug-21 18:33N 32°01' E 120°45'31348.1
2015-Aug-21 18:33N 32°00' E 120°49'732292755.5
2015-Aug-21 18:33N 21°53' E 113°11'7313827.9
2015-Aug-21 18:33N 23°04' E 113°29'020.1
2015-Aug-21 18:32N 23°04' E 113°29'1053.3
2015-Aug-21 18:21N 22°56' E 113°34'6624302.5
2015-Aug-21 18:12N 31°29' E 121°24'6731062.6
2015-Aug-21 17:33N 22°19' E 114°10'597055.5
2015-Aug-21 17:33N 23°04' E 113°29'541384.8
2015-Aug-21 17:31N 22°10' E 113°31'251194.0
2015-Aug-21 17:29N 21°53' E 113°11'7319165.4
2015-Aug-21 17:25N 32°01' E 120°45'3449.6
2015-Aug-21 17:24N 32°00' E 120°49'66325668.9
2015-Aug-21 17:23N 23°04' E 113°29'65813237.6
2015-Aug-21 17:20N 31°29' E 121°24'401120.7
2015-Aug-21 17:17N 31°58' E 120°50'5 7.3
2015-Aug-21 16:33N 32°01' E 120°45'704316680.1
2015-Aug-21 16:33N 22°10' E 113°36'3223077.9
2015-Aug-21 16:33N 22°19' E 114°10'682490874.2
2015-Aug-21 16:33N 32°00' E 120°49'4377176.6
2015-Aug-21 16:33N 31°29' E 121°24'658592350.9
2015-Aug-21 16:33N 23°04' E 113°29'66261093.3
2015-Aug-21 16:32N 31°58' E 120°50'731164367.9
2015-Aug-21 16:32N 21°53' E 113°11'73351.7
2015-Aug-21 16:20N 23°04' E 113°29'5976.9
2015-Aug-21 15:34N 22°19' E 114°10'673346229.6
2015-Aug-21 15:33N 31°29' E 121°24'4616483.9
2015-Aug-21 15:33N 32°01' E 120°45'31348.1
2015-Aug-21 15:33N 32°00' E 120°49'3197.2
2015-Aug-21 15:32N 31°58' E 120°50'731202297.5
2015-Aug-21 15:32N 21°53' E 113°11'3214395.2
2015-Aug-21 15:32N 22°07' E 113°42'5812334.0
2015-Aug-21 15:32N 23°04' E 113°30'11629.7
2015-Aug-21 15:32N 23°04' E 113°29'97640850.3
2015-Aug-21 15:30N 37°05' E 123°02'324342.6
2015-Aug-21 14:33N 32°01' E 120°45'731657622.9
2015-Aug-21 14:33N 21°53' E 113°11'6036107.0
2015-Aug-21 14:33N 22°19' E 114°10'233732.1
2015-Aug-21 14:33N 22°06' E 113°49'70222375.4
2015-Aug-21 14:31N 32°00' E 120°49'43848.0
2015-Aug-21 14:28N 31°29' E 121°24'6758735.4
2015-Aug-21 14:23N 22°27' E 113°54'37589.4
2015-Aug-21 14:20N 22°57' E 113°30'5368.9
2015-Aug-21 13:33N 22°19' E 114°10'601164.8
2015-Aug-21 13:30N 21°53' E 113°11'7327549.9
2015-Aug-21 13:25N 32°00' E 120°49'1307.3
2015-Aug-21 13:24N 32°01' E 120°48'679976.5
2015-Aug-21 13:24N 30°57' E 121°11'3747077.9
2015-Aug-21 13:21N 37°03' E 122°41'3404357.3
2015-Aug-21 13:16N 31°29' E 121°24'6584682.6
2015-Aug-21 13:08N 23°04' E 113°29'73128.1
2015-Aug-21 12:33N 21°53' E 113°11'606560.2
2015-Aug-21 12:33N 22°19' E 114°10'98756405.4
2015-Aug-21 12:32N 37°03' E 122°33'962346440.8
2015-Aug-21 12:32N 23°04' E 113°29'658131633.7
2015-Aug-21 12:31N 31°29' E 121°24'322051.7
2015-Aug-21 12:30N 30°58' E 121°14'63997.9
2015-Aug-21 12:27N 31°58' E 120°52'165.0
2015-Aug-21 12:26N 31°58' E 120°50'3105.4
2015-Aug-21 12:24N 32°00' E 120°49'67210746.0
2015-Aug-21 12:20N 22°50' E 113°35'43240.5
2015-Aug-21 12:09N 22°18' E 114°07'5995.5
2015-Aug-21 11:32N 23°02' E 113°24'7012609.7
2015-Aug-21 11:32N 21°53' E 113°11'582128.3
2015-Aug-21 11:30N 22°18' E 114°07'64815665.9
2015-Aug-21 11:28N 30°59' E 121°19'6475574.1
2015-Aug-21 11:21N 22°28' E 113°54'43558.1
2015-Aug-21 11:16N 23°04' E 113°29'96210271.6
2015-Aug-21 11:11N 37°02' E 122°33'3384270.8
2015-Aug-21 11:06N 31°29' E 121°24'7251334.2
2015-Aug-21 10:33N 21°53' E 113°11'105845910.7
2015-Aug-21 10:32N 39°04' E 117°49'2554705.0
2015-Aug-21 10:29N 37°02' E 122°33'962247251.3
2015-Aug-21 10:29N 23°04' E 113°29'65828207.2
2015-Aug-21 10:27N 31°29' E 121°24'11538.4
2015-Aug-21 10:27N 31°30' E 121°24'67431925.5
2015-Aug-21 10:26N 22°28' E 113°54'5360.0
2015-Aug-21 09:32N 21°53' E 113°11'7259066.0
2015-Aug-21 09:28N 31°29' E 121°24'48715242.3
2015-Aug-21 09:26N 39°04' E 117°51'986197111.7
2015-Aug-21 09:25N 23°04' E 113°29'431408.0
2015-Aug-21 09:24N 22°28' E 113°54'6447404.5
2015-Aug-21 09:18N 30°58' E 121°15'63340688.9
2015-Aug-21 09:17N 22°55' E 113°36'96760015.1
2015-Aug-21 09:16N 37°02' E 122°33'31413459.7
2015-Aug-21 09:15N 32°00' E 120°49'6516.8
2015-Aug-21 09:14N 32°00' E 120°43'471240.6
2015-Aug-21 09:12N 31°30' E 121°24'6641014.9
2015-Aug-21 08:33N 22°55' E 113°33'6610266.7
2015-Aug-21 08:33N 21°53' E 113°11'726153699.1
2015-Aug-21 08:32N 31°09' E 121°52'35675328.4
2015-Aug-21 08:32N 37°03' E 122°36'33933922.7
2015-Aug-21 08:31N 31°29' E 121°24'6581185135.9
2015-Aug-21 08:31N 23°06' E 113°26'659169520.1
2015-Aug-21 08:31N 31°30' E 121°24'65914645.4
2015-Aug-21 08:28N 23°04' E 113°29'59414.7
2015-Aug-21 08:20N 22°19' E 114°10'6077.9
2015-Aug-21 07:34N 21°53' E 113°11'726435899.0
2015-Aug-21 07:33N 31°14' E 121°47'661216236.7
2015-Aug-21 07:33N 23°03' E 113°30'659113018.8
2015-Aug-21 07:33N 31°29' E 121°25'431280.6
2015-Aug-21 07:31N 32°00' E 120°49'433340.3
2015-Aug-21 07:30N 31°30' E 121°24'65924458.3
2015-Aug-21 07:28N 23°04' E 113°29'43804.7
2015-Aug-21 07:25N 22°28' E 113°54'45856.1
2015-Aug-21 07:22N 23°06' E 113°27'6604878.0
2015-Aug-21 07:14N 31°35' E 121°19'660970.4
2015-Aug-21 06:33N 23°04' E 113°29'65912485.4
2015-Aug-21 06:30N 31°30' E 121°24'1301.3
2015-Aug-21 06:30N 31°29' E 121°25'56444126.0
2015-Aug-21 06:29N 23°04' E 116°43'563101273.2
2015-Aug-21 06:29N 31°18' E 121°47'67747767.7
2015-Aug-21 06:28N 22°28' E 113°54'67515369.8
2015-Aug-21 06:25N 31°31' E 121°24'2124.3
2015-Aug-21 05:33N 31°24' E 121°47'203929.3
2015-Aug-21 05:33N 31°29' E 121°25'5592010890.2
2015-Aug-21 05:33N 23°08' E 116°47'187112120.9
2015-Aug-21 05:33N 23°02' E 113°24'66310378.5
2015-Aug-21 05:29N 31°30' E 121°24'1163.6
2015-Aug-21 05:19N 31°21' E 121°32'6626993.6
2015-Aug-21 05:13N 23°02' E 113°21'6651012.6
2015-Aug-21 04:33N 31°29' E 121°25'4173939.3
2015-Aug-21 04:33N 31°58' E 120°50'4958926.1
2015-Aug-21 04:33N 31°22' E 121°30'529280.0
2015-Aug-21 04:33N 32°00' E 120°49'666799636.2
2015-Aug-21 04:33N 23°03' E 113°25'453827.5
2015-Aug-21 04:32N 22°27' E 113°54'679163024.9
2015-Aug-21 04:32N 32°01' E 120°43'46554.0
2015-Aug-21 04:32N 32°00' E 120°39'585756.9
2015-Aug-21 04:31N 31°22' E 121°30'65618590.6
2015-Aug-21 04:29N 23°03' E 113°32'658237001.2
2015-Aug-21 04:29N 31°30' E 121°24'553153151.0
2015-Aug-21 04:29N 23°12' E 116°53'18730653.6
2015-Aug-21 04:29N 23°04' E 113°29'659718.2
2015-Aug-21 03:33N 31°29' E 121°25'660791735.7
2015-Aug-21 03:33N 23°05' E 113°27'264.6
2015-Aug-21 03:31N 23°04' E 113°29'65936490.5
2015-Aug-21 03:30N 31°25' E 121°31'28810.3
2015-Aug-21 03:28N 30°59' E 121°19'6470.2
2015-Aug-21 02:33N 31°58' E 120°50'4399.5
2015-Aug-21 02:32N 31°59' E 120°45'4580691.3
2015-Aug-21 02:32N 31°29' E 121°25'6619799.3
2015-Aug-21 02:28N 22°59' E 113°31'66364505.9
2015-Aug-21 02:28N 32°01' E 120°43'69011446.2
2015-Aug-21 02:24N 22°17' E 113°49'686783.8
2015-Aug-21 01:32N 31°29' E 121°25'6656784.9
2015-Aug-21 01:26N 23°03' E 113°19'91341.8
2015-Aug-21 01:25N 23°04' E 113°29'662766.0
2015-Aug-21 00:34N 32°00' E 120°47'454137.4
2015-Aug-21 00:33N 31°29' E 121°25'419865.5
2015-Aug-21 00:33N 31°58' E 120°50'5151.7
2015-Aug-21 00:31N 31°53' E 120°49'65718064.4
2015-Aug-21 00:28N 23°04' E 113°29'6826.1
2015-Aug-21 00:28N 23°02' E 113°23'701768.9
2015-Aug-21 00:26N 21°53' E 113°11'634197.3
2015-Aug-21 00:25N 22°54' E 113°30'45232.2
2015-Aug-21 00:25N 22°52' E 113°34'6672613.6
2015-Aug-21 00:09N 32°01' E 120°43'4879.2
2015-Aug-20 23:33N 31°29' E 121°25'661475909.0
2015-Aug-20 23:33N 23°04' E 113°25'66455561.0
2015-Aug-20 23:32N 31°58' E 120°50'73090679.6
2015-Aug-20 23:32N 21°53' E 113°11'73257277.6
2015-Aug-20 23:31N 32°00' E 120°49'5250.6
2015-Aug-20 23:30N 32°01' E 120°43'5 4.8
2015-Aug-20 22:34N 32°01' E 120°48'663216992.2
2015-Aug-20 22:33N 23°04' E 113°29'7311417.6
2015-Aug-20 22:33N 21°53' E 113°11'726653421.3
2015-Aug-20 22:33N 31°29' E 121°25'413528.3
2015-Aug-20 22:32N 31°58' E 120°50'682204622.7
2015-Aug-20 22:32N 22°26' E 113°53'45739.7
2015-Aug-20 22:28N 23°04' E 113°29'65521633.0
2015-Aug-20 22:27N 31°50' E 120°48'112258.4
2015-Aug-20 22:26N 32°01' E 120°43'6685491.5
2015-Aug-20 22:19N 22°53' E 113°31'6382.4
2015-Aug-20 21:33N 21°53' E 113°11'732263485.7
2015-Aug-20 21:33N 32°00' E 120°49'4319538.7
2015-Aug-20 21:33N 31°29' E 121°25'412464.9
2015-Aug-20 21:32N 31°58' E 120°50'7125.5
2015-Aug-20 21:29N 32°01' E 120°43'6834479.1
2015-Aug-20 21:19N 22°24' E 113°50'44885.7
2015-Aug-20 21:16N 23°04' E 113°29'73101.5
2015-Aug-20 20:33N 21°53' E 113°11'732292749.9
2015-Aug-20 20:33N 32°00' E 120°49'437441.4
2015-Aug-20 20:33N 31°29' E 121°25'412636.4
2015-Aug-20 20:32N 31°58' E 120°50'7559.1
2015-Aug-20 20:31N 32°01' E 120°43'6602693.6
2015-Aug-20 20:16N 23°04' E 113°29'6606142.1
2015-Aug-20 20:10N 31°01' E 122°02'6 9.4
2015-Aug-20 19:33N 31°05' E 121°58'726217925.0
2015-Aug-20 19:33N 21°53' E 113°11'732292759.8
2015-Aug-20 19:33N 32°00' E 120°49'3114.8
2015-Aug-20 19:32N 31°58' E 120°50'7335.7
2015-Aug-20 19:31N 32°01' E 120°43'4828555.0
2015-Aug-20 19:30N 31°29' E 121°25'6597855.2
2015-Aug-20 19:25N 23°04' E 113°29'660763.4
2015-Aug-20 18:33N 31°10' E 121°51'72635313.2
2015-Aug-20 18:32N 21°53' E 113°11'72656819.2
2015-Aug-20 18:31N 31°29' E 121°25'65912685.8
2015-Aug-20 18:28N 23°04' E 113°29'661722.1
2015-Aug-20 17:33N 31°15' E 121°46'234365.4
2015-Aug-20 17:33N 31°29' E 121°25'72635801.3
2015-Aug-20 17:32N 21°53' E 113°11'72246382.3
2015-Aug-20 17:31N 31°22' E 121°28'6556973.7
2015-Aug-20 17:25N 23°04' E 113°29'66312304.9
2015-Aug-20 17:22N 32°00' E 120°49'4983796.6
2015-Aug-20 17:14N 24°06' E 117°59'480705.2
2015-Aug-20 16:33N 31°21' E 121°48'217652.7
2015-Aug-20 16:33N 31°29' E 121°25'726124458.7
2015-Aug-20 16:33N 21°53' E 113°11'72218291.6
2015-Aug-20 16:31N 31°22' E 121°28'4695189.9
2015-Aug-20 16:25N 24°10' E 118°02'469542.0
2015-Aug-20 15:33N 31°22' E 121°28'8451.3
2015-Aug-20 15:32N 31°29' E 121°25'47013110.3
2015-Aug-20 15:30N 24°13' E 118°07'2649407.6
2015-Aug-20 15:28N 23°04' E 113°29'659719.5
2015-Aug-20 14:33N 31°29' E 121°25'726326712.2
2015-Aug-20 14:33N 21°53' E 113°11'31380399.0
2015-Aug-20 14:33N 24°16' E 118°13'45933710.2
2015-Aug-20 14:32N 31°22' E 121°28'65510160.4
2015-Aug-20 14:28N 23°04' E 113°29'65411433.8
2015-Aug-20 14:25N 31°16' E 121°34'58385.5
2015-Aug-20 14:16N 32°00' E 120°49'2271.0
2015-Aug-20 14:16N 31°59' E 120°50'4970.2
2015-Aug-20 13:33N 31°22' E 121°28'8863.3
2015-Aug-20 13:33N 31°29' E 121°25'726217809.6
2015-Aug-20 13:33N 21°53' E 113°11'7293811.0
2015-Aug-20 13:21N 32°00' E 120°44'2943.4
2015-Aug-20 13:21N 32°02' E 120°44'731919.2
2015-Aug-20 12:33N 21°53' E 113°11'72255266.2
2015-Aug-20 12:32N 31°22' E 121°28'8376.8
2015-Aug-20 12:31N 31°29' E 121°25'67712068.3
2015-Aug-20 12:28N 22°25' E 113°54'46239.7
2015-Aug-20 12:16N 23°04' E 113°29'1051.7
2015-Aug-20 12:05N 23°03' E 113°19'6621244.4
2015-Aug-20 11:33N 31°22' E 121°28'81398.2
2015-Aug-20 11:33N 31°29' E 121°25'66530287.0
2015-Aug-20 11:32N 23°02' E 113°22'765.8
2015-Aug-20 11:25N 23°04' E 113°29'1 7.3
2015-Aug-20 11:13N 23°04' E 113°30'4 5.6
2015-Aug-20 10:33N 23°05' E 113°27'660237545.7
2015-Aug-20 10:33N 31°29' E 121°25'4317389.6
2015-Aug-20 10:33N 32°00' E 120°49'3287.7
2015-Aug-20 10:33N 31°58' E 120°50'6629724.0
2015-Aug-20 10:28N 23°04' E 113°29'660107984.0
2015-Aug-20 10:28N 32°01' E 120°43'551628.5
2015-Aug-20 10:26N 31°22' E 121°28'24252.8
2015-Aug-20 10:20N 30°59' E 121°21'66968.2
2015-Aug-20 10:16N 31°59' E 120°51'6633626.4
2015-Aug-20 10:05N 23°04' E 113°30'6631229.5
2015-Aug-20 09:33N 32°00' E 120°49'21113.7
2015-Aug-20 09:33N 31°59' E 120°51'1134.6
2015-Aug-20 09:32N 31°58' E 120°50'704506819.9
2015-Aug-20 09:32N 22°09' E 113°37'69421920.3
2015-Aug-20 09:30N 31°22' E 121°28'689496139.2
2015-Aug-20 09:30N 22°06' E 113°52'611151.8
2015-Aug-20 09:27N 23°05' E 113°32'5964.5
2015-Aug-20 08:32N 22°06' E 113°43'32121805.7
2015-Aug-20 08:31N 24°41' E 118°49'45167591.1
2015-Aug-20 08:31N 32°01' E 120°42'4821597.4
2015-Aug-20 08:31N 31°29' E 121°25'4412148.9
2015-Aug-20 08:31N 32°00' E 120°48'705845675.9
2015-Aug-20 08:31N 22°09' E 113°37'121687.1
2015-Aug-20 08:30N 22°15' E 113°48'52643.6
2015-Aug-20 08:25N 23°04' E 113°29'6639042.2
2015-Aug-20 08:21N 32°00' E 120°49'70517042.5
2015-Aug-20 08:18N 22°09' E 113°38'699927.3
2015-Aug-20 07:33N 31°29' E 121°25'42489886.4
2015-Aug-20 07:33N 24°46' E 118°54'3321195721.3
2015-Aug-20 07:33N 22°11' E 113°34'6323.5
2015-Aug-20 07:32N 22°15' E 113°39'50871.2
2015-Aug-20 07:28N 23°04' E 113°29'56551.9
2015-Aug-20 07:22N 22°09' E 113°37'55417.0
2015-Aug-20 07:14N 23°03' E 113°30'0 4.7
2015-Aug-20 07:13N 23°03' E 113°30'6597984.1
2015-Aug-20 07:08N 31°26' E 121°28'491244.7
2015-Aug-20 07:05N 32°01' E 120°48'4584.3
2015-Aug-20 06:33N 31°29' E 121°25'4179217.8
2015-Aug-20 06:31N 24°52' E 119°01'4163679.6
2015-Aug-20 06:24N 31°27' E 121°29'6609422.6
2015-Aug-20 06:20N 23°03' E 113°30'51802.7
2015-Aug-20 06:16N 22°12' E 113°24'6755881.7
2015-Aug-20 06:09N 30°58' E 121°18'6321046.2
2015-Aug-20 05:33N 23°04' E 113°28'659395542.3
2015-Aug-20 05:33N 31°29' E 121°25'65923505.6
2015-Aug-20 05:31N 23°02' E 113°31'6379361.9
2015-Aug-20 05:27N 31°08' E 121°13'63723875.0
2015-Aug-20 05:25N 23°04' E 113°29'66119348.1
2015-Aug-20 05:23N 31°22' E 121°38'142634.7
2015-Aug-20 05:23N 31°29' E 121°24'70316438.0
2015-Aug-20 05:20N 22°09' E 113°28'21107.6
2015-Aug-20 05:09N 22°16' E 113°49'6871159.2
2015-Aug-20 04:33N 31°20' E 121°41'689137792.6
2015-Aug-20 04:33N 22°15' E 113°48'5213487.4
2015-Aug-20 04:33N 23°02' E 113°24'66332705.4
2015-Aug-20 04:32N 31°32' E 121°21'678101648.7
2015-Aug-20 04:31N 22°23' E 113°54'67832123.3
2015-Aug-20 04:30N 31°29' E 121°25'25970.9
2015-Aug-20 04:28N 31°09' E 121°10'67712373.8
2015-Aug-20 04:25N 22°10' E 113°31'7086037.6
2015-Aug-20 04:18N 32°00' E 120°49'6634755.6
2015-Aug-20 04:10N 23°04' E 113°29'4269.8
2015-Aug-20 03:33N 22°28' E 113°53'6532349498.1
2015-Aug-20 03:33N 31°12' E 121°09'141925.9
2015-Aug-20 03:33N 30°58' E 121°14'33119325.4
2015-Aug-20 03:33N 31°29' E 121°25'69295855.1
2015-Aug-20 03:32N 22°10' E 113°48'12443.0
2015-Aug-20 03:31N 22°10' E 113°35'5448517.1
2015-Aug-20 03:31N 23°04' E 113°29'114.3
2015-Aug-20 03:26N 23°05' E 113°28'112.1
2015-Aug-20 03:19N 23°04' E 113°29'6612903.8
2015-Aug-20 03:06N 31°20' E 121°40'6931294.7
2015-Aug-20 02:33N 22°11' E 113°47'672186142.6
2015-Aug-20 02:33N 31°15' E 121°09'201217.2
2015-Aug-20 02:32N 31°29' E 121°25'334911.2
2015-Aug-20 02:32N 31°00' E 121°07'6431156612.9
2015-Aug-20 02:32N 22°28' E 113°53'422286.3
2015-Aug-20 02:31N 23°04' E 113°29'585753.5
2015-Aug-20 02:30N 22°08' E 113°40'581050.8
2015-Aug-20 02:27N 23°05' E 113°33'317.0
2015-Aug-20 02:16N 23°04' E 113°29'6605550.6
2015-Aug-20 02:09N 32°01' E 120°43'52828.0
2015-Aug-20 02:09N 32°00' E 120°49'3100.6
2015-Aug-20 02:07N 31°58' E 120°50'5192.4
2015-Aug-20 02:06N 32°01' E 120°46'63115.2
2015-Aug-20 01:33N 31°20' E 121°41'38110300.8
2015-Aug-20 01:31N 25°17' E 119°30'38635640.0
2015-Aug-20 01:30N 31°29' E 121°25'19179.0
2015-Aug-20 01:24N 31°17' E 121°09'64016462.7
2015-Aug-20 01:22N 23°04' E 113°29'50732.2
2015-Aug-20 01:18N 22°17' E 113°48'686931.0
2015-Aug-20 00:33N 31°29' E 121°25'44158541.0
2015-Aug-20 00:33N 31°60' E 120°47'6861235351.8
2015-Aug-20 00:33N 22°25' E 113°45'6871237192.4
2015-Aug-20 00:33N 31°60' E 120°50'667240253.6
2015-Aug-20 00:33N 23°02' E 113°24'664478336.7
2015-Aug-20 00:33N 32°01' E 120°43'184888.6
2015-Aug-20 00:33N 31°47' E 120°56'1210911.6
2015-Aug-20 00:33N 31°58' E 120°51'565928.9
2015-Aug-20 00:32N 31°21' E 121°40'272052.2
2015-Aug-20 00:31N 31°17' E 121°09'640153655.0
2015-Aug-20 00:31N 23°04' E 113°29'66220191.1
2015-Aug-20 00:29N 31°58' E 120°50'665149660.0
2015-Aug-20 00:29N 22°59' E 113°31'662715.8
2015-Aug-19 23:33N 31°52' E 120°53'911046.5
2015-Aug-19 23:33N 32°01' E 120°48'462782.3
2015-Aug-19 23:32N 31°17' E 121°06'409579.1
2015-Aug-19 23:32N 31°55' E 120°53'66141025.4
2015-Aug-19 23:31N 23°04' E 113°29'662238252.7
2015-Aug-19 23:31N 31°58' E 120°50'4137051.2
2015-Aug-19 23:31N 31°29' E 121°25'481824.4
2015-Aug-19 23:29N 32°01' E 120°43'634923.4
2015-Aug-19 23:29N 31°21' E 121°40'54603.3
2015-Aug-19 23:23N 31°56' E 120°53'5377100291.4
2015-Aug-19 23:20N 49°21' W 123°16'53766914.2
2015-Aug-19 22:33N 32°00' E 120°49'  
Track history (hours):
 
Tides and Currents Weather Stations Pressure Air Temp Water Temp Dewpoint Dewpoint Depression Visibility Wind Speed Wind Dir Waves Ship Positions

Callsign 000000 (name unknown)

Last reported at 2015-Aug-29 22:33 UTC. Time now 2015-Aug-29 23:32 UTC.
Position N 31°00' E 121°26'.

Type: Fishing. MMSI: 200007452.

Date/timePositionNaut miles runAvg speedWind from/ knotsBaromVisibWave heightAir tempDewpointWater temp
2015-Aug-29 22:33N 31°00' E 121°26'57706923693.0
2015-Aug-29 22:33N 37°48' W 122°18'57633457691.0
2015-Aug-29 22:33N 32°01' E 120°48'46669.4
2015-Aug-29 22:33N 31°58' E 120°50'81249.2
2015-Aug-29 22:33N 32°03' E 120°42'71965.1
2015-Aug-29 22:33N 32°00' E 120°49'663477511.0
2015-Aug-29 22:32N 23°04' E 113°29'663217027.6
2015-Aug-29 22:32N 31°59' E 120°51'66311765.9
2015-Aug-29 22:29N 23°05' E 113°26'65530222.9
2015-Aug-29 22:28N 31°21' E 121°27'55514.5
2015-Aug-29 22:21N 32°01' E 120°43'7047677.1
2015-Aug-29 22:16N 22°10' E 113°32'679964.9
2015-Aug-29 21:34N 31°00' E 121°26'57711483992.9
2015-Aug-29 21:33N 37°45' W 122°18'59211121826.8
2015-Aug-29 21:33N 27°26' E 121°13'494178019.5
2015-Aug-29 21:33N 23°04' E 113°29'65460395.2
2015-Aug-29 21:32N 31°21' E 121°27'65438611.0
2015-Aug-29 21:31N 23°04' E 113°29'66320050.7
2015-Aug-29 21:29N 32°01' E 120°48'5297.6
2015-Aug-29 21:28N 32°03' E 120°42'81067.6
2015-Aug-29 21:28N 31°58' E 120°50'3456.4
2015-Aug-29 21:27N 32°00' E 120°49'690.4
2015-Aug-29 21:24N 32°01' E 120°43'8137.8
2015-Aug-29 21:20N 31°59' E 120°51'6510647.3
2015-Aug-29 21:20N 30°58' E 121°17'6324083.4
2015-Aug-29 21:11N 23°05' E 113°26'638089.7
2015-Aug-29 21:10N 22°07' E 113°51'5137163.8
2015-Aug-29 21:06N 27°20' E 121°18'495915.7
2015-Aug-29 20:33N 23°04' E 113°29'64883892960.7
2015-Aug-29 20:33N 37°43' W 122°18'57726926509.4
2015-Aug-29 20:33N 31°00' E 121°26'6824629.9
2015-Aug-29 20:33N 32°01' E 120°48'663596958.1
2015-Aug-29 20:33N 23°05' E 113°26'6222440.7
2015-Aug-29 20:33N 22°06' E 113°46'704110233.3
2015-Aug-29 20:33N 32°00' E 120°49'5899.8
2015-Aug-29 20:32N 32°01' E 120°43'66038317.5
2015-Aug-29 20:31N 23°04' E 113°29'65469269.4
2015-Aug-29 20:31N 31°21' E 121°27'569245.1
2015-Aug-29 20:30N 32°03' E 120°42'91870.4
2015-Aug-29 20:30N 31°59' E 120°51'28217178.9
2015-Aug-29 20:29N 27°18' E 121°14'5622654.2
2015-Aug-29 20:16N 36°34' E 122°49'98330761.5
2015-Aug-29 20:14N 22°10' E 113°52'6961023.8
2015-Aug-29 19:34N 31°58' E 120°50'57614148096.4
2015-Aug-29 19:33N 37°47' W 122°21'57601219827.9
2015-Aug-29 19:33N 31°56' E 120°52'63113769.8
2015-Aug-29 19:33N 31°00' E 121°26'666266417.4
2015-Aug-29 19:33N 22°15' E 113°49'6952500507.3
2015-Aug-29 19:33N 31°59' E 120°51'285341576.9
2015-Aug-29 19:33N 27°14' E 121°07'28641221.1
2015-Aug-29 19:32N 32°00' E 120°49'663108524.4
2015-Aug-29 19:32N 23°04' E 113°29'9463404858.3
2015-Aug-29 19:32N 36°38' E 122°44'29531260.4
2015-Aug-29 19:32N 32°01' E 120°43'621485.7
2015-Aug-29 19:29N 31°02' E 121°05'62718820.3
2015-Aug-29 19:27N 23°05' E 113°26'65534665.8
2015-Aug-29 19:26N 31°21' E 121°27'6702247.1
2015-Aug-29 19:08N 22°19' E 114°07'583851.3
2015-Aug-29 19:07N 23°04' E 113°29'9471689.3
2015-Aug-29 18:33N 36°44' E 122°37'299179570.3
2015-Aug-29 18:33N 31°58' E 120°50'814964.4
2015-Aug-29 18:33N 31°51' E 120°54'91562.4
2015-Aug-29 18:33N 31°59' E 120°51'2305.9
2015-Aug-29 18:33N 32°00' E 120°49'57635187066.2
2015-Aug-29 18:32N 37°47' W 122°17'6488556114.0
2015-Aug-29 18:32N 23°04' E 113°29'030.5
2015-Aug-29 18:31N 23°04' E 113°29'660169699.7
2015-Aug-29 18:31N 32°01' E 120°43'551609.8
2015-Aug-29 18:29N 31°21' E 121°27'573842.6
2015-Aug-29 18:28N 32°03' E 120°42'737725.3
2015-Aug-29 18:27N 31°00' E 121°26'63995863.9
2015-Aug-29 18:27N 23°05' E 113°26'627282194.6
2015-Aug-29 18:27N 30°58' E 121°10'627703.1
2015-Aug-29 17:33N 23°04' E 113°29'950569778.6
2015-Aug-29 17:33N 36°49' E 122°31'950213660.3
2015-Aug-29 17:33N 23°05' E 113°26'63058193.0
2015-Aug-29 17:32N 30°58' E 121°15'12725.4
2015-Aug-29 17:31N 31°02' E 121°29'73794.2
2015-Aug-29 17:26N 32°03' E 120°42'282.2
2015-Aug-29 17:24N 32°01' E 120°43'82746.0
2015-Aug-29 17:24N 31°59' E 120°51'22712.0
2015-Aug-29 17:24N 31°58' E 120°50'2263.6
2015-Aug-29 17:23N 32°00' E 120°49'51459.9
2015-Aug-29 17:17N 31°21' E 121°27'2331.6
2015-Aug-29 16:33N 30°59' E 121°22'635175726.8
2015-Aug-29 16:33N 23°04' E 113°29'65430588.4
2015-Aug-29 16:32N 31°21' E 121°27'65590663.8
2015-Aug-29 16:31N 23°05' E 113°26'347.1
2015-Aug-29 16:28N 23°04' E 113°29'6622435.2
2015-Aug-29 16:12N 31°58' E 120°50'8612.4
2015-Aug-29 16:11N 32°03' E 120°42'7368.7
2015-Aug-29 16:10N 32°00' E 120°49'2181.4
2015-Aug-29 16:09N 31°59' E 120°51'66110.1
2015-Aug-29 15:33N 31°01' E 121°28'639383628.4
2015-Aug-29 15:33N 23°04' E 113°29'6591413.9
2015-Aug-29 15:05N 31°35' E 121°19'3145.5
2015-Aug-29 14:25N 31°05' E 121°28'62375.4
2015-Aug-29 14:15N 31°58' E 120°50'81195.7
2015-Aug-29 14:14N 32°03' E 120°42'644.4
2015-Aug-29 14:05N 32°00' E 120°49'703844055.2
2015-Aug-29 14:05N 22°11' E 113°39'712.2
2015-Aug-29 13:33N 22°16' E 113°43'7 6.6
2015-Aug-29 12:33N 22°11' E 113°38'69815045.2
2015-Aug-29 12:30N 31°23' E 121°36'55458.1
2015-Aug-29 12:23N 32°00' E 120°49'145032.1
2015-Aug-29 12:23N 31°48' E 120°56'196860.6
2015-Aug-29 12:23N 32°03' E 120°42'9339.5
2015-Aug-29 12:21N 31°59' E 120°51'82728.1
2015-Aug-29 12:21N 32°01' E 120°43'7511.1
2015-Aug-29 12:20N 31°58' E 120°50'7 8.6
2015-Aug-29 11:33N 32°01' E 120°43'136441.9
2015-Aug-29 11:33N 31°52' E 120°53'916474.6
2015-Aug-29 11:33N 32°00' E 120°49'49177733.4
2015-Aug-29 11:33N 31°25' E 121°30'472610.1
2015-Aug-29 11:31N 31°58' E 120°50'70447839.5
2015-Aug-29 11:31N 22°11' E 113°33'704362260.3
2015-Aug-29 11:30N 32°03' E 120°42'910528.4
2015-Aug-29 11:30N 31°59' E 120°51'481464.1
2015-Aug-29 11:28N 31°21' E 121°27'7252.4
2015-Aug-29 11:27N 31°17' E 121°34'6553668.2
2015-Aug-29 11:16N 23°06' E 113°27'215.8
2015-Aug-29 11:07N 23°04' E 113°29'6501115.5
2015-Aug-29 10:32N 31°13' E 121°30'173671.8
2015-Aug-29 10:32N 31°30' E 121°24'65810486.1
2015-Aug-29 10:28N 23°04' E 113°29'21682.3
2015-Aug-29 10:28N 23°06' E 113°27'66122018.2
2015-Aug-29 10:26N 31°20' E 121°39'66133520.0
2015-Aug-29 10:25N 23°02' E 113°30'6638010.6
2015-Aug-29 10:20N 31°58' E 120°51'3994.0
2015-Aug-29 10:20N 31°60' E 120°48'3324.9
2015-Aug-29 10:19N 31°58' E 120°50'662824.4
2015-Aug-29 09:31N 23°04' E 113°29'2681.3
2015-Aug-29 09:31N 23°02' E 113°31'66343389.6
2015-Aug-29 09:30N 32°00' E 120°47'636904.2
2015-Aug-29 09:30N 31°08' E 121°28'64525230.6
2015-Aug-29 09:28N 23°06' E 113°27'661103493.2
2015-Aug-29 09:28N 32°03' E 120°42'93948.2
2015-Aug-29 09:28N 31°59' E 120°51'266.4
2015-Aug-29 09:25N 32°00' E 120°49'59198.6
2015-Aug-29 09:08N 31°20' E 121°39'6881199.8
2015-Aug-29 08:33N 22°17' E 113°48'668601349.1
2015-Aug-29 08:33N 31°03' E 121°29'703870.9
2015-Aug-29 08:32N 32°00' E 120°42'65940930.0
2015-Aug-29 08:31N 23°04' E 113°29'2226.3
2015-Aug-29 08:30N 23°06' E 113°27'547.9
2015-Aug-29 08:25N 23°02' E 113°31'66326500.4
2015-Aug-29 08:23N 31°22' E 121°39'72050814.7
2015-Aug-29 08:22N 22°07' E 113°06'6143838.5
2015-Aug-29 08:22N 23°04' E 113°29'65626236.8
2015-Aug-29 08:21N 31°60' E 120°36'1293.4
2015-Aug-29 08:13N 31°58' E 120°50'226.7
2015-Aug-29 08:10N 31°59' E 120°51'66108.3
2015-Aug-29 07:33N 30°60' E 121°25'69966181.6
2015-Aug-29 07:33N 22°04' E 113°05'72347330.8
2015-Aug-29 07:32N 31°22' E 121°39'66276862.1
2015-Aug-29 07:31N 23°04' E 113°29'2268.9
2015-Aug-29 07:31N 23°02' E 113°31'6586117.4
2015-Aug-29 07:24N 31°60' E 120°38'4231.9
2015-Aug-29 07:23N 32°01' E 120°43'660263980.0
2015-Aug-29 07:23N 23°06' E 113°27'66331411.8
2015-Aug-29 07:22N 32°00' E 120°49'310.3
2015-Aug-29 07:07N 31°58' E 120°50'7271292.6
2015-Aug-29 06:33N 21°59' E 113°07'70712792.7
2015-Aug-29 06:30N 31°07' E 121°27'8625.6
2015-Aug-29 06:29N 30°59' E 121°24'63639482.7
2015-Aug-29 06:28N 23°04' E 113°29'3373.4
2015-Aug-29 06:28N 23°06' E 113°27'663596765.2
2015-Aug-29 06:28N 31°59' E 120°51'2199.2
2015-Aug-29 06:27N 32°00' E 120°49'683102469.1
2015-Aug-29 06:27N 22°18' E 114°07'58786.8
2015-Aug-29 06:22N 23°04' E 113°29'6605777.3
2015-Aug-29 06:15N 31°60' E 120°43'3531.3
2015-Aug-29 06:15N 32°03' E 120°42'8229.9
2015-Aug-29 06:13N 31°58' E 120°50'135282.6
2015-Aug-29 06:13N 32°01' E 120°35'657928.2
2015-Aug-29 05:30N 23°06' E 113°27'64457938.9
2015-Aug-29 05:29N 31°07' E 121°27'2211411.2
2015-Aug-29 05:20N 27°26' E 121°16'27310924.1
2015-Aug-29 05:19N 31°58' E 120°50'65512.9
2015-Aug-29 05:11N 30°59' E 121°24'26979.9
2015-Aug-29 05:09N 31°22' E 121°39'6097.8
2015-Aug-29 04:32N 31°60' E 120°43'51724.2
2015-Aug-29 04:32N 32°00' E 120°49'277142229.5
2015-Aug-29 04:32N 27°25' E 121°14'21555258.8
2015-Aug-29 04:32N 30°59' E 121°24'656708.4
2015-Aug-29 04:31N 31°58' E 120°50'810039.0
2015-Aug-29 04:31N 32°03' E 120°42'661595095.1
2015-Aug-29 04:31N 23°04' E 113°29'66312115.5
2015-Aug-29 04:28N 31°59' E 120°51'27676535.2
2015-Aug-29 04:28N 27°23' E 121°09'22417942.6
2015-Aug-29 04:27N 31°07' E 121°27'64411142.1
2015-Aug-29 04:23N 23°06' E 113°27'336.8
2015-Aug-29 04:19N 23°04' E 113°29'4957851.8
2015-Aug-29 04:15N 27°24' E 121°15'262369.3
2015-Aug-29 03:33N 31°46' E 121°02'4553951.7
2015-Aug-29 03:33N 31°07' E 121°27'6314157.9
2015-Aug-29 03:33N 32°00' E 120°49'61287.2
2015-Aug-29 03:32N 32°03' E 120°42'280111969.7
2015-Aug-29 03:32N 27°24' E 121°12'49493642.9
2015-Aug-29 03:32N 23°06' E 113°27'9843543505.5
2015-Aug-29 03:32N 39°04' E 117°48'448230280.6
2015-Aug-29 03:32N 31°60' E 120°44'668100194.9
2015-Aug-29 03:31N 22°54' E 113°30'670401928.1
2015-Aug-29 03:31N 31°58' E 120°50'1344.8
2015-Aug-29 03:31N 31°59' E 120°51'27762232.4
2015-Aug-29 03:31N 27°23' E 121°07'48811799.7
2015-Aug-29 03:28N 23°04' E 113°29'63633676.8
2015-Aug-29 03:27N 30°59' E 121°24'6445696.4
2015-Aug-29 03:20N 23°03' E 113°17'11669.4
2015-Aug-29 03:19N 23°04' E 113°29'515434.6
2015-Aug-29 03:19N 22°16' E 113°49'45256.8
2015-Aug-29 03:08N 23°01' E 113°42'5188.7
2015-Aug-29 02:33N 22°10' E 113°46'670803547.3
2015-Aug-29 02:33N 30°59' E 121°24'7310455.6
2015-Aug-29 02:33N 32°03' E 120°42'6799.2
2015-Aug-29 02:32N 32°00' E 120°49'27841759.9
2015-Aug-29 02:32N 27°22' E 121°07'48973339.1
2015-Aug-29 02:32N 23°06' E 113°27'3275.3
2015-Aug-29 02:31N 23°04' E 113°29'663198908.6
2015-Aug-29 02:31N 31°59' E 120°51'274140672.2
2015-Aug-29 02:31N 27°26' E 121°12'508609137.3
2015-Aug-29 02:31N 22°16' E 113°49'5220945.7
2015-Aug-29 02:31N 23°02' E 113°21'663477234.3
2015-Aug-29 02:31N 31°48' E 120°55'16570.5
2015-Aug-29 02:29N 31°60' E 120°44'6605877.7
2015-Aug-29 02:22N 23°04' E 113°29'6445229.6
2015-Aug-29 02:15N 31°07' E 121°27'5096475.5
2015-Aug-29 02:10N 39°04' E 117°51'7191181.4
2015-Aug-29 01:34N 27°25' E 121°11'519290.0
2015-Aug-29 01:34N 27°22' E 121°06'510262527.1
2015-Aug-29 01:33N 22°03' E 113°47'704158352.1
2015-Aug-29 01:33N 31°58' E 120°50'3776.0
2015-Aug-29 01:33N 31°55' E 120°52'123213.9
2015-Aug-29 01:33N 32°03' E 120°42'73130685.4
2015-Aug-29 01:33N 30°59' E 121°24'6830486.6
2015-Aug-29 01:32N 32°00' E 120°49'51523.0
2015-Aug-29 01:32N 32°01' E 120°43'6144122.3
2015-Aug-29 01:32N 31°22' E 121°39'66272182.3
2015-Aug-29 01:32N 23°06' E 113°27'3293.1
2015-Aug-29 01:31N 23°04' E 113°29'663298362.9
2015-Aug-29 01:31N 31°59' E 120°51'2758764.9
2015-Aug-29 01:29N 27°24' E 121°10'50615067.6
2015-Aug-29 01:27N 22°16' E 113°47'51614.7
2015-Aug-29 01:22N 23°04' E 113°29'662817.0
2015-Aug-29 00:34N 32°00' E 120°46'279501592.1
2015-Aug-29 00:33N 27°22' E 121°05'279167152.2
2015-Aug-29 00:33N 32°00' E 120°47'5528413.4
2015-Aug-29 00:33N 31°06' E 120°57'690496982.5
2015-Aug-29 00:33N 21°55' E 113°13'722371470.3
2015-Aug-29 00:33N 31°24' E 121°31'23830578.7
2015-Aug-29 00:33N 27°26' E 121°11'4425.3
2015-Aug-29 00:32N 27°23' E 121°10'28145959.7
2015-Aug-29 00:32N 32°03' E 120°42'66166125.0
2015-Aug-29 00:31N 23°04' E 113°29'6357000.3
2015-Aug-29 00:31N 22°03' E 113°48'70297258.9
2015-Aug-29 00:31N 32°01' E 120°43'660475173.4
2015-Aug-29 00:31N 23°04' E 113°29'63695423.8
2015-Aug-29 00:30N 30°59' E 121°24'661859.8
2015-Aug-29 00:28N 31°59' E 120°51'66368201.7
2015-Aug-29 00:27N 23°06' E 113°27'52283.2
2015-Aug-29 00:16N 22°14' E 113°24'519616.4
2015-Aug-29 00:16N 23°04' E 113°29'6433062.7
2015-Aug-29 00:04N 31°06' E 121°27'225450.8
2015-Aug-28 23:34N 27°21' E 121°05'488292540.7
2015-Aug-28 23:33N 23°06' E 113°27'634570170.0
2015-Aug-28 23:33N 30°59' E 121°19'697278802.5
2015-Aug-28 23:33N 21°55' E 113°13'541278449.1
2015-Aug-28 23:33N 27°20' E 121°09'2811012602.0
2015-Aug-28 23:33N 32°01' E 120°43'59899.8
2015-Aug-28 23:33N 32°00' E 120°49'101099.7
2015-Aug-28 23:32N 31°60' E 120°37'5542.7
2015-Aug-28 23:32N 32°03' E 120°42'66152900.8
2015-Aug-28 23:31N 23°04' E 113°29'663596710.8
2015-Aug-28 23:31N 31°59' E 120°51'66374599.4
2015-Aug-28 23:31N 23°04' E 113°29'49010023.5
2015-Aug-28 23:28N 27°21' E 121°10'2413901.2
2015-Aug-28 23:24N 31°21' E 121°31'575550043.9
2015-Aug-28 23:17N 37°47' W 122°16'6489432573.5
2015-Aug-28 23:16N 23°04' E 113°29'551353.0
2015-Aug-28 23:14N 22°09' E 113°30'18133.8
2015-Aug-28 23:06N 22°03' E 113°48'651012137.3
2015-Aug-28 22:34N 37°48' W 122°20'654723569221.2
2015-Aug-28 22:34N 21°54' E 113°12'546655039.3
2015-Aug-28 22:33N 27°23' E 121°11'215110367.9
2015-Aug-28 22:33N 30°58' E 121°13'7028069.0
2015-Aug-28 22:33N 32°03' E 120°42'6648.1
2015-Aug-28 22:33N 32°00' E 120°49'70568637.7
2015-Aug-28 22:32N 22°11' E 113°34'70549780.5
2015-Aug-28 22:31N 31°59' E 120°51'663795644.0
2015-Aug-28 22:31N 23°04' E 113°29'488175607.1
2015-Aug-28 22:31N 27°23' E 121°06'511141420.2
2015-Aug-28 22:31N 22°03' E 113°48'6322682.9
2015-Aug-28 22:31N 23°04' E 113°29'6609618.7
2015-Aug-28 22:26N 32°01' E 120°43'6605423.6
2015-Aug-28 22:19N 23°04' E 113°29'65621872.5
2015-Aug-28 22:17N 31°21' E 121°31'65665645.6
2015-Aug-28 22:17N 23°06' E 113°27'6624338.6
2015-Aug-28 22:08N 31°58' E 120°50'705105725.5
2015-Aug-28 22:07N 22°11' E 113°32'5410727.3
2015-Aug-28 22:07N 23°04' E 113°29'492882.6
2015-Aug-28 21:33N 27°24' E 121°11'515926278.5
2015-Aug-28 21:33N 22°03' E 113°48'3510575.9
2015-Aug-28 21:33N 21°53' E 113°11'693623944.4
2015-Aug-28 21:33N 30°59' E 121°09'57806936010.4
2015-Aug-28 21:33N 37°49' W 122°24'5757575661.2
2015-Aug-28 21:32N 32°00' E 120°49'70584605.0
2015-Aug-28 21:32N 22°08' E 113°40'702421260.2
2015-Aug-28 21:32N 32°01' E 120°43'21553.9
2015-Aug-28 21:32N 32°03' E 120°42'81992.9
2015-Aug-28 21:32N 31°58' E 120°50'66291601.3
2015-Aug-28 21:31N 23°04' E 113°29'366.7
2015-Aug-28 21:29N 23°06' E 113°27'6566733.1
2015-Aug-28 21:23N 31°21' E 121°30'504744.5
2015-Aug-28 21:22N 31°59' E 120°51'66354251.5
2015-Aug-28 21:22N 23°04' E 113°29'0 1.2
2015-Aug-28 21:07N 23°04' E 113°29'60107.2
2015-Aug-28 20:33N 22°06' E 113°47'3518230.6
2015-Aug-28 20:33N 21°53' E 113°11'654523561987.2
2015-Aug-28 20:33N 37°49' W 122°23'57611037035.9
2015-Aug-28 20:33N 32°03' E 120°42'704281513.8
2015-Aug-28 20:33N 22°03' E 113°48'654186.6
2015-Aug-28 20:32N 23°06' E 113°27'2207.2
2015-Aug-28 20:31N 23°04' E 113°29'031.8
2015-Aug-28 20:31N 23°04' E 113°29'627205128.0
2015-Aug-28 20:30N 31°01' E 121°05'614110.2
2015-Aug-28 20:29N 32°00' E 120°49'3611.9
2015-Aug-28 20:29N 31°58' E 120°50'504013.2
2015-Aug-28 20:28N 31°21' E 121°30'5020032.5
2015-Aug-28 20:28N 31°59' E 120°51'2765406.3
2015-Aug-28 20:25N 27°23' E 121°16'15501.0
2015-Aug-28 20:23N 27°26' E 120°59'27513356.4
2015-Aug-28 20:22N 32°01' E 120°43'6966786.9
2015-Aug-28 20:16N 22°13' E 113°45'6754018.7
2015-Aug-28 20:06N 31°07' E 121°27'7101312.8
2015-Aug-28 19:34N 21°53' E 113°11'3618367.1
2015-Aug-28 19:33N 22°09' E 113°46'512153548.0
2015-Aug-28 19:33N 27°27' E 121°08'592121316070.1
2015-Aug-28 19:33N 37°48' W 122°21'5760165881.2
2015-Aug-28 19:31N 32°00' E 120°49'7627.0
2015-Aug-28 19:30N 32°03' E 120°42'66149608.4
2015-Aug-28 19:30N 23°03' E 113°30'49520733.2
2015-Aug-28 19:28N 27°23' E 121°16'496178424.9
2015-Aug-28 19:28N 23°04' E 113°29'656472481.2
2015-Aug-28 19:28N 31°21' E 121°30'6562308.5
2015-Aug-28 19:11N 23°04' E 113°30'73117.0
2015-Aug-28 18:34N 21°53' E 113°11'351865.1
2015-Aug-28 18:32N 22°03' E 113°48'586980.9
2015-Aug-28 18:32N 22°59' E 113°31'5450.6
2015-Aug-28 18:31N 23°04' E 113°29'050.0
2015-Aug-28 18:31N 23°04' E 113°29'64370194.2
2015-Aug-28 18:31N 31°07' E 121°27'633485.0
2015-Aug-28 18:29N 32°00' E 120°49'2289.8
2015-Aug-28 18:29N 31°58' E 120°50'6616577.7
2015-Aug-28 18:23N 23°04' E 113°30'6604896.9
2015-Aug-28 18:15N 32°01' E 120°43'2792186.8
2015-Aug-28 18:07N 27°23' E 121°16'2393670.2
2015-Aug-28 18:03N 31°21' E 121°30'7211446.1
2015-Aug-28 17:33N 21°52' E 113°16'730375599.4
2015-Aug-28 17:33N 32°00' E 120°49'6311922.4
2015-Aug-28 17:33N 31°07' E 121°27'2247663.0
2015-Aug-28 17:31N 27°23' E 121°16'2766938.7
2015-Aug-28 17:29N 31°58' E 120°50'66254131.2
2015-Aug-28 17:28N 23°04' E 113°29'65637498.4
2015-Aug-28 17:27N 31°21' E 121°30'6564821.4
2015-Aug-28 17:19N 23°04' E 113°29'6613115.6
2015-Aug-28 17:06N 32°03' E 120°42'68123.4
2015-Aug-28 16:33N 31°07' E 121°27'2237589.9
2015-Aug-28 16:31N 27°23' E 121°16'496446138.9
2015-Aug-28 16:31N 23°04' E 113°29'030.9
2015-Aug-28 16:31N 23°04' E 113°29'6568717.7
2015-Aug-28 16:27N 31°21' E 121°30'65612304.3
2015-Aug-28 16:23N 23°04' E 113°29'1110.0
2015-Aug-28 16:23N 23°04' E 113°30'66318791.4
2015-Aug-28 16:21N 32°00' E 120°49'7657.4
2015-Aug-28 16:20N 32°03' E 120°42'2273.3
2015-Aug-28 16:20N 32°01' E 120°43'7560.1
2015-Aug-28 16:19N 31°58' E 120°50'705927.4
2015-Aug-28 15:33N 22°02' E 113°47'645086.2
2015-Aug-28 15:33N 23°03' E 113°30'145.9
2015-Aug-28 15:32N 23°04' E 113°30'66119832.5
2015-Aug-28 15:30N 32°03' E 120°42'6934.6
2015-Aug-28 15:30N 32°00' E 120°49'2158.9
2015-Aug-28 15:29N 31°59' E 120°51'1644.7
2015-Aug-28 15:28N 31°58' E 120°50'66264375.6
2015-Aug-28 15:28N 23°04' E 113°29'66014665.2
2015-Aug-28 15:25N 32°01' E 120°43'66021402.4
2015-Aug-28 15:23N 23°04' E 113°29'6703741.1
2015-Aug-28 15:13N 31°28' E 121°47'6707401.5
2015-Aug-28 15:07N 23°04' E 113°29'64113.6
2015-Aug-28 14:33N 22°02' E 113°47'7062541842.2
2015-Aug-28 14:33N 31°23' E 121°47'67293072.9
2015-Aug-28 14:33N 23°02' E 113°24'5222.1
2015-Aug-28 14:31N 23°04' E 113°29'662113414.4
2015-Aug-28 14:31N 31°58' E 120°50'3124.7
2015-Aug-28 14:30N 32°00' E 120°49'2168.2
2015-Aug-28 14:29N 31°59' E 120°51'915715.1
2015-Aug-28 14:29N 32°03' E 120°42'66117004.2
2015-Aug-28 14:26N 23°04' E 113°29'657745.2
2015-Aug-28 13:33N 31°20' E 121°33'612357.4
2015-Aug-28 13:32N 32°03' E 120°42'705253826.6
2015-Aug-28 13:32N 22°02' E 113°47'702841811.5
2015-Aug-28 13:32N 31°18' E 121°46'66374562.2
2015-Aug-28 13:31N 23°04' E 113°29'56417.6
2015-Aug-28 13:23N 22°09' E 113°38'70512756.0
2015-Aug-28 13:20N 31°59' E 120°51'2659.9
2015-Aug-28 13:20N 32°00' E 120°49'66362822.4
2015-Aug-28 13:19N 23°04' E 113°29'54294.7
2015-Aug-28 13:08N 22°10' E 113°31'70419649.1
2015-Aug-28 13:06N 32°01' E 120°43'7247.8
2015-Aug-28 13:04N 31°58' E 120°50'63121.7
2015-Aug-28 12:33N 31°04' E 121°28'2018148.4
2015-Aug-28 12:33N 31°12' E 121°50'66118158.8
2015-Aug-28 12:31N 23°04' E 113°29'647246.6
2015-Aug-28 12:30N 22°02' E 113°47'69742527.6
2015-Aug-28 12:29N 31°23' E 121°30'6917449.7
2015-Aug-28 12:24N 22°14' E 113°39'700139941.2
2015-Aug-28 12:24N 32°00' E 120°49'611577.1
2015-Aug-28 12:24N 32°03' E 120°42'2775.8
2015-Aug-28 12:23N 32°01' E 120°43'7295.7
2015-Aug-28 12:22N 31°58' E 120°50'1955125662.0
2015-Aug-28 12:21N 00°01' E 114°09'195693884.1
2015-Aug-28 12:20N 31°59' E 120°51'66376993.2
2015-Aug-28 12:19N 23°04' E 113°29'11490.5
2015-Aug-28 12:18N 22°58' E 113°39'11449.0
2015-Aug-28 12:16N 23°04' E 113°29'55348.7
2015-Aug-28 12:07N 22°10' E 113°37'7031263.0
2015-Aug-28 11:34N 32°03' E 120°42'705362604.2
2015-Aug-28 11:33N 22°02' E 113°47'7052537359.3
2015-Aug-28 11:33N 31°58' E 120°50'654882.1
2015-Aug-28 11:33N 30°59' E 121°24'6751214605.7
2015-Aug-28 11:33N 22°07' E 113°40'706508001.3
2015-Aug-28 11:32N 32°00' E 120°49'2225.4
2015-Aug-28 11:32N 31°59' E 120°51'1956469368.8
2015-Aug-28 11:32N 00°02' E 114°10'137131441.0
2015-Aug-28 11:29N 22°52' E 113°34'667218348.7
2015-Aug-28 11:29N 32°01' E 120°43'6605938.7
2015-Aug-28 11:22N 23°04' E 113°29'0 1.6
2015-Aug-28 11:19N 23°04' E 113°29'0 1.4
2015-Aug-28 11:16N 23°04' E 113°29'49339.7
2015-Aug-28 11:08N 22°17' E 113°44'6591143.0
2015-Aug-28 10:33N 30°58' E 121°16'667266826.7
2015-Aug-28 10:33N 22°05' E 113°46'416398.4
2015-Aug-28 10:33N 22°46' E 113°39'136489309.5
2015-Aug-28 10:32N 00°02' E 114°10'1383331943.3
2015-Aug-28 10:31N 23°04' E 113°29'0 7.7
2015-Aug-28 10:31N 23°04' E 113°29'5213340.9
2015-Aug-28 10:31N 22°14' E 113°42'69822430.7
2015-Aug-28 10:29N 32°03' E 120°42'2180.9
2015-Aug-28 10:28N 32°01' E 120°43'71291.2
2015-Aug-28 10:28N 31°58' E 120°50'3292.3
2015-Aug-28 10:27N 32°00' E 120°49'66342628.2
2015-Aug-28 10:26N 23°04' E 113°29'64620.2
2015-Aug-28 10:20N 22°02' E 113°47'1519.5
2015-Aug-28 09:33N 22°17' E 113°47'692276845.0
2015-Aug-28 09:33N 31°58' E 120°50'703281009.5
2015-Aug-28 09:33N 22°10' E 113°37'703505879.6
2015-Aug-28 09:33N 32°03' E 120°42'63307.7
2015-Aug-28 09:33N 32°00' E 120°49'5115211.0
2015-Aug-28 09:33N 31°21' E 121°27'484464.1
2015-Aug-28 09:32N 31°59' E 120°51'45190148.7
2015-Aug-28 09:32N 39°04' E 117°48'2351130232.0
2015-Aug-28 09:31N 00°02' E 114°10'19562346920.2
2015-Aug-28 09:31N 32°01' E 120°43'70411158.9
2015-Aug-28 09:27N 22°02' E 113°47'641126.0
2015-Aug-28 09:23N 23°04' E 113°29'0 0.8
2015-Aug-28 09:19N 23°04' E 113°29'0 0.4
2015-Aug-28 09:04N 23°04' E 113°29'6621283.3
2015-Aug-28 08:33N 31°58' E 120°50'7700.2
2015-Aug-28 08:33N 32°01' E 120°43'44517397.5
2015-Aug-28 08:31N 39°03' E 117°52'103747857.6
2015-Aug-28 08:30N 22°11' E 113°32'2215981.8
2015-Aug-28 08:30N 22°30' E 113°44'68498551.2
2015-Aug-28 08:29N 32°00' E 120°49'63859.0
2015-Aug-28 08:29N 32°03' E 120°42'91308.4
2015-Aug-28 08:29N 31°59' E 120°51'506009.8
2015-Aug-28 08:28N 31°21' E 121°30'6839721.3
2015-Aug-28 08:24N 22°17' E 113°49'513107.8
2015-Aug-28 08:23N 23°04' E 113°29'0 0.8
2015-Aug-28 08:19N 23°04' E 113°29'6482.8
2015-Aug-28 07:32N 22°02' E 113°47'70561911.9
2015-Aug-28 07:32N 32°03' E 120°42'661103499.0
2015-Aug-28 07:31N 23°04' E 113°29'66322309.1
2015-Aug-28 07:30N 32°00' E 120°49'6633807.1
2015-Aug-28 07:19N 23°04' E 113°29'458993.5
2015-Aug-28 07:19N 22°21' E 113°44'102424576.9
2015-Aug-28 07:16N 39°03' E 117°52'4952370.2
2015-Aug-28 07:04N 31°21' E 121°30'6601297.0
2015-Aug-28 06:33N 22°59' E 113°31'485218391.7
2015-Aug-28 06:33N 27°18' E 121°04'50023095.3
2015-Aug-28 06:32N 22°16' E 113°44'50146.5
2015-Aug-28 06:11N 23°04' E 113°29'5384.6
2015-Aug-28 05:34N 22°12' E 113°39'69377916.5
2015-Aug-28 05:33N 31°21' E 121°30'24317460.3
2015-Aug-28 05:32N 27°19' E 121°13'4925175.2
2015-Aug-28 05:26N 23°04' E 113°29'0 0.4
2015-Aug-28 05:18N 23°04' E 113°29'105907.1
2015-Aug-28 05:18N 22°55' E 113°27'66310153.3
2015-Aug-28 05:14N 31°21' E 121°27'2 2.8
2015-Aug-28 04:33N 31°22' E 121°29'69914972.0
2015-Aug-28 04:30N 22°10' E 113°30'55819.7
2015-Aug-28 04:26N 23°04' E 113°29'0 0.6
2015-Aug-28 04:21N 23°04' E 113°29'6497302.5
2015-Aug-28 04:16N 31°12' E 121°30'3 3.8
2015-Aug-28 03:33N 31°15' E 121°30'65115626.0
2015-Aug-28 03:31N 23°04' E 113°29'0 3.3
2015-Aug-28 03:30N 23°04' E 113°29'138313243.5
2015-Aug-28 03:24N 00°02' E 114°10'1322396656.8
2015-Aug-28 03:23N 22°04' E 113°48'6332492.1
2015-Aug-28 03:23N 23°04' E 113°29'13831606.8
2015-Aug-28 02:32N 00°02' E 114°10'1924266346.9
2015-Aug-28 02:31N 31°17' E 121°34'655112281.9
2015-Aug-28 02:31N 23°04' E 113°29'61792471458.2
2015-Aug-28 02:31N 48°55' W 123°19'6179444858.8
2015-Aug-28 02:30N 23°04' E 113°29'0 0.5
2015-Aug-28 02:23N 23°04' E 113°29'51700.5
2015-Aug-28 02:19N 22°16' E 113°49'678893.2
2015-Aug-28 01:33N 31°15' E 121°30'53904851117.0
2015-Aug-28 01:33N 49°02' W 123°19'53831490809.6
2015-Aug-28 01:33N 31°20' E 121°33'192710957.4
2015-Aug-28 01:23N 00°02' E 114°10'13357109.5
2015-Aug-28 01:11N 22°16' E 113°47'19162.3
2015-Aug-28 01:04N 22°19' E 114°08'618312006.3
2015-Aug-28 00:33N 49°09' W 123°18'5381807182.8
2015-Aug-28 00:33N 31°22' E 121°30'67217156.4
2015-Aug-28 00:31N 22°28' E 113°52'42344.9
2015-Aug-28 00:23N 23°04' E 113°29'138319604.9
2015-Aug-28 00:19N 00°02' E 114°10'13831797.0
2015-Aug-27 23:33N 23°04' E 113°29'6172965991.6
2015-Aug-27 23:32N 49°15' W 123°18'7306309438.0
2015-Aug-27 23:31N 00°02' E 114°10'193023714.7
2015-Aug-27 23:26N 31°24' E 121°32'659741.5
2015-Aug-27 22:33N 23°04' E 113°29'138346537.3
2015-Aug-27 22:31N 00°02' E 114°10'1933102313.3
2015-Aug-27 22:30N 31°28' E 121°27'65910780.3
2015-Aug-27 22:26N 23°04' E 113°29'10151.1
2015-Aug-27 22:22N 22°55' E 113°26'668795.4
2015-Aug-27 21:32N 31°31' E 121°22'6657555.1
2015-Aug-27 21:27N 22°54' E 113°31'10104.5
2015-Aug-27 21:21N 23°04' E 113°29'0 0.5
2015-Aug-27 21:14N 23°04' E 113°29'0 0.1
2015-Aug-27 20:33N 23°04' E 113°29'398.4
2015-Aug-27 20:31N 23°02' E 113°31'311.3
2015-Aug-27 20:14N 23°04' E 113°29'0 0.5
2015-Aug-27 19:33N 23°04' E 113°29'037.5
2015-Aug-27 19:33N 23°04' E 113°29'0 0.5
2015-Aug-27 19:26N 23°04' E 113°29'0 0.1
2015-Aug-27 18:33N 23°04' E 113°29'014.3
2015-Aug-27 18:32N 23°04' E 113°29'0 3.6
2015-Aug-27 18:28N 23°04' E 113°29'0 3.3
2015-Aug-27 18:26N 23°04' E 113°29'5764.4
2015-Aug-27 17:33N 22°11' E 113°50'575663.1
2015-Aug-27 17:33N 23°04' E 113°29'0 6.2
2015-Aug-27 17:30N 23°04' E 113°29'657112562.6
2015-Aug-27 17:30N 31°20' E 121°33'681726.4
2015-Aug-27 16:33N 22°20' E 113°48'4810112.3
2015-Aug-27 16:33N 23°04' E 113°29'0147.4
2015-Aug-27 16:33N 23°04' E 113°29'656472491.9
2015-Aug-27 16:33N 31°21' E 121°31'65620367.8
2015-Aug-27 16:31N 23°04' E 113°29'6593527.0
2015-Aug-27 16:20N 31°23' E 121°34'6984900.5
2015-Aug-27 16:11N 22°10' E 113°36'5485.3
2015-Aug-27 15:33N 23°04' E 113°29'32802.9
2015-Aug-27 15:33N 23°04' E 113°26'6619295.9
2015-Aug-27 15:29N 31°24' E 121°33'3113.9
2015-Aug-27 15:27N 31°21' E 121°31'6563088.3
2015-Aug-27 15:14N 23°04' E 113°29'0 0.5
2015-Aug-27 15:04N 23°04' E 113°29'1 1.2
2015-Aug-27 14:33N 23°04' E 113°30'6567899.0
2015-Aug-27 14:28N 31°21' E 121°31'6568378.2
2015-Aug-27 14:23N 23°04' E 113°29'659107776.6
2015-Aug-27 14:23N 31°27' E 121°28'6633766.1
2015-Aug-27 14:12N 23°02' E 113°24'6 8.3
2015-Aug-27 13:32N 23°04' E 113°30'65631076.1
2015-Aug-27 13:31N 31°21' E 121°31'656181744.0
2015-Aug-27 13:31N 23°04' E 113°29'81062.3
2015-Aug-27 13:30N 23°03' E 113°20'8117.9
2015-Aug-27 13:26N 23°04' E 113°29'1 0.8
2015-Aug-27 12:33N 23°04' E 113°30'5399.4
2015-Aug-27 12:33N 23°03' E 113°25'66015524.0
2015-Aug-27 12:30N 31°21' E 121°31'65618901.1
2015-Aug-27 12:28N 23°04' E 113°29'0 2.9
2015-Aug-27 12:26N 23°04' E 113°29'10374.0
2015-Aug-27 12:25N 22°55' E 113°33'441247.8
2015-Aug-27 12:22N 22°10' E 113°32'5464.9
2015-Aug-27 11:33N 23°04' E 113°30'65615139.6
2015-Aug-27 11:30N 31°21' E 121°31'65667511.7
2015-Aug-27 11:30N 23°04' E 113°29'518999.1
2015-Aug-27 11:30N 22°59' E 113°31'66811235.3
2015-Aug-27 11:26N 31°20' E 121°48'26140.1
2015-Aug-27 11:15N 31°33' E 121°21'689826988.1
2015-Aug-27 11:15N 22°17' E 113°44'6 8.1
2015-Aug-27 10:33N 22°13' E 113°48'62070.9
2015-Aug-27 10:33N 22°15' E 113°43'688275027.9
2015-Aug-27 10:33N 31°21' E 121°31'65687473.4
2015-Aug-27 10:33N 23°04' E 113°30'661594881.2
2015-Aug-27 10:33N 31°16' E 121°46'231379.2
2015-Aug-27 10:32N 31°31' E 121°24'660475310.0
2015-Aug-27 10:31N 23°03' E 113°30'2290.3
2015-Aug-27 10:31N 23°04' E 113°29'581.4
2015-Aug-27 10:27N 23°02' E 113°24'5277.4
2015-Aug-27 10:26N 23°04' E 113°29'6632237.2
2015-Aug-27 10:08N 32°00' E 120°49'6631130.5
2015-Aug-27 09:33N 23°04' E 113°30'5347976.5
2015-Aug-27 09:33N 22°11' E 113°39'697836044.3
2015-Aug-27 09:33N 31°28' E 121°28'251215.8
2015-Aug-27 09:32N 31°12' E 121°49'66523458.1
2015-Aug-27 09:30N 23°02' E 113°24'661237925.5
2015-Aug-27 09:30N 31°21' E 121°31'657394065.0
2015-Aug-27 09:30N 23°02' E 113°30'521.5
2015-Aug-27 09:16N 23°06' E 113°26'353.1
2015-Aug-27 09:13N 23°04' E 113°29'1 1.0
2015-Aug-27 08:33N 23°04' E 113°30'65940928.4
2015-Aug-27 08:32N 31°26' E 121°31'2176267.3
2015-Aug-27 08:32N 31°12' E 121°49'66023302.7
2015-Aug-27 08:30N 23°05' E 113°28'2113.1
2015-Aug-27 08:29N 23°05' E 113°27'5515259.8
2015-Aug-27 08:29N 22°11' E 113°34'542353.9
2015-Aug-27 08:28N 23°04' E 113°29'65669488.4
2015-Aug-27 08:27N 31°21' E 121°31'67219842.5
2015-Aug-27 08:25N 22°27' E 113°53'1618.8
2015-Aug-27 07:33N 22°13' E 113°45'6992515047.7
2015-Aug-27 07:33N 32°00' E 120°49'681188502.9
2015-Aug-27 07:33N 22°28' E 113°54'67931756.3
2015-Aug-27 07:32N 32°03' E 120°42'9561.3
2015-Aug-27 07:31N 31°59' E 120°51'682098.0
2015-Aug-27 07:29N 31°12' E 121°49'6813667.8
2015-Aug-27 07:29N 31°58' E 120°50'7525.2
2015-Aug-27 07:28N 32°01' E 120°43'6265.8
2015-Aug-27 07:27N 31°55' E 120°47'6986826.3
2015-Aug-27 07:20N 22°06' E 113°47'695860.0
2015-Aug-27 06:32N 31°12' E 121°49'6732424001.5
2015-Aug-27 06:32N 22°28' E 113°54'203725.6
2015-Aug-27 06:32N 22°09' E 113°53'452.4
2015-Aug-27 06:27N 22°10' E 113°48'659743.3
2015-Aug-27 05:33N 30°58' E 121°09'641100337.0
2015-Aug-27 05:33N 22°28' E 113°54'167232.4
2015-Aug-27 05:33N 22°14' E 113°46'4604.8
2015-Aug-27 05:32N 22°10' E 113°48'69180289.8
2015-Aug-27 05:32N 31°12' E 121°49'772104.2
2015-Aug-27 05:30N 32°03' E 120°42'89973.5
2015-Aug-27 05:30N 31°55' E 120°47'4267.0
2015-Aug-27 05:29N 31°58' E 120°50'7203.8
2015-Aug-27 05:27N 32°01' E 120°43'811891.8
2015-Aug-27 05:24N 31°08' E 121°54'778120.7
2015-Aug-27 05:24N 32°00' E 120°49'6981.8
2015-Aug-27 04:33N 31°13' E 121°48'66074274.1
2015-Aug-27 04:33N 23°04' E 113°29'663795686.8
2015-Aug-27 04:33N 32°00' E 120°49'6832.4
2015-Aug-27 04:32N 32°01' E 120°43'7519209.3
2015-Aug-27 04:32N 31°12' E 121°49'684917.2
2015-Aug-27 04:31N 31°58' E 120°50'8829.0
2015-Aug-27 04:30N 32°03' E 120°42'8118.6
2015-Aug-27 04:26N 31°56' E 120°47'6947062.2
2015-Aug-27 04:20N 22°10' E 113°48'591028.3
2015-Aug-27 04:17N 23°06' E 113°27'6248781.7
2015-Aug-27 04:13N 31°01' E 121°01'5067288.2
2015-Aug-27 04:08N 39°03' E 117°52'101625040.0
2015-Aug-27 04:06N 22°28' E 113°54'431200.4
2015-Aug-27 04:04N 23°04' E 113°29'6611291.6
2015-Aug-27 03:33N 32°03' E 120°42'7142691.9
2015-Aug-27 03:33N 31°18' E 121°47'664165.9
2015-Aug-27 03:32N 31°59' E 120°46'7116033.1
2015-Aug-27 03:32N 31°12' E 121°49'66072017.4
2015-Aug-27 03:31N 23°06' E 113°27'66295267.9
2015-Aug-27 03:31N 31°58' E 120°50'679174618.6
2015-Aug-27 03:31N 22°28' E 113°54'3923454.9
2015-Aug-27 03:31N 22°54' E 113°22'502385.9
2015-Aug-27 03:29N 22°10' E 113°48'69955945.0
2015-Aug-27 03:29N 32°00' E 120°49'6635004.0
2015-Aug-27 03:21N 23°04' E 113°29'12276.9
2015-Aug-27 03:18N 23°04' E 113°16'669901.6
2015-Aug-27 02:33N 31°07' E 121°54'689112793.5
2015-Aug-27 02:33N 22°13' E 113°48'5628828.8
2015-Aug-27 02:33N 23°03' E 113°21'469748.9
2015-Aug-27 02:33N 22°28' E 113°54'68361446.7
2015-Aug-27 02:32N 31°25' E 121°48'6694757.9
2015-Aug-27 02:24N 23°04' E 113°29'273.6
2015-Aug-27 02:22N 23°06' E 113°27'6612291.1
2015-Aug-27 02:04N 32°03' E 120°42'6951353.7
2015-Aug-27 01:34N 22°12' E 113°50'1032154868.4
2015-Aug-27 01:33N 39°04' E 117°48'524145082.1
2015-Aug-27 01:33N 31°03' E 122°01'661264477.2
2015-Aug-27 01:33N 23°04' E 113°29'421328.9
2015-Aug-27 01:31N 22°28' E 113°54'43860.1
2015-Aug-27 01:28N 23°04' E 113°29'502788.3
2015-Aug-27 01:27N 22°17' E 113°49'50621.8
2015-Aug-27 01:22N 23°04' E 113°29'66010240.1
2015-Aug-27 01:18N 32°01' E 120°43'22613.9
2015-Aug-27 01:18N 32°03' E 120°42'6707.1
2015-Aug-27 01:17N 32°00' E 120°49'13697.1
2015-Aug-27 01:16N 32°00' E 120°34'14963.3
2015-Aug-27 01:15N 31°58' E 120°50'811.6
2015-Aug-27 00:33N 32°03' E 120°42'66544316.9
2015-Aug-27 00:32N 22°58' E 113°32'6639707.8
2015-Aug-27 00:28N 32°01' E 120°43'4252.3
2015-Aug-27 00:26N 32°01' E 120°48'66324856.6
2015-Aug-27 00:25N 23°04' E 113°29'43961.2
2015-Aug-27 00:22N 22°28' E 113°54'431673.9
2015-Aug-27 00:21N 23°04' E 113°29'663837.0
2015-Aug-26 23:33N 32°00' E 120°49'671.8
2015-Aug-26 23:28N 32°03' E 120°42'4446286.8
2015-Aug-26 23:23N 39°03' E 117°50'99125480.3
2015-Aug-26 23:21N 22°58' E 113°30'6602355.8
2015-Aug-26 23:04N 31°18' E 121°33'6551249.1
2015-Aug-26 22:33N 23°04' E 113°29'663298427.1
2015-Aug-26 22:33N 32°00' E 120°49'6638175.2
2015-Aug-26 22:28N 23°04' E 113°29'661556.1
2015-Aug-26 21:17N 32°03' E 120°42'66113225.2
2015-Aug-26 21:14N 23°04' E 113°29'6637930.7
2015-Aug-26 21:09N 32°00' E 120°49'57962.1
2015-Aug-26 21:05N 31°18' E 121°33'6551225.1
2015-Aug-26 20:33N 23°04' E 113°29'6614858.8
2015-Aug-26 20:25N 32°03' E 120°42'6194.5
2015-Aug-26 20:23N 32°00' E 120°49'533.8
2015-Aug-26 20:13N 32°01' E 120°43'2 2.8
2015-Aug-26 19:26N 32°03' E 120°42'661216412.6
2015-Aug-26 19:26N 23°04' E 113°29'66319892.9
2015-Aug-26 19:24N 32°00' E 120°49'6 7.7
2015-Aug-26 18:33N 32°03' E 120°42'6179.4
2015-Aug-26 18:31N 32°00' E 120°49'6636939.4
2015-Aug-26 18:26N 23°04' E 113°29'0 3.6
2015-Aug-26 18:24N 23°04' E 113°29'6604265.5
2015-Aug-26 18:15N 32°01' E 120°43'6127274.4
2015-Aug-26 18:15N 31°18' E 121°33'6553978.3
2015-Aug-26 18:05N 23°04' E 113°29'6611266.9
2015-Aug-26 17:33N 32°03' E 120°42'6632387125.6
2015-Aug-26 17:33N 23°04' E 113°26'551336.1
2015-Aug-26 17:31N 22°09' E 113°30'55609.0
2015-Aug-26 17:26N 23°04' E 113°29'6639664.5
2015-Aug-26 17:21N 32°00' E 120°49'57720.8
2015-Aug-26 17:17N 31°18' E 121°33'694836.7
2015-Aug-26 16:27N 22°10' E 113°36'54743.9
2015-Aug-26 16:23N 23°04' E 113°29'5869.5
2015-Aug-26 15:33N 22°07' E 113°40'702713.2
2015-Aug-26 14:33N 32°01' E 120°43'700157587.3
2015-Aug-26 14:33N 22°06' E 113°47'702132984.3
2015-Aug-26 14:33N 32°03' E 120°42'6530.8
2015-Aug-26 14:32N 32°00' E 120°49'6637555.0
2015-Aug-26 14:27N 23°04' E 113°29'0 3.6
2015-Aug-26 14:26N 23°04' E 113°29'9195.5
2015-Aug-26 14:23N 23°03' E 113°20'5 6.5
2015-Aug-26 13:33N 23°04' E 113°25'322.2
2015-Aug-26 13:24N 23°04' E 113°29'6611945.1
2015-Aug-26 13:04N 32°03' E 120°42'19583898.3
2015-Aug-26 12:33N 00°02' E 114°08'138312798.1
2015-Aug-26 12:27N 23°04' E 113°29'0 1.1
2015-Aug-26 12:23N 23°04' E 113°29'66319892.8
2015-Aug-26 12:21N 32°00' E 120°49'6141.1
2015-Aug-26 12:18N 32°03' E 120°42'211.5
2015-Aug-26 12:06N 32°01' E 120°43'662010.3
2015-Aug-26 12:05N 31°25' E 121°48'19343737.7
2015-Aug-26 11:33N 00°02' E 114°10'193078079.7
2015-Aug-26 11:32N 31°21' E 121°48'12141.5
2015-Aug-26 11:27N 31°20' E 121°33'68749480.2
2015-Aug-26 11:26N 22°15' E 113°43'50131.8
2015-Aug-26 11:03N 23°04' E 113°29'6611346.9
2015-Aug-26 10:33N 31°17' E 121°45'192672216.2
2015-Aug-26 10:32N 00°02' E 114°10'133027209.4
2015-Aug-26 10:29N 22°12' E 113°39'54501.6
2015-Aug-26 10:22N 23°04' E 113°29'6628577.3
2015-Aug-26 10:18N 31°58' E 120°51'77373.1
2015-Aug-26 10:06N 30°50' E 121°31'463653.6
2015-Aug-26 10:05N 31°35' E 121°19'4380.9
2015-Aug-26 09:33N 30°53' E 121°31'52519105.0
2015-Aug-26 09:31N 39°05' E 117°45'10373613.1
2015-Aug-26 09:14N 22°11' E 113°34'10361524.7
2015-Aug-26 08:33N 39°03' E 117°52'4912395.4
2015-Aug-26 08:21N 31°26' E 121°30'6595159.9
2015-Aug-26 08:13N 23°04' E 113°29'657927.9
2015-Aug-26 07:31N 31°23' E 121°30'67016751.1
2015-Aug-26 07:29N 22°29' E 113°56'1015125944.7
2015-Aug-26 07:28N 39°04' E 117°49'1017732011.6
2015-Aug-26 07:28N 22°27' E 113°53'11193.4
2015-Aug-26 07:25N 22°17' E 113°47'501499.8
2015-Aug-26 07:23N 23°04' E 113°29'6172.2
2015-Aug-26 06:32N 22°05' E 113°47'242740.4
2015-Aug-26 06:31N 22°28' E 113°53'6539711.6
2015-Aug-26 06:27N 31°16' E 121°03'262556.9
2015-Aug-26 06:27N 31°17' E 121°34'6559707.1
2015-Aug-26 06:22N 23°04' E 113°29'640783.6
2015-Aug-26 05:34N 31°17' E 121°08'65613260.2
2015-Aug-26 05:31N 22°28' E 113°53'42692.6
2015-Aug-26 05:27N 23°04' E 113°29'0 1.1
2015-Aug-26 05:23N 23°04' E 113°29'43579.2
2015-Aug-26 05:18N 22°29' E 113°56'653863.1
2015-Aug-26 04:33N 31°15' E 121°09'6531175422.6
2015-Aug-26 04:33N 22°29' E 113°56'43362.8
2015-Aug-26 04:26N 23°04' E 113°29'1060.0
2015-Aug-26 04:16N 22°55' E 113°27'57474.4
2015-Aug-26 04:09N 22°02' E 113°48'6751143.4
2015-Aug-26 03:33N 31°09' E 121°09'545542.0
2015-Aug-26 03:33N 32°00' E 120°49'68179136.4
2015-Aug-26 03:32N 22°28' E 113°53'42385.0
2015-Aug-26 03:25N 23°04' E 113°29'660669.1
2015-Aug-26 02:26N 31°11' E 121°49'711511.6
2015-Aug-26 02:24N 32°00' E 120°49'66339136.2
2015-Aug-26 02:22N 23°04' E 113°29'66310603.7
2015-Aug-26 02:19N 31°58' E 120°51'9508.5
2015-Aug-26 02:18N 32°03' E 120°42'42435.8
2015-Aug-26 02:12N 31°35' E 121°19'4161.4
2015-Aug-26 01:32N 31°08' E 121°55'7755312.8
2015-Aug-26 01:32N 32°00' E 120°49'5102.7
2015-Aug-26 01:29N 32°01' E 120°43'69039433.6
2015-Aug-26 01:28N 22°17' E 113°49'691497678.8
2015-Aug-26 01:28N 32°03' E 120°42'9204.6
2015-Aug-26 01:25N 31°58' E 120°51'0 0.0
2015-Aug-26 00:33N 31°58' E 120°51'32533.3
2015-Aug-26 00:33N 32°00' E 120°49'697104605.5
2015-Aug-26 00:33N 22°12' E 113°49'696357990.7
2015-Aug-26 00:33N 32°03' E 120°42'228.3
2015-Aug-26 00:28N 32°01' E 120°43'2 2.4
2015-Aug-25 23:33N 32°03' E 120°42'6396.3
2015-Aug-25 23:32N 32°00' E 120°49'491033.0
2015-Aug-25 23:30N 31°20' E 121°22'67332327.9
2015-Aug-25 23:28N 22°21' E 113°49'462347.8
2015-Aug-25 23:27N 23°06' E 113°38'562090.8
2015-Aug-25 23:26N 22°10' E 113°31'7043818.1
2015-Aug-25 23:14N 32°01' E 120°43'2 3.2
2015-Aug-25 22:33N 32°03' E 120°42'685.1
2015-Aug-25 22:28N 32°00' E 120°49'549.8
2015-Aug-25 22:22N 32°01' E 120°43'8545.0
2015-Aug-25 22:21N 31°58' E 120°51'7056800.2
2015-Aug-25 22:15N 22°09' E 113°38'5 6.7
2015-Aug-25 21:34N 22°06' E 113°42'70670552.9
2015-Aug-25 21:33N 31°58' E 120°51'66324104.6
2015-Aug-25 21:31N 23°04' E 113°29'663132657.0
2015-Aug-25 21:31N 32°00' E 120°49'66344207.9
2015-Aug-25 21:30N 23°04' E 113°29'6515645.8
2015-Aug-25 21:23N 31°20' E 121°23'651759.3
2015-Aug-25 20:32N 23°04' E 113°29'65150954.6
2015-Aug-25 20:31N 31°20' E 121°23'65615947.7
2015-Aug-25 20:29N 23°02' E 113°24'66464651.6
2015-Aug-25 20:28N 32°01' E 120°43'5741.0
2015-Aug-25 20:27N 32°00' E 120°49'5 6.0
2015-Aug-25 19:33N 32°01' E 120°43'5396.9
2015-Aug-25 19:33N 32°00' E 120°49'6238.6
2015-Aug-25 19:31N 32°03' E 120°42'668218491.0
2015-Aug-25 19:31N 23°03' E 113°18'66935425.0
2015-Aug-25 19:30N 31°58' E 120°51'66315099.4
2015-Aug-25 19:27N 23°04' E 113°29'65114036.0
2015-Aug-25 19:24N 31°20' E 121°23'0 0.0
2015-Aug-25 18:30N 31°20' E 121°23'6811832.7
2015-Aug-25 18:07N 22°17' E 113°44'491981.3
2015-Aug-25 18:06N 23°04' E 113°29'5194.2
2015-Aug-25 17:33N 22°14' E 113°42'6972508526.1
2015-Aug-25 17:33N 32°03' E 120°42'66123570.8
2015-Aug-25 17:32N 23°04' E 113°29'011.3
2015-Aug-25 17:30N 23°04' E 113°29'66349733.1
2015-Aug-25 17:29N 32°00' E 120°49'501578.5
2015-Aug-25 17:27N 31°20' E 121°23'65197679.9
2015-Aug-25 17:27N 23°04' E 113°29'66379531.0
2015-Aug-25 17:26N 31°58' E 120°51'81962.3
2015-Aug-25 17:26N 32°01' E 120°43'700796.8
2015-Aug-25 16:33N 22°11' E 113°38'7021262913.4
2015-Aug-25 16:33N 32°03' E 120°42'552510.6
2015-Aug-25 16:32N 31°20' E 121°23'65197665.1
2015-Aug-25 16:32N 23°04' E 113°29'5455.2
2015-Aug-25 15:33N 22°11' E 113°33'69120741.4
2015-Aug-25 15:31N 31°20' E 121°23'556842.6
2015-Aug-25 15:31N 32°03' E 120°42'7273.7
2015-Aug-25 15:30N 32°00' E 120°49'66345909.2
2015-Aug-25 15:29N 23°04' E 113°29'66010900.3
2015-Aug-25 15:25N 32°01' E 120°43'6603921.6
2015-Aug-25 15:15N 23°04' E 113°29'124.3
2015-Aug-25 15:13N 23°04' E 113°30'652946.3
2015-Aug-25 14:32N 31°20' E 121°25'652146737.8
2015-Aug-25 14:32N 23°04' E 113°29'66310470.1
2015-Aug-25 14:28N 32°00' E 120°49'66315297.5
2015-Aug-25 14:25N 23°04' E 113°30'6621987.4
2015-Aug-25 14:05N 31°58' E 120°51'92503.2
2015-Aug-25 14:05N 32°03' E 120°42'0 0.0
2015-Aug-25 13:32N 32°03' E 120°42'6617043.8
2015-Aug-25 13:27N 23°04' E 113°29'655471895.7
2015-Aug-25 13:27N 31°22' E 121°28'6558670.2
2015-Aug-25 13:22N 23°04' E 113°30'11294.1
2015-Aug-25 13:20N 22°53' E 113°30'1113.7
2015-Aug-25 12:32N 23°04' E 113°29'66125597.5
2015-Aug-25 12:30N 32°03' E 120°42'6631.9
2015-Aug-25 12:30N 32°00' E 120°49'6639358.4
2015-Aug-25 12:25N 23°04' E 113°30'659790333.1
2015-Aug-25 12:25N 31°25' E 121°31'55297.4
2015-Aug-25 12:14N 32°01' E 120°43'6686503.4
2015-Aug-25 12:08N 22°51' E 113°34'6701134.4
2015-Aug-25 11:33N 32°03' E 120°42'623161.9
2015-Aug-25 11:33N 32°00' E 120°49'66989193.8
2015-Aug-25 11:32N 22°54' E 113°34'66957300.4
2015-Aug-25 11:31N 31°58' E 120°51'6632683.6
2015-Aug-25 11:17N 23°04' E 113°29'0 2.6
2015-Aug-25 11:15N 23°04' E 113°29'624895.4
2015-Aug-25 10:33N 30°58' E 121°04'626322004.4
2015-Aug-25 10:33N 22°60' E 113°31'5483.0
2015-Aug-25 10:32N 23°04' E 113°29'027.2
2015-Aug-25 10:32N 23°04' E 113°29'6583172.7
2015-Aug-25 10:19N 31°29' E 121°24'6585399.2
2015-Aug-25 10:12N 23°04' E 113°29'6638552.2
2015-Aug-25 10:07N 31°58' E 120°51'92475.3
2015-Aug-25 10:07N 32°03' E 120°42'6252.6
2015-Aug-25 10:05N 32°00' E 120°49'6631229.7
2015-Aug-25 09:33N 23°05' E 113°28'2150.9
2015-Aug-25 09:32N 23°04' E 113°29'62620486.4
2015-Aug-25 09:31N 30°58' E 121°08'351769.9
2015-Aug-25 09:29N 31°32' E 121°21'65859239.7
2015-Aug-25 09:29N 23°04' E 113°29'49171.5
2015-Aug-25 09:12N 22°18' E 113°46'4874.0
2015-Aug-25 08:32N 23°04' E 113°29'65860757.5
2015-Aug-25 08:32N 31°26' E 121°29'32700.1
2015-Aug-25 08:29N 30°57' E 121°12'628107588.5
2015-Aug-25 08:29N 23°06' E 113°27'5560.1
2015-Aug-25 07:33N 22°11' E 113°32'705507672.5
2015-Aug-25 07:33N 32°03' E 120°42'7013333.7
2015-Aug-25 07:33N 30°58' E 121°14'669147.7
2015-Aug-25 07:32N 32°00' E 120°49'66345909.5
2015-Aug-25 07:32N 23°04' E 113°29'3326.7
2015-Aug-25 07:31N 23°06' E 113°27'322.2
2015-Aug-25 07:23N 23°04' E 113°29'8210.5
2015-Aug-25 07:21N 23°03' E 113°20'6647225.2
2015-Aug-25 07:15N 31°26' E 121°29'2941.7
2015-Aug-25 06:33N 30°58' E 121°18'631141922.9
2015-Aug-25 06:33N 23°05' E 113°29'141.5
2015-Aug-25 06:32N 23°04' E 113°29'65823935.3
2015-Aug-25 06:30N 31°26' E 121°29'6585968.5
2015-Aug-25 06:23N 23°04' E 113°29'663794.4
2015-Aug-25 05:33N 32°00' E 120°49'61531.2
2015-Aug-25 05:33N 32°03' E 120°42'82530.9
2015-Aug-25 05:33N 31°58' E 120°50'46707.9
2015-Aug-25 05:29N 31°26' E 121°29'658131644.0
2015-Aug-25 05:29N 23°04' E 113°29'1928.7
2015-Aug-25 05:29N 23°05' E 113°29'65998901.6
2015-Aug-25 05:28N 32°01' E 120°43'1896.2
2015-Aug-25 05:17N 31°47' E 120°56'53243.3
2015-Aug-25 05:04N 30°59' E 121°21'2 4.5
2015-Aug-25 04:33N 30°60' E 121°24'67551695.7
2015-Aug-25 04:32N 22°02' E 113°48'70553996.9
2015-Aug-25 04:31N 32°03' E 120°42'1555019.3
2015-Aug-25 04:31N 31°51' E 120°53'65827242.6
2015-Aug-25 04:30N 23°05' E 113°27'65914460.9
2015-Aug-25 04:27N 31°26' E 121°29'53365.2
2015-Aug-25 04:19N 32°01' E 120°43'5202.8
2015-Aug-25 04:17N 32°00' E 120°49'6626098.9
2015-Aug-25 04:10N 23°05' E 113°29'122.9
2015-Aug-25 04:08N 23°04' E 113°29'6611148.9
2015-Aug-25 03:33N 31°56' E 120°52'22029.8
2015-Aug-25 03:33N 31°58' E 120°50'78377.1
2015-Aug-25 03:33N 32°01' E 120°43'21469.0
2015-Aug-25 03:33N 32°03' E 120°42'7332938.4
2015-Aug-25 03:33N 31°01' E 121°28'647465595.3
2015-Aug-25 03:33N 23°03' E 113°19'66558369.5
2015-Aug-25 03:32N 31°26' E 121°29'69844079.3
2015-Aug-25 03:31N 22°02' E 113°48'661458.4
2015-Aug-25 03:28N 23°05' E 113°29'6628083.6
2015-Aug-25 03:23N 32°00' E 120°49'3 3.2
2015-Aug-25 02:33N 31°58' E 120°50'8480.9
2015-Aug-25 02:32N 32°03' E 120°42'5291.3
2015-Aug-25 02:31N 32°00' E 120°48'6578496.6
2015-Aug-25 02:31N 31°05' E 121°28'68760.0
2015-Aug-25 02:25N 32°01' E 120°43'5100.6
2015-Aug-25 02:22N 32°00' E 120°49'48306.1
2015-Aug-25 02:13N 31°26' E 121°29'6589554.1
2015-Aug-25 02:09N 23°04' E 113°29'2 3.8
2015-Aug-25 01:30N 23°06' E 113°27'531463.2
2015-Aug-25 01:28N 22°17' E 113°49'9451.5
2015-Aug-25 01:26N 22°09' E 113°54'602729.5
2015-Aug-25 01:25N 23°04' E 113°29'0 1.0
2015-Aug-25 01:20N 23°04' E 113°29'661264509.4
2015-Aug-25 01:20N 32°03' E 120°42'3484.4
2015-Aug-25 01:19N 31°60' E 120°40'81374.1
2015-Aug-25 01:19N 32°00' E 120°49'51482.0
2015-Aug-25 01:19N 32°01' E 120°43'7253.2
2015-Aug-25 01:17N 31°58' E 120°50'662839.2
2015-Aug-25 00:30N 23°06' E 113°27'217.6
2015-Aug-25 00:21N 23°04' E 113°29'0 0.6
2015-Aug-25 00:13N 23°04' E 113°29'5887.9
2015-Aug-24 23:33N 22°10' E 113°52'56516.8
2015-Aug-24 23:33N 22°06' E 113°48'6031073.5
2015-Aug-24 23:33N 23°04' E 113°29'66349736.1
2015-Aug-24 23:33N 32°00' E 120°49'31184.4
2015-Aug-24 23:32N 31°58' E 120°50'82525.8
2015-Aug-24 23:32N 32°03' E 120°42'66114877.6
2015-Aug-24 23:30N 23°06' E 113°27'66220532.6
2015-Aug-24 23:28N 32°02' E 120°43'68447326.2
2015-Aug-24 23:27N 22°26' E 113°50'683769.6
2015-Aug-24 22:33N 32°03' E 120°42'667800005.5
2015-Aug-24 22:33N 23°02' E 113°22'669240675.6
2015-Aug-24 22:33N 32°00' E 120°49'3158.7
2015-Aug-24 22:32N 31°58' E 120°50'6624469.9
2015-Aug-24 22:23N 23°06' E 113°27'6210.3
2015-Aug-24 22:22N 23°02' E 113°21'667822.0
2015-Aug-24 21:33N 32°03' E 120°42'611472.2
2015-Aug-24 21:33N 32°00' E 120°49'663265231.5
2015-Aug-24 21:33N 23°04' E 113°29'66268068.6
2015-Aug-24 21:32N 31°58' E 120°50'6621192214.9
2015-Aug-24 21:32N 23°05' E 113°27'258.3
2015-Aug-24 21:30N 23°04' E 113°29'0 0.5
2015-Aug-24 21:22N 23°04' E 113°29'2392.5
2015-Aug-24 21:22N 23°06' E 113°27'49229.7
2015-Aug-24 21:09N 22°17' E 113°20'4880.3
2015-Aug-24 20:33N 23°04' E 113°29'7887.1
2015-Aug-24 20:33N 22°58' E 113°32'667184591.6
2015-Aug-24 20:32N 32°00' E 120°49'3452.6
2015-Aug-24 20:32N 31°58' E 120°50'81210.9
2015-Aug-24 20:32N 32°03' E 120°42'6613960.7
2015-Aug-24 20:22N 23°06' E 113°27'2548.2
2015-Aug-24 20:21N 23°04' E 113°29'0 0.1
2015-Aug-24 19:33N 23°04' E 113°29'081.0
2015-Aug-24 19:33N 23°04' E 113°29'661238076.5
2015-Aug-24 19:33N 32°03' E 120°42'6305.9
2015-Aug-24 19:32N 32°00' E 120°49'31354.9
2015-Aug-24 19:32N 31°58' E 120°50'6629270.4
2015-Aug-24 19:28N 23°06' E 113°27'221.7
2015-Aug-24 19:21N 23°04' E 113°29'2 3.1
2015-Aug-24 18:33N 23°06' E 113°27'21732.1
2015-Aug-24 18:33N 23°04' E 113°29'076.0
2015-Aug-24 18:33N 23°04' E 113°29'503273.9
2015-Aug-24 18:32N 22°16' E 113°44'50901.8
2015-Aug-24 18:29N 23°02' E 113°23'5 5.5
2015-Aug-24 17:33N 23°06' E 113°27'28660.4
2015-Aug-24 17:33N 23°04' E 113°29'090.5
2015-Aug-24 17:33N 23°04' E 113°29'661216418.2
2015-Aug-24 17:33N 32°03' E 120°42'700630405.9
2015-Aug-24 17:33N 22°12' E 113°39'70221598.6
2015-Aug-24 17:31N 32°00' E 120°49'3731.1
2015-Aug-24 17:31N 31°58' E 120°50'7232893.4
2015-Aug-24 17:16N 22°06' E 113°05'6287.8
2015-Aug-24 16:33N 23°04' E 113°29'669879.3
2015-Aug-24 16:33N 22°02' E 113°05'725652868.8
2015-Aug-24 16:33N 32°03' E 120°42'661297555.4
2015-Aug-24 16:33N 23°04' E 113°29'541393.1
2015-Aug-24 16:30N 22°11' E 113°34'52570.4
2015-Aug-24 16:25N 23°03' E 113°30'5244.9
2015-Aug-24 16:24N 23°06' E 113°27'5970.6
2015-Aug-24 15:33N 22°11' E 113°51'582839.2
2015-Aug-24 15:32N 23°04' E 113°25'6822230.9
2015-Aug-24 15:32N 21°58' E 113°08'692612.8
2015-Aug-24 15:30N 23°04' E 113°29'2206.0
2015-Aug-24 15:30N 23°06' E 113°27'6612790.6
2015-Aug-24 15:15N 32°03' E 120°42'21913.0
2015-Aug-24 15:14N 31°47' E 120°57'13639.1
2015-Aug-24 15:13N 31°58' E 120°50'6621005.2
2015-Aug-24 14:33N 23°04' E 113°29'090.5
2015-Aug-24 14:33N 23°04' E 113°29'661264509.8
2015-Aug-24 14:33N 32°03' E 120°42'205059.5
2015-Aug-24 14:33N 31°47' E 120°56'723520723.3
2015-Aug-24 14:33N 21°54' E 113°11'43919.7
2015-Aug-24 14:30N 22°20' E 113°48'505013.7
2015-Aug-24 14:29N 23°06' E 113°27'5558.8
2015-Aug-24 13:33N 22°11' E 113°25'201576.6
2015-Aug-24 13:33N 21°55' E 113°12'717265.5
2015-Aug-24 13:32N 23°04' E 113°30'31534.2
2015-Aug-24 13:32N 23°06' E 113°27'290.3
2015-Aug-24 13:30N 23°04' E 113°29'2 2.5
2015-Aug-24 12:33N 23°06' E 113°27'7014763.4
2015-Aug-24 12:33N 21°57' E 113°13'694850.5
2015-Aug-24 12:32N 23°04' E 113°30'129.5
2015-Aug-24 12:30N 23°04' E 113°29'137517186.3
2015-Aug-24 12:26N 01°32' E 121°30'13741582.4
2015-Aug-24 11:33N 23°04' E 113°30'69951.5
2015-Aug-24 11:29N 21°57' E 113°13'701805.6
2015-Aug-24 11:27N 23°06' E 113°27'662744.7
2015-Aug-24 10:33N 32°00' E 120°48'51501.8
2015-Aug-24 10:33N 32°03' E 120°42'6581.8
2015-Aug-24 10:33N 32°00' E 120°49'66314204.7
2015-Aug-24 10:30N 23°04' E 113°30'320.3
2015-Aug-24 10:21N 23°06' E 113°27'0 0.0
2015-Aug-24 09:32N 23°06' E 113°27'311112.7
2015-Aug-24 09:32N 23°04' E 113°30'119.4
2015-Aug-24 09:30N 23°04' E 113°29'40661.3
2015-Aug-24 09:27N 22°28' E 113°47'124604.5
2015-Aug-24 09:27N 22°17' E 113°44'105247.2
2015-Aug-24 09:26N 22°10' E 113°35'7052839.3
2015-Aug-24 09:12N 32°00' E 120°49'611476.1
2015-Aug-24 09:11N 32°03' E 120°42'8161.1
2015-Aug-24 09:08N 31°58' E 120°50'6951193.4
2015-Aug-24 08:33N 22°12' E 113°49'5566072.5
2015-Aug-24 08:33N 23°04' E 113°30'3179.2
2015-Aug-24 08:32N 23°06' E 113°27'46948.3
2015-Aug-24 08:29N 22°22' E 113°45'1565.4
2015-Aug-24 08:15N 22°09' E 113°37'705120903.8
2015-Aug-24 08:15N 32°00' E 120°49'663939.2
2015-Aug-24 07:33N 23°04' E 113°29'3416.9
2015-Aug-24 07:32N 23°06' E 113°27'511615.7
2015-Aug-24 07:30N 22°17' E 113°44'4951.9
2015-Aug-24 06:33N 23°04' E 113°29'2126.5
2015-Aug-24 06:32N 23°06' E 113°27'6626884.0
2015-Aug-24 06:26N 32°02' E 120°43'6624891.1
2015-Aug-24 06:18N 23°04' E 113°29'66228363.9
2015-Aug-24 06:17N 31°58' E 120°50'7261001.2
2015-Aug-24 05:33N 21°57' E 113°13'2623616.9
2015-Aug-24 05:33N 22°10' E 113°37'55199104.5
2015-Aug-24 05:33N 23°04' E 113°26'241.6
2015-Aug-24 05:31N 23°06' E 113°27'2357.9
2015-Aug-24 05:30N 23°04' E 113°29'630664.8
2015-Aug-24 04:33N 30°58' E 121°16'67137754.0
2015-Aug-24 04:32N 22°10' E 113°32'70517391.7
2015-Aug-24 04:30N 32°03' E 120°42'72712585.6
2015-Aug-24 04:26N 21°59' E 113°07'692224.9
2015-Aug-24 04:25N 23°06' E 113°27'65876388.5
2015-Aug-24 04:24N 32°00' E 120°39'8858.3
2015-Aug-24 04:23N 32°00' E 120°49'66318363.9
2015-Aug-24 04:21N 23°04' E 113°29'627782.5
2015-Aug-24 03:33N 30°58' E 121°09'651628.7
2015-Aug-24 03:31N 32°00' E 120°49'319.7
2015-Aug-24 03:23N 31°58' E 120°50'6623879.5
2015-Aug-24 03:13N 23°06' E 113°27'661297670.1
2015-Aug-24 03:12N 32°02' E 120°43'66944586.4
2015-Aug-24 03:12N 23°04' E 113°16'670977.4
2015-Aug-24 02:30N 32°00' E 120°49'663298413.8
2015-Aug-24 02:30N 23°04' E 113°29'66174388.7
2015-Aug-24 02:30N 32°03' E 120°42'704110148.4
2015-Aug-24 02:29N 22°09' E 113°37'70025984.2
2015-Aug-24 02:28N 31°60' E 120°40'66311584.0
2015-Aug-24 02:24N 23°03' E 113°21'664.0
2015-Aug-24 02:19N 23°06' E 113°27'6615865.4
2015-Aug-24 02:12N 32°02' E 120°43'5 8.4
2015-Aug-24 01:33N 32°00' E 120°49'611654.9
2015-Aug-24 01:33N 32°03' E 120°42'469.7
2015-Aug-24 01:30N 31°60' E 120°40'700630116.4
2015-Aug-24 01:30N 22°09' E 113°37'70431281.1
2015-Aug-24 01:28N 31°58' E 120°50'740.8
2015-Aug-24 01:17N 32°02' E 120°43'662901.2
2015-Aug-24 00:33N 23°04' E 113°29'66339779.6
2015-Aug-24 00:32N 32°00' E 120°49'6197.1
2015-Aug-24 00:30N 32°03' E 120°42'66614886.4
2015-Aug-24 00:28N 22°56' E 113°34'66248648.1
2015-Aug-24 00:27N 31°60' E 120°40'562.1
2015-Aug-24 00:22N 32°01' E 120°46'554.2
2015-Aug-24 00:16N 31°58' E 120°50'811.8
2015-Aug-23 23:33N 32°03' E 120°42'413438.5
2015-Aug-23 23:33N 31°59' E 120°40'9562.5
2015-Aug-23 23:32N 31°59' E 120°50'1592.4
2015-Aug-23 23:32N 32°00' E 120°49'66328418.1
2015-Aug-23 23:31N 23°06' E 113°27'66214797.3
2015-Aug-23 23:28N 31°58' E 120°50'6623997.8
2015-Aug-23 23:18N 23°04' E 113°29'683632858.3
2015-Aug-23 23:06N 33°28' W 117°42'614611359.0
2015-Aug-23 22:33N 32°01' E 120°32'151553.5
2015-Aug-23 22:33N 32°00' E 120°49'6456.8
2015-Aug-23 22:32N 32°03' E 120°42'9485.7
2015-Aug-23 22:31N 31°58' E 120°50'6626636.2
2015-Aug-23 22:25N 23°06' E 113°27'572245.2
2015-Aug-23 22:23N 22°09' E 113°38'47366.5
2015-Aug-23 22:16N 22°56' E 113°34'5070.6
2015-Aug-23 21:33N 22°07' E 113°42'70484448.9
2015-Aug-23 21:33N 32°03' E 120°42'66618156.4
2015-Aug-23 21:31N 22°56' E 113°34'66830809.4
2015-Aug-23 21:29N 32°00' E 120°49'320.8
2015-Aug-23 21:22N 31°58' E 120°50'662818.2
2015-Aug-23 20:33N 23°04' E 113°29'616283.4
2015-Aug-23 20:33N 22°06' E 113°48'70348649.1
2015-Aug-23 20:32N 32°00' E 120°49'66834330.7
2015-Aug-23 20:31N 22°56' E 113°34'6839239043.3
2015-Aug-23 20:29N 33°13' W 117°47'6141345435.2
2015-Aug-23 20:28N 32°03' E 120°42'83781.2
2015-Aug-23 20:28N 31°58' E 120°50'6626172.3
2015-Aug-23 20:21N 23°06' E 113°27'2 3.0
2015-Aug-23 19:33N 23°04' E 113°29'66195223.5
2015-Aug-23 19:33N 32°03' E 120°42'6716.5
2015-Aug-23 19:32N 32°00' E 120°49'663198917.2
2015-Aug-23 19:32N 23°06' E 113°27'12515.7
2015-Aug-23 19:31N 22°56' E 113°34'684326377.2
2015-Aug-23 19:15N 33°12' W 117°42'6141138169.7
2015-Aug-23 19:13N 31°58' E 120°50'3 3.9
2015-Aug-23 18:32N 32°00' E 120°49'663159148.8
2015-Aug-23 18:32N 23°06' E 113°27'662198563.5
2015-Aug-23 18:32N 32°02' E 120°44'66633320.1
2015-Aug-23 18:31N 22°56' E 113°34'6848440248.0
2015-Aug-23 18:30N 33°12' W 117°37'1 0.6
2015-Aug-23 17:33N 33°12' W 117°37'6848293489.7
2015-Aug-23 17:32N 23°06' E 113°27'66334099.2
2015-Aug-23 17:31N 32°01' E 120°48'114.7
2015-Aug-23 17:26N 32°00' E 120°49'66811956.0
2015-Aug-23 17:23N 22°56' E 113°34'6663777.0
2015-Aug-23 17:12N 31°58' E 120°50'70827717.5
2015-Aug-23 17:11N 22°11' E 113°25'7101025.3
2015-Aug-23 16:29N 32°00' E 120°49'66356833.5
2015-Aug-23 16:29N 23°06' E 113°27'658158026.7
2015-Aug-23 16:28N 31°60' E 120°41'8486.2
2015-Aug-23 16:27N 31°58' E 120°50'666798727.2
2015-Aug-23 16:27N 23°02' E 113°24'444.7
2015-Aug-23 16:21N 23°04' E 113°29'6847115715.6
2015-Aug-23 16:18N 33°12' W 117°38'68479146.9
2015-Aug-23 15:33N 23°06' E 113°27'28939.2
2015-Aug-23 15:33N 23°04' E 113°29'9671.9
2015-Aug-23 15:32N 22°56' E 113°34'461238.7
2015-Aug-23 15:30N 22°10' E 113°31'708106170.9
2015-Aug-23 15:29N 32°00' E 120°49'6634942.4
2015-Aug-23 15:21N 23°04' E 113°29'65650261.4
2015-Aug-23 15:21N 31°22' E 121°30'491208.9
2015-Aug-23 15:18N 31°58' E 120°50'662881.4
2015-Aug-23 14:33N 23°03' E 113°30'5312761.9
2015-Aug-23 14:33N 22°10' E 113°36'7037515.1
2015-Aug-23 14:27N 31°58' E 120°50'3150.2
2015-Aug-23 14:26N 32°00' E 120°49'6635100.8
2015-Aug-23 14:18N 23°04' E 113°29'5978.5
2015-Aug-23 13:33N 22°06' E 113°40'5935262.8
2015-Aug-23 13:33N 23°04' E 113°29'62414.6
2015-Aug-23 13:33N 22°59' E 113°32'66512341.2
2015-Aug-23 13:30N 31°58' E 120°50'3249.4
2015-Aug-23 13:29N 32°00' E 120°49'696747.9
2015-Aug-23 12:33N 22°13' E 113°50'89634.4
2015-Aug-23 12:33N 22°06' E 113°46'6131201.0
2015-Aug-23 12:33N 23°04' E 113°29'1245.5
2015-Aug-23 12:17N 22°53' E 113°34'670803717.0
2015-Aug-23 12:17N 32°00' E 120°49'362.2
2015-Aug-23 12:15N 31°58' E 120°50'662955.0
2015-Aug-23 11:33N 23°04' E 113°29'66215777.2
2015-Aug-23 11:31N 32°02' E 120°44'5 5.3
2015-Aug-23 10:33N 32°00' E 120°49'6683882.3
2015-Aug-23 10:23N 22°56' E 113°34'10330.2
2015-Aug-23 10:21N 23°04' E 113°29'936.5
2015-Aug-23 10:06N 23°03' E 113°19'4 7.3
2015-Aug-23 09:32N 23°02' E 113°23'3779991.2
2015-Aug-23 09:30N 26°00' E 119°29'3723150.5
2015-Aug-23 09:23N 22°56' E 113°34'10343.0
2015-Aug-23 09:21N 23°04' E 113°29'6564396.6
2015-Aug-23 09:12N 31°22' E 121°29'28271.7
2015-Aug-23 09:06N 30°58' E 121°14'6651213.2
2015-Aug-23 08:33N 22°06' E 113°47'60107688.2
2015-Aug-23 08:33N 23°04' E 113°29'501360.9
2015-Aug-23 08:31N 22°17' E 113°47'379273229.0
2015-Aug-23 08:31N 25°58' E 119°25'36830078.5
2015-Aug-23 08:30N 23°04' E 113°29'1077.9
2015-Aug-23 08:23N 22°56' E 113°34'4453.2
2015-Aug-23 07:33N 22°14' E 113°48'69653315.5
2015-Aug-23 07:32N 32°00' E 120°49'39444.6
2015-Aug-23 07:32N 31°58' E 120°50'666114210.0
2015-Aug-23 07:32N 22°56' E 113°34'6468646.6
2015-Aug-23 07:27N 31°05' E 121°28'64846670.9
2015-Aug-23 07:27N 22°56' E 113°30'859.8
2015-Aug-23 07:18N 23°04' E 113°29'659263793.2
2015-Aug-23 07:18N 31°60' E 120°43'53303.2
2015-Aug-23 07:08N 31°21' E 121°25'6861137.9
2015-Aug-23 06:31N 22°10' E 113°48'687103061.3
2015-Aug-23 06:31N 31°21' E 121°27'51394.4
2015-Aug-23 06:23N 32°00' E 120°49'66319567.0
2015-Aug-23 06:21N 23°04' E 113°29'0 0.0
2015-Aug-23 05:33N 23°04' E 113°29'572034.7
2015-Aug-23 05:32N 22°10' E 113°48'68915605.4
2015-Aug-23 05:29N 31°22' E 121°30'67418809.8
2015-Aug-23 05:27N 22°25' E 113°53'6842951.4
2015-Aug-23 05:13N 32°00' E 120°49'5157.1
2015-Aug-23 05:11N 32°01' E 120°43'7147.0
2015-Aug-23 05:08N 31°58' E 120°50'6821050.0
2015-Aug-23 04:29N 22°26' E 113°53'171841.6
2015-Aug-23 04:28N 22°10' E 113°48'6962506900.6
2015-Aug-23 04:28N 32°01' E 120°43'5513284.1
2015-Aug-23 04:28N 31°23' E 121°30'523271.3
2015-Aug-23 04:27N 31°60' E 120°48'3196.1
2015-Aug-23 04:26N 31°58' E 120°50'662727.9
2015-Aug-23 03:32N 23°04' E 113°29'6881374.9
2015-Aug-23 03:32N 22°12' E 114°17'265579.1
2015-Aug-23 03:31N 22°10' E 113°48'6992517374.9
2015-Aug-23 03:31N 32°00' E 120°49'698720.3
2015-Aug-23 02:33N 22°12' E 113°48'552020.7
2015-Aug-23 02:32N 23°04' E 113°29'1012450.2
2015-Aug-23 02:32N 22°54' E 113°29'6717173.2
2015-Aug-23 02:26N 32°00' E 120°49'555.4
2015-Aug-23 02:20N 32°01' E 120°43'7896.7
2015-Aug-23 02:20N 31°58' E 120°50'3 3.3
2015-Aug-23 01:32N 32°00' E 120°49'6734261.6
2015-Aug-23 01:32N 30°59' E 121°19'691202.0
2015-Aug-23 01:28N 32°01' E 120°43'69016459.1
2015-Aug-23 01:26N 22°17' E 113°48'50477.8
2015-Aug-23 01:20N 23°04' E 113°29'642835.6
2015-Aug-23 00:34N 31°05' E 121°28'621555.0
2015-Aug-23 00:31N 31°58' E 120°50'42524.8
2015-Aug-23 00:31N 32°00' E 120°47'4 3.5
2015-Aug-22 23:31N 31°58' E 120°50'345.3
2015-Aug-22 23:27N 32°00' E 120°49'5155.9
2015-Aug-22 23:25N 32°01' E 120°43'6949726.2
2015-Aug-22 23:21N 22°10' E 113°53'697877.9
2015-Aug-22 22:33N 32°00' E 120°49'69312413.1
2015-Aug-22 22:30N 22°17' E 113°48'6901928.9
2015-Aug-22 22:09N 32°01' E 120°43'0 0.0
2015-Aug-22 21:32N 32°01' E 120°43'7263.3
2015-Aug-22 21:31N 31°58' E 120°50'683189242.0
2015-Aug-22 21:30N 22°26' E 113°50'442107.0
2015-Aug-22 21:29N 23°05' E 113°27'6644595.2
2015-Aug-22 21:20N 32°00' E 120°49'6634094.7
2015-Aug-22 21:11N 23°04' E 113°29'6621069.9
2015-Aug-22 20:34N 31°58' E 120°50'346.4
2015-Aug-22 20:30N 32°00' E 120°49'5202.0
2015-Aug-22 20:28N 32°01' E 120°43'6606768.2
2015-Aug-22 20:23N 23°04' E 113°29'663803.0
2015-Aug-22 19:33N 32°00' E 120°49'66327439.1
2015-Aug-22 19:32N 23°04' E 113°29'66232196.9
2015-Aug-22 19:30N 31°58' E 120°50'655.7
2015-Aug-22 19:24N 32°00' E 120°44'1 1.2
2015-Aug-22 18:33N 32°01' E 120°43'66022411.7
2015-Aug-22 18:32N 23°04' E 113°29'511908.0
2015-Aug-22 18:30N 22°14' E 113°24'7088583.7
2015-Aug-22 18:25N 32°00' E 120°49'3178.6
2015-Aug-22 18:24N 31°58' E 120°50'4173.4
2015-Aug-22 18:23N 31°54' E 120°53'6 6.8
2015-Aug-22 17:34N 31°59' E 120°50'1175.0
2015-Aug-22 17:33N 32°00' E 120°49'33154.8
2015-Aug-22 17:33N 31°58' E 120°50'66228030.6
2015-Aug-22 17:32N 23°04' E 113°29'5511602.9
2015-Aug-22 17:31N 22°09' E 113°27'6823177.6
2015-Aug-22 17:18N 31°00' E 121°27'5 6.3
2015-Aug-22 16:33N 30°59' E 121°21'6512276.8
2015-Aug-22 16:33N 31°58' E 120°50'670126874.9
2015-Aug-22 16:33N 22°54' E 113°31'341019.5
2015-Aug-22 16:31N 22°23' E 113°46'44331.0
2015-Aug-22 16:23N 23°04' E 113°29'66326822.4
2015-Aug-22 16:21N 32°00' E 120°49'5295.4
2015-Aug-22 16:20N 32°01' E 120°43'661848.6
2015-Aug-22 15:33N 23°02' E 113°31'630566997.3
2015-Aug-22 15:33N 30°58' E 121°14'66067905.5
2015-Aug-22 15:33N 22°15' E 113°43'513001.6
2015-Aug-22 15:32N 23°04' E 113°29'11197.6
2015-Aug-22 15:28N 22°54' E 113°30'635693.9
2015-Aug-22 14:34N 30°59' E 121°09'658169084.4
2015-Aug-22 14:33N 22°10' E 113°52'112259.0
2015-Aug-22 14:33N 22°12' E 113°40'523108.5
2015-Aug-22 14:32N 23°02' E 113°23'6981.9
2015-Aug-22 14:32N 23°04' E 113°29'5354.4
2015-Aug-22 13:33N 22°12' E 113°40'531884.2
2015-Aug-22 13:32N 23°04' E 113°29'6636801.1
2015-Aug-22 13:26N 32°00' E 120°49'319.0
2015-Aug-22 13:18N 31°58' E 120°50'700945.7
2015-Aug-22 12:33N 22°12' E 113°40'111186.3
2015-Aug-22 12:33N 22°10' E 113°52'583179.2
2015-Aug-22 12:32N 23°04' E 113°29'663149199.8
2015-Aug-22 12:31N 32°00' E 120°49'375.0
2015-Aug-22 12:29N 31°58' E 120°50'700749.1
2015-Aug-22 11:33N 22°12' E 113°40'9352.7
2015-Aug-22 11:32N 22°18' E 113°48'69169115.1
2015-Aug-22 11:31N 32°01' E 120°46'2803.6
2015-Aug-22 11:31N 32°00' E 120°49'5414.5
2015-Aug-22 11:30N 32°01' E 120°43'798.3
2015-Aug-22 11:26N 32°01' E 120°35'66510639.8
2015-Aug-22 11:22N 22°54' E 113°28'6708181.5
2015-Aug-22 11:17N 31°58' E 120°50'6794674.5
2015-Aug-22 11:08N 22°15' E 114°19'684768.0
2015-Aug-22 11:08N 23°04' E 113°29'6621158.5
2015-Aug-22 10:33N 31°58' E 120°52'668300589.7
2015-Aug-22 10:33N 23°03' E 113°20'5416085.7
2015-Aug-22 10:33N 22°12' E 113°40'70062958.5
2015-Aug-22 10:32N 31°58' E 120°50'8310.4
2015-Aug-22 10:31N 32°01' E 120°42'6829443.4
2015-Aug-22 10:26N 22°12' E 114°15'6857983.9
2015-Aug-22 10:21N 32°00' E 120°49'66323176.8
2015-Aug-22 10:20N 23°04' E 113°29'663854.4
2015-Aug-22 09:33N 32°00' E 120°49'70156077.1
2015-Aug-22 09:32N 22°12' E 113°40'14116.0
2015-Aug-22 09:25N 22°11' E 113°25'103895819.4
2015-Aug-22 09:24N 39°05' E 117°46'98553732.7
2015-Aug-22 09:23N 23°05' E 113°27'234.7
2015-Aug-22 09:20N 23°04' E 113°29'65563688.3
2015-Aug-22 09:19N 31°22' E 121°28'690898.8
2015-Aug-22 08:33N 22°12' E 113°40'95667.9
2015-Aug-22 08:33N 22°10' E 113°30'1039747863.1
2015-Aug-22 08:33N 39°04' E 117°51'98650686.8
2015-Aug-22 08:32N 23°04' E 113°29'6606579.1
2015-Aug-22 08:26N 31°42' E 121°09'25277.4
2015-Aug-22 08:20N 32°02' E 120°50'1821337.0
2015-Aug-22 08:20N 31°47' E 121°01'910211.8
2015-Aug-22 08:20N 31°49' E 120°51'92653.1
2015-Aug-22 08:20N 31°58' E 120°50'69776065.4
2015-Aug-22 08:19N 22°13' E 113°45'68939365.2
2015-Aug-22 08:18N 31°22' E 121°30'695931.1
2015-Aug-22 07:33N 22°10' E 113°37'41436.6
2015-Aug-22 07:33N 22°12' E 113°40'622869.8
2015-Aug-22 07:33N 22°08' E 113°46'5763.9
2015-Aug-22 07:33N 22°13' E 113°48'691146369.4
2015-Aug-22 07:33N 31°38' E 121°15'66610119.6
2015-Aug-22 07:29N 23°03' E 113°19'960.8
2015-Aug-22 07:20N 23°04' E 113°29'64370.8
2015-Aug-22 07:09N 22°02' E 113°47'7011175.1
2015-Aug-22 06:33N 31°41' E 121°12'66566470.1
2015-Aug-22 06:33N 23°02' E 113°24'664140577.3
2015-Aug-22 06:33N 31°33' E 121°21'69395904.1
2015-Aug-22 06:32N 22°12' E 113°45'556784.2
2015-Aug-22 06:32N 23°04' E 113°29'571106.2
2015-Aug-22 06:29N 22°10' E 113°48'7 7.4
2015-Aug-22 05:34N 22°14' E 113°43'698114252.9
2015-Aug-22 05:33N 32°00' E 120°49'699209793.6
2015-Aug-22 05:33N 22°10' E 113°48'81305.9
2015-Aug-22 05:33N 22°02' E 113°47'70157338.3
2015-Aug-22 05:32N 31°37' E 121°16'303084.4
2015-Aug-22 05:31N 31°58' E 120°50'662125476.0
2015-Aug-22 05:31N 23°05' E 113°27'66030476.0
2015-Aug-22 05:30N 32°01' E 120°43'6605629.7
2015-Aug-22 05:23N 23°04' E 113°29'6592074.6
2015-Aug-22 05:04N 31°24' E 121°32'6961390.1
2015-Aug-22 04:34N 22°11' E 113°38'61294.7
2015-Aug-22 04:33N 22°05' E 113°42'706231111.6
2015-Aug-22 04:33N 32°00' E 120°49'136724.9
2015-Aug-22 04:33N 32°00' E 120°34'472007.6
2015-Aug-22 04:32N 31°34' E 121°19'347712.7
2015-Aug-22 04:31N 31°58' E 120°50'502536.7
2015-Aug-22 04:30N 31°21' E 121°30'65742207.3
2015-Aug-22 04:29N 23°03' E 113°30'661198154.2
2015-Aug-22 04:29N 32°01' E 120°43'696417853.5
2015-Aug-22 04:29N 22°10' E 113°48'57555.6
2015-Aug-22 04:23N 23°04' E 113°29'5465.4
2015-Aug-22 03:34N 22°11' E 113°33'142578.5
2015-Aug-22 03:33N 22°13' E 113°48'689310165.8
2015-Aug-22 03:33N 31°31' E 121°23'69883774.7
2015-Aug-22 03:33N 22°10' E 113°36'543494.7
2015-Aug-22 03:32N 23°04' E 113°29'653733.6
2015-Aug-22 03:31N 22°11' E 114°09'689718.8
2015-Aug-22 02:33N 32°00' E 120°49'4312865.4
2015-Aug-22 02:33N 31°29' E 121°24'67432374.8
2015-Aug-22 02:32N 22°12' E 114°17'68266364.5
2015-Aug-22 02:31N 31°58' E 120°50'72094.4
2015-Aug-22 02:31N 32°01' E 120°43'6601707.9
2015-Aug-22 02:08N 23°04' E 113°29'6621162.8
2015-Aug-22 01:33N 31°58' E 120°50'71569.8
2015-Aug-22 01:33N 32°01' E 120°43'52474.7
2015-Aug-22 01:33N 32°00' E 120°49'43498.1
2015-Aug-22 01:28N 31°29' E 121°24'6587474.4
2015-Aug-22 01:23N 23°04' E 113°29'6242840.8
2015-Aug-22 01:09N 30°58' E 121°05'61100.8
2015-Aug-22 00:33N 31°58' E 120°50'62110790.2
2015-Aug-22 00:33N 30°58' E 121°07'6428796.6
2015-Aug-22 00:33N 31°60' E 120°48'66228047.2
2015-Aug-22 00:32N 23°04' E 113°29'65811847.0
2015-Aug-22 00:28N 31°29' E 121°24'471567.9
2015-Aug-22 00:26N 32°01' E 120°43'6 6.3
2015-Aug-21 23:33N 32°00' E 120°49'31816.5
2015-Aug-21 23:33N 31°58' E 120°50'66228029.5
2015-Aug-21 23:32N 23°04' E 113°29'6282260211.9
2015-Aug-21 23:32N 30°57' E 121°13'691545.0
2015-Aug-21 23:29N 32°01' E 120°43'67930553.4
2015-Aug-21 23:28N 22°19' E 114°10'591358.1
2015-Aug-21 23:25N 23°04' E 113°29'970.6
2015-Aug-21 23:17N 23°03' E 113°19'71754.8
2015-Aug-21 23:11N 21°52' E 113°17'70110.9
2015-Aug-21 22:33N 23°02' E 113°24'6662396368.7
2015-Aug-21 22:33N 32°01' E 120°44'620274.6
2015-Aug-21 22:33N 31°58' E 120°50'680244900.6
2015-Aug-21 22:33N 22°19' E 114°10'6822454371.2
2015-Aug-21 22:33N 32°00' E 120°49'67241507.0
2015-Aug-21 22:33N 30°58' E 121°18'69755792.5
2015-Aug-21 22:32N 21°53' E 113°12'72466845.9
2015-Aug-21 22:32N 32°02' E 120°31'655786202.3
2015-Aug-21 22:32N 23°04' E 113°29'6584171.5
2015-Aug-21 22:22N 31°29' E 121°24'6642723.0
2015-Aug-21 22:08N 23°02' E 113°21'62110.0
2015-Aug-21 21:34N 22°19' E 114°10'5917635.9
2015-Aug-21 21:33N 23°04' E 113°29'73262730.1
2015-Aug-21 21:33N 21°53' E 113°11'726871390.4
2015-Aug-21 21:33N 32°00' E 120°37'116699.8
2015-Aug-21 21:33N 31°58' E 120°50'31849.6
2015-Aug-21 21:33N 32°00' E 120°49'11658.0
2015-Aug-21 21:32N 32°01' E 120°36'66074211.1
2015-Aug-21 21:32N 23°03' E 113°25'426.3
2015-Aug-21 21:23N 23°04' E 113°29'6585751.3
2015-Aug-21 21:16N 31°29' E 121°24'485988.6
2015-Aug-21 21:15N 32°00' E 120°40'2 2.3
2015-Aug-21 20:34N 32°01' E 120°42'27616.6
2015-Aug-21 20:34N 32°01' E 120°45'6802449050.8
2015-Aug-21 20:33N 22°19' E 114°10'673151474.4
2015-Aug-21 20:33N 31°29' E 121°24'4322052.7
2015-Aug-21 20:33N 32°00' E 120°49'31349.2
2015-Aug-21 20:33N 31°58' E 120°50'662119132.2
2015-Aug-21 20:33N 23°04' E 113°29'22224.0
2015-Aug-21 20:33N 23°03' E 113°31'2131.3
2015-Aug-21 20:32N 23°04' E 113°29'565306.3
2015-Aug-21 20:31N 22°09' E 113°38'30108540.8
2015-Aug-21 20:31N 21°53' E 113°11'6062.6
2015-Aug-21 19:33N 22°19' E 114°10'60108267.1
2015-Aug-21 19:33N 21°53' E 113°11'7313137.6
2015-Aug-21 19:33N 23°04' E 113°29'015.4
2015-Aug-21 19:32N 23°04' E 113°29'65881703.2
2015-Aug-21 19:31N 31°29' E 121°24'46536.9
2015-Aug-21 19:26N 32°01' E 120°45'3117.2
2015-Aug-21 19:24N 32°00' E 120°49'3335.5
2015-Aug-21 19:24N 31°58' E 120°50'680811.8
2015-Aug-21 18:34N 22°19' E 114°10'681163374.6
2015-Aug-21 18:33N 32°01' E 120°45'31348.1
2015-Aug-21 18:33N 32°00' E 120°49'732292755.5
2015-Aug-21 18:33N 21°53' E 113°11'7313827.9
2015-Aug-21 18:33N 23°04' E 113°29'020.1
2015-Aug-21 18:32N 23°04' E 113°29'1053.3
2015-Aug-21 18:21N 22°56' E 113°34'6624302.5
2015-Aug-21 18:12N 31°29' E 121°24'6731062.6
2015-Aug-21 17:33N 22°19' E 114°10'597055.5
2015-Aug-21 17:33N 23°04' E 113°29'541384.8
2015-Aug-21 17:31N 22°10' E 113°31'251194.0
2015-Aug-21 17:29N 21°53' E 113°11'7319165.4
2015-Aug-21 17:25N 32°01' E 120°45'3449.6
2015-Aug-21 17:24N 32°00' E 120°49'66325668.9
2015-Aug-21 17:23N 23°04' E 113°29'65813237.6
2015-Aug-21 17:20N 31°29' E 121°24'401120.7
2015-Aug-21 17:17N 31°58' E 120°50'5 7.3
2015-Aug-21 16:33N 32°01' E 120°45'704316680.1
2015-Aug-21 16:33N 22°10' E 113°36'3223077.9
2015-Aug-21 16:33N 22°19' E 114°10'682490874.2
2015-Aug-21 16:33N 32°00' E 120°49'4377176.6
2015-Aug-21 16:33N 31°29' E 121°24'658592350.9
2015-Aug-21 16:33N 23°04' E 113°29'66261093.3
2015-Aug-21 16:32N 31°58' E 120°50'731164367.9
2015-Aug-21 16:32N 21°53' E 113°11'73351.7
2015-Aug-21 16:20N 23°04' E 113°29'5976.9
2015-Aug-21 15:34N 22°19' E 114°10'673346229.6
2015-Aug-21 15:33N 31°29' E 121°24'4616483.9
2015-Aug-21 15:33N 32°01' E 120°45'31348.1
2015-Aug-21 15:33N 32°00' E 120°49'3197.2
2015-Aug-21 15:32N 31°58' E 120°50'731202297.5
2015-Aug-21 15:32N 21°53' E 113°11'3214395.2
2015-Aug-21 15:32N 22°07' E 113°42'5812334.0
2015-Aug-21 15:32N 23°04' E 113°30'11629.7
2015-Aug-21 15:32N 23°04' E 113°29'97640850.3
2015-Aug-21 15:30N 37°05' E 123°02'324342.6
2015-Aug-21 14:33N 32°01' E 120°45'731657622.9
2015-Aug-21 14:33N 21°53' E 113°11'6036107.0
2015-Aug-21 14:33N 22°19' E 114°10'233732.1
2015-Aug-21 14:33N 22°06' E 113°49'70222375.4
2015-Aug-21 14:31N 32°00' E 120°49'43848.0
2015-Aug-21 14:28N 31°29' E 121°24'6758735.4
2015-Aug-21 14:23N 22°27' E 113°54'37589.4
2015-Aug-21 14:20N 22°57' E 113°30'5368.9
2015-Aug-21 13:33N 22°19' E 114°10'601164.8
2015-Aug-21 13:30N 21°53' E 113°11'7327549.9
2015-Aug-21 13:25N 32°00' E 120°49'1307.3
2015-Aug-21 13:24N 32°01' E 120°48'679976.5
2015-Aug-21 13:24N 30°57' E 121°11'3747077.9
2015-Aug-21 13:21N 37°03' E 122°41'3404357.3
2015-Aug-21 13:16N 31°29' E 121°24'6584682.6
2015-Aug-21 13:08N 23°04' E 113°29'73128.1
2015-Aug-21 12:33N 21°53' E 113°11'606560.2
2015-Aug-21 12:33N 22°19' E 114°10'98756405.4
2015-Aug-21 12:32N 37°03' E 122°33'962346440.8
2015-Aug-21 12:32N 23°04' E 113°29'658131633.7
2015-Aug-21 12:31N 31°29' E 121°24'322051.7
2015-Aug-21 12:30N 30°58' E 121°14'63997.9
2015-Aug-21 12:27N 31°58' E 120°52'165.0
2015-Aug-21 12:26N 31°58' E 120°50'3105.4
2015-Aug-21 12:24N 32°00' E 120°49'67210746.0
2015-Aug-21 12:20N 22°50' E 113°35'43240.5
2015-Aug-21 12:09N 22°18' E 114°07'5995.5
2015-Aug-21 11:32N 23°02' E 113°24'7012609.7
2015-Aug-21 11:32N 21°53' E 113°11'582128.3
2015-Aug-21 11:30N 22°18' E 114°07'64815665.9
2015-Aug-21 11:28N 30°59' E 121°19'6475574.1
2015-Aug-21 11:21N 22°28' E 113°54'43558.1
2015-Aug-21 11:16N 23°04' E 113°29'96210271.6
2015-Aug-21 11:11N 37°02' E 122°33'3384270.8
2015-Aug-21 11:06N 31°29' E 121°24'7251334.2
2015-Aug-21 10:33N 21°53' E 113°11'105845910.7
2015-Aug-21 10:32N 39°04' E 117°49'2554705.0
2015-Aug-21 10:29N 37°02' E 122°33'962247251.3
2015-Aug-21 10:29N 23°04' E 113°29'65828207.2
2015-Aug-21 10:27N 31°29' E 121°24'11538.4
2015-Aug-21 10:27N 31°30' E 121°24'67431925.5
2015-Aug-21 10:26N 22°28' E 113°54'5360.0
2015-Aug-21 09:32N 21°53' E 113°11'7259066.0
2015-Aug-21 09:28N 31°29' E 121°24'48715242.3
2015-Aug-21 09:26N 39°04' E 117°51'986197111.7
2015-Aug-21 09:25N 23°04' E 113°29'431408.0
2015-Aug-21 09:24N 22°28' E 113°54'6447404.5
2015-Aug-21 09:18N 30°58' E 121°15'63340688.9
2015-Aug-21 09:17N 22°55' E 113°36'96760015.1
2015-Aug-21 09:16N 37°02' E 122°33'31413459.7
2015-Aug-21 09:15N 32°00' E 120°49'6516.8
2015-Aug-21 09:14N 32°00' E 120°43'471240.6
2015-Aug-21 09:12N 31°30' E 121°24'6641014.9
2015-Aug-21 08:33N 22°55' E 113°33'6610266.7
2015-Aug-21 08:33N 21°53' E 113°11'726153699.1
2015-Aug-21 08:32N 31°09' E 121°52'35675328.4
2015-Aug-21 08:32N 37°03' E 122°36'33933922.7
2015-Aug-21 08:31N 31°29' E 121°24'6581185135.9
2015-Aug-21 08:31N 23°06' E 113°26'659169520.1
2015-Aug-21 08:31N 31°30' E 121°24'65914645.4
2015-Aug-21 08:28N 23°04' E 113°29'59414.7
2015-Aug-21 08:20N 22°19' E 114°10'6077.9
2015-Aug-21 07:34N 21°53' E 113°11'726435899.0
2015-Aug-21 07:33N 31°14' E 121°47'661216236.7
2015-Aug-21 07:33N 23°03' E 113°30'659113018.8
2015-Aug-21 07:33N 31°29' E 121°25'431280.6
2015-Aug-21 07:31N 32°00' E 120°49'433340.3
2015-Aug-21 07:30N 31°30' E 121°24'65924458.3
2015-Aug-21 07:28N 23°04' E 113°29'43804.7
2015-Aug-21 07:25N 22°28' E 113°54'45856.1
2015-Aug-21 07:22N 23°06' E 113°27'6604878.0
2015-Aug-21 07:14N 31°35' E 121°19'660970.4
2015-Aug-21 06:33N 23°04' E 113°29'65912485.4
2015-Aug-21 06:30N 31°30' E 121°24'1301.3
2015-Aug-21 06:30N 31°29' E 121°25'56444126.0
2015-Aug-21 06:29N 23°04' E 116°43'563101273.2
2015-Aug-21 06:29N 31°18' E 121°47'67747767.7
2015-Aug-21 06:28N 22°28' E 113°54'67515369.8
2015-Aug-21 06:25N 31°31' E 121°24'2124.3
2015-Aug-21 05:33N 31°24' E 121°47'203929.3
2015-Aug-21 05:33N 31°29' E 121°25'5592010890.2
2015-Aug-21 05:33N 23°08' E 116°47'187112120.9
2015-Aug-21 05:33N 23°02' E 113°24'66310378.5
2015-Aug-21 05:29N 31°30' E 121°24'1163.6
2015-Aug-21 05:19N 31°21' E 121°32'6626993.6
2015-Aug-21 05:13N 23°02' E 113°21'6651012.6
2015-Aug-21 04:33N 31°29' E 121°25'4173939.3
2015-Aug-21 04:33N 31°58' E 120°50'4958926.1
2015-Aug-21 04:33N 31°22' E 121°30'529280.0
2015-Aug-21 04:33N 32°00' E 120°49'666799636.2
2015-Aug-21 04:33N 23°03' E 113°25'453827.5
2015-Aug-21 04:32N 22°27' E 113°54'679163024.9
2015-Aug-21 04:32N 32°01' E 120°43'46554.0
2015-Aug-21 04:32N 32°00' E 120°39'585756.9
2015-Aug-21 04:31N 31°22' E 121°30'65618590.6
2015-Aug-21 04:29N 23°03' E 113°32'658237001.2
2015-Aug-21 04:29N 31°30' E 121°24'553153151.0
2015-Aug-21 04:29N 23°12' E 116°53'18730653.6
2015-Aug-21 04:29N 23°04' E 113°29'659718.2
2015-Aug-21 03:33N 31°29' E 121°25'660791735.7
2015-Aug-21 03:33N 23°05' E 113°27'264.6
2015-Aug-21 03:31N 23°04' E 113°29'65936490.5
2015-Aug-21 03:30N 31°25' E 121°31'28810.3
2015-Aug-21 03:28N 30°59' E 121°19'6470.2
2015-Aug-21 02:33N 31°58' E 120°50'4399.5
2015-Aug-21 02:32N 31°59' E 120°45'4580691.3
2015-Aug-21 02:32N 31°29' E 121°25'6619799.3
2015-Aug-21 02:28N 22°59' E 113°31'66364505.9
2015-Aug-21 02:28N 32°01' E 120°43'69011446.2
2015-Aug-21 02:24N 22°17' E 113°49'686783.8
2015-Aug-21 01:32N 31°29' E 121°25'6656784.9
2015-Aug-21 01:26N 23°03' E 113°19'91341.8
2015-Aug-21 01:25N 23°04' E 113°29'662766.0
2015-Aug-21 00:34N 32°00' E 120°47'454137.4
2015-Aug-21 00:33N 31°29' E 121°25'419865.5
2015-Aug-21 00:33N 31°58' E 120°50'5151.7
2015-Aug-21 00:31N 31°53' E 120°49'65718064.4
2015-Aug-21 00:28N 23°04' E 113°29'6826.1
2015-Aug-21 00:28N 23°02' E 113°23'701768.9
2015-Aug-21 00:26N 21°53' E 113°11'634197.3
2015-Aug-21 00:25N 22°54' E 113°30'45232.2
2015-Aug-21 00:25N 22°52' E 113°34'6672613.6
2015-Aug-21 00:09N 32°01' E 120°43'4879.2
2015-Aug-20 23:33N 31°29' E 121°25'661475909.0
2015-Aug-20 23:33N 23°04' E 113°25'66455561.0
2015-Aug-20 23:32N 31°58' E 120°50'73090679.6
2015-Aug-20 23:32N 21°53' E 113°11'73257277.6
2015-Aug-20 23:31N 32°00' E 120°49'5250.6
2015-Aug-20 23:30N 32°01' E 120°43'5 4.8
2015-Aug-20 22:34N 32°01' E 120°48'663216992.2
2015-Aug-20 22:33N 23°04' E 113°29'7311417.6
2015-Aug-20 22:33N 21°53' E 113°11'726653421.3
2015-Aug-20 22:33N 31°29' E 121°25'413528.3
2015-Aug-20 22:32N 31°58' E 120°50'682204622.7
2015-Aug-20 22:32N 22°26' E 113°53'45739.7
2015-Aug-20 22:28N 23°04' E 113°29'65521633.0
2015-Aug-20 22:27N 31°50' E 120°48'112258.4
2015-Aug-20 22:26N 32°01' E 120°43'6685491.5
2015-Aug-20 22:19N 22°53' E 113°31'6382.4
2015-Aug-20 21:33N 21°53' E 113°11'732263485.7
2015-Aug-20 21:33N 32°00' E 120°49'4319538.7
2015-Aug-20 21:33N 31°29' E 121°25'412464.9
2015-Aug-20 21:32N 31°58' E 120°50'7125.5
2015-Aug-20 21:29N 32°01' E 120°43'6834479.1
2015-Aug-20 21:19N 22°24' E 113°50'44885.7
2015-Aug-20 21:16N 23°04' E 113°29'73101.5
2015-Aug-20 20:33N 21°53' E 113°11'732292749.9
2015-Aug-20 20:33N 32°00' E 120°49'437441.4
2015-Aug-20 20:33N 31°29' E 121°25'412636.4
2015-Aug-20 20:32N 31°58' E 120°50'7559.1
2015-Aug-20 20:31N 32°01' E 120°43'6602693.6
2015-Aug-20 20:16N 23°04' E 113°29'6606142.1
2015-Aug-20 20:10N 31°01' E 122°02'6 9.4
2015-Aug-20 19:33N 31°05' E 121°58'726217925.0
2015-Aug-20 19:33N 21°53' E 113°11'732292759.8
2015-Aug-20 19:33N 32°00' E 120°49'3114.8
2015-Aug-20 19:32N 31°58' E 120°50'7335.7
2015-Aug-20 19:31N 32°01' E 120°43'4828555.0
2015-Aug-20 19:30N 31°29' E 121°25'6597855.2
2015-Aug-20 19:25N 23°04' E 113°29'660763.4
2015-Aug-20 18:33N 31°10' E 121°51'72635313.2
2015-Aug-20 18:32N 21°53' E 113°11'72656819.2
2015-Aug-20 18:31N 31°29' E 121°25'65912685.8
2015-Aug-20 18:28N 23°04' E 113°29'661722.1
2015-Aug-20 17:33N 31°15' E 121°46'234365.4
2015-Aug-20 17:33N 31°29' E 121°25'72635801.3
2015-Aug-20 17:32N 21°53' E 113°11'72246382.3
2015-Aug-20 17:31N 31°22' E 121°28'6556973.7
2015-Aug-20 17:25N 23°04' E 113°29'66312304.9
2015-Aug-20 17:22N 32°00' E 120°49'4983796.6
2015-Aug-20 17:14N 24°06' E 117°59'480705.2
2015-Aug-20 16:33N 31°21' E 121°48'217652.7
2015-Aug-20 16:33N 31°29' E 121°25'726124458.7
2015-Aug-20 16:33N 21°53' E 113°11'72218291.6
2015-Aug-20 16:31N 31°22' E 121°28'4695189.9
2015-Aug-20 16:25N 24°10' E 118°02'469542.0
2015-Aug-20 15:33N 31°22' E 121°28'8451.3
2015-Aug-20 15:32N 31°29' E 121°25'47013110.3
2015-Aug-20 15:30N 24°13' E 118°07'2649407.6
2015-Aug-20 15:28N 23°04' E 113°29'659719.5
2015-Aug-20 14:33N 31°29' E 121°25'726326712.2
2015-Aug-20 14:33N 21°53' E 113°11'31380399.0
2015-Aug-20 14:33N 24°16' E 118°13'45933710.2
2015-Aug-20 14:32N 31°22' E 121°28'65510160.4
2015-Aug-20 14:28N 23°04' E 113°29'65411433.8
2015-Aug-20 14:25N 31°16' E 121°34'58385.5
2015-Aug-20 14:16N 32°00' E 120°49'2271.0
2015-Aug-20 14:16N 31°59' E 120°50'4970.2
2015-Aug-20 13:33N 31°22' E 121°28'8863.3
2015-Aug-20 13:33N 31°29' E 121°25'726217809.6
2015-Aug-20 13:33N 21°53' E 113°11'7293811.0
2015-Aug-20 13:21N 32°00' E 120°44'2943.4
2015-Aug-20 13:21N 32°02' E 120°44'731919.2
2015-Aug-20 12:33N 21°53' E 113°11'72255266.2
2015-Aug-20 12:32N 31°22' E 121°28'8376.8
2015-Aug-20 12:31N 31°29' E 121°25'67712068.3
2015-Aug-20 12:28N 22°25' E 113°54'46239.7
2015-Aug-20 12:16N 23°04' E 113°29'1051.7
2015-Aug-20 12:05N 23°03' E 113°19'6621244.4
2015-Aug-20 11:33N 31°22' E 121°28'81398.2
2015-Aug-20 11:33N 31°29' E 121°25'66530287.0
2015-Aug-20 11:32N 23°02' E 113°22'765.8
2015-Aug-20 11:25N 23°04' E 113°29'1 7.3
2015-Aug-20 11:13N 23°04' E 113°30'4 5.6
2015-Aug-20 10:33N 23°05' E 113°27'660237545.7
2015-Aug-20 10:33N 31°29' E 121°25'4317389.6
2015-Aug-20 10:33N 32°00' E 120°49'3287.7
2015-Aug-20 10:33N 31°58' E 120°50'6629724.0
2015-Aug-20 10:28N 23°04' E 113°29'660107984.0
2015-Aug-20 10:28N 32°01' E 120°43'551628.5
2015-Aug-20 10:26N 31°22' E 121°28'24252.8
2015-Aug-20 10:20N 30°59' E 121°21'66968.2
2015-Aug-20 10:16N 31°59' E 120°51'6633626.4
2015-Aug-20 10:05N 23°04' E 113°30'6631229.5
2015-Aug-20 09:33N 32°00' E 120°49'21113.7
2015-Aug-20 09:33N 31°59' E 120°51'1134.6
2015-Aug-20 09:32N 31°58' E 120°50'704506819.9
2015-Aug-20 09:32N 22°09' E 113°37'69421920.3
2015-Aug-20 09:30N 31°22' E 121°28'689496139.2
2015-Aug-20 09:30N 22°06' E 113°52'611151.8
2015-Aug-20 09:27N 23°05' E 113°32'5964.5
2015-Aug-20 08:32N 22°06' E 113°43'32121805.7
2015-Aug-20 08:31N 24°41' E 118°49'45167591.1
2015-Aug-20 08:31N 32°01' E 120°42'4821597.4
2015-Aug-20 08:31N 31°29' E 121°25'4412148.9
2015-Aug-20 08:31N 32°00' E 120°48'705845675.9
2015-Aug-20 08:31N 22°09' E 113°37'121687.1
2015-Aug-20 08:30N 22°15' E 113°48'52643.6
2015-Aug-20 08:25N 23°04' E 113°29'6639042.2
2015-Aug-20 08:21N 32°00' E 120°49'70517042.5
2015-Aug-20 08:18N 22°09' E 113°38'699927.3
2015-Aug-20 07:33N 31°29' E 121°25'42489886.4
2015-Aug-20 07:33N 24°46' E 118°54'3321195721.3
2015-Aug-20 07:33N 22°11' E 113°34'6323.5
2015-Aug-20 07:32N 22°15' E 113°39'50871.2
2015-Aug-20 07:28N 23°04' E 113°29'56551.9
2015-Aug-20 07:22N 22°09' E 113°37'55417.0
2015-Aug-20 07:14N 23°03' E 113°30'0 4.7
2015-Aug-20 07:13N 23°03' E 113°30'6597984.1
2015-Aug-20 07:08N 31°26' E 121°28'491244.7
2015-Aug-20 07:05N 32°01' E 120°48'4584.3
2015-Aug-20 06:33N 31°29' E 121°25'4179217.8
2015-Aug-20 06:31N 24°52' E 119°01'4163679.6
2015-Aug-20 06:24N 31°27' E 121°29'6609422.6
2015-Aug-20 06:20N 23°03' E 113°30'51802.7
2015-Aug-20 06:16N 22°12' E 113°24'6755881.7
2015-Aug-20 06:09N 30°58' E 121°18'6321046.2
2015-Aug-20 05:33N 23°04' E 113°28'659395542.3
2015-Aug-20 05:33N 31°29' E 121°25'65923505.6
2015-Aug-20 05:31N 23°02' E 113°31'6379361.9
2015-Aug-20 05:27N 31°08' E 121°13'63723875.0
2015-Aug-20 05:25N 23°04' E 113°29'66119348.1
2015-Aug-20 05:23N 31°22' E 121°38'142634.7
2015-Aug-20 05:23N 31°29' E 121°24'70316438.0
2015-Aug-20 05:20N 22°09' E 113°28'21107.6
2015-Aug-20 05:09N 22°16' E 113°49'6871159.2
2015-Aug-20 04:33N 31°20' E 121°41'689137792.6
2015-Aug-20 04:33N 22°15' E 113°48'5213487.4
2015-Aug-20 04:33N 23°02' E 113°24'66332705.4
2015-Aug-20 04:32N 31°32' E 121°21'678101648.7
2015-Aug-20 04:31N 22°23' E 113°54'67832123.3
2015-Aug-20 04:30N 31°29' E 121°25'25970.9
2015-Aug-20 04:28N 31°09' E 121°10'67712373.8
2015-Aug-20 04:25N 22°10' E 113°31'7086037.6
2015-Aug-20 04:18N 32°00' E 120°49'6634755.6
2015-Aug-20 04:10N 23°04' E 113°29'4269.8
2015-Aug-20 03:33N 22°28' E 113°53'6532349498.1
2015-Aug-20 03:33N 31°12' E 121°09'141925.9
2015-Aug-20 03:33N 30°58' E 121°14'33119325.4
2015-Aug-20 03:33N 31°29' E 121°25'69295855.1
2015-Aug-20 03:32N 22°10' E 113°48'12443.0
2015-Aug-20 03:31N 22°10' E 113°35'5448517.1
2015-Aug-20 03:31N 23°04' E 113°29'114.3
2015-Aug-20 03:26N 23°05' E 113°28'112.1
2015-Aug-20 03:19N 23°04' E 113°29'6612903.8
2015-Aug-20 03:06N 31°20' E 121°40'6931294.7
2015-Aug-20 02:33N 22°11' E 113°47'672186142.6
2015-Aug-20 02:33N 31°15' E 121°09'201217.2
2015-Aug-20 02:32N 31°29' E 121°25'334911.2
2015-Aug-20 02:32N 31°00' E 121°07'6431156612.9
2015-Aug-20 02:32N 22°28' E 113°53'422286.3
2015-Aug-20 02:31N 23°04' E 113°29'585753.5
2015-Aug-20 02:30N 22°08' E 113°40'581050.8
2015-Aug-20 02:27N 23°05' E 113°33'317.0
2015-Aug-20 02:16N 23°04' E 113°29'6605550.6
2015-Aug-20 02:09N 32°01' E 120°43'52828.0
2015-Aug-20 02:09N 32°00' E 120°49'3100.6
2015-Aug-20 02:07N 31°58' E 120°50'5192.4
2015-Aug-20 02:06N 32°01' E 120°46'63115.2
2015-Aug-20 01:33N 31°20' E 121°41'38110300.8
2015-Aug-20 01:31N 25°17' E 119°30'38635640.0
2015-Aug-20 01:30N 31°29' E 121°25'19179.0
2015-Aug-20 01:24N 31°17' E 121°09'64016462.7
2015-Aug-20 01:22N 23°04' E 113°29'50732.2
2015-Aug-20 01:18N 22°17' E 113°48'686931.0
2015-Aug-20 00:33N 31°29' E 121°25'44158541.0
2015-Aug-20 00:33N 31°60' E 120°47'6861235351.8
2015-Aug-20 00:33N 22°25' E 113°45'6871237192.4
2015-Aug-20 00:33N 31°60' E 120°50'667240253.6
2015-Aug-20 00:33N 23°02' E 113°24'664478336.7
2015-Aug-20 00:33N 32°01' E 120°43'184888.6
2015-Aug-20 00:33N 31°47' E 120°56'1210911.6
2015-Aug-20 00:33N 31°58' E 120°51'565928.9
2015-Aug-20 00:32N 31°21' E 121°40'272052.2
2015-Aug-20 00:31N 31°17' E 121°09'640153655.0
2015-Aug-20 00:31N 23°04' E 113°29'66220191.1
2015-Aug-20 00:29N 31°58' E 120°50'665149660.0
2015-Aug-20 00:29N 22°59' E 113°31'662715.8
2015-Aug-19 23:33N 31°52' E 120°53'911046.5
2015-Aug-19 23:33N 32°01' E 120°48'462782.3
2015-Aug-19 23:32N 31°17' E 121°06'409579.1
2015-Aug-19 23:32N 31°55' E 120°53'66141025.4
2015-Aug-19 23:31N 23°04' E 113°29'662238252.7
2015-Aug-19 23:31N 31°58' E 120°50'4137051.2
2015-Aug-19 23:31N 31°29' E 121°25'481824.4
2015-Aug-19 23:29N 32°01' E 120°43'634923.4
2015-Aug-19 23:29N 31°21' E 121°40'54603.3
2015-Aug-19 23:23N 31°56' E 120°53'5377100291.4
2015-Aug-19 23:20N 49°21' W 123°16'53766914.2
2015-Aug-19 22:33N 32°00' E 120°49'  

Dump ship's entire track history